<?xml version='1.0' encoding='UTF-8'?><gpx version="1.1" creator="JPX - https://github.com/jenetics/jpx" xmlns="http://www.topografix.com/GPX/1/1"><trk><trkseg><trkpt lat="38.0054179" lon="13.4014405"><ele>727.0</ele><time>2026-04-26T14:50:31.068Z</time></trkpt><trkpt lat="38.0054924" lon="13.4014179"><ele>727.0</ele><time>2026-04-26T14:50:34.068Z</time></trkpt><trkpt lat="38.0055751" lon="13.4013977"><ele>727.0</ele><time>2026-04-26T14:50:37.068Z</time></trkpt><trkpt lat="38.0056386" lon="13.4013589"><ele>727.0</ele><time>2026-04-26T14:50:39.068Z</time></trkpt><trkpt lat="38.005705" lon="13.4013112"><ele>727.0</ele><time>2026-04-26T14:50:41.068Z</time></trkpt><trkpt lat="38.0057811" lon="13.401266"><ele>727.0</ele><time>2026-04-26T14:50:43.068Z</time></trkpt><trkpt lat="38.0058577" lon="13.40122"><ele>726.6666666666667</ele><time>2026-04-26T14:50:45.068Z</time></trkpt><trkpt lat="38.0059385" lon="13.4011678"><ele>726.3333333333334</ele><time>2026-04-26T14:50:47.068Z</time></trkpt><trkpt lat="38.006019" lon="13.4011079"><ele>726.0</ele><time>2026-04-26T14:50:49.068Z</time></trkpt><trkpt lat="38.0060963" lon="13.4010551"><ele>725.6666666666666</ele><time>2026-04-26T14:50:51.068Z</time></trkpt><trkpt lat="38.0061605" lon="13.4010041"><ele>725.3333333333333</ele><time>2026-04-26T14:50:53.068Z</time></trkpt><trkpt lat="38.006215" lon="13.4009489"><ele>725.0</ele><time>2026-04-26T14:50:55.068Z</time></trkpt><trkpt lat="38.0062879" lon="13.4009336"><ele>725.0</ele><time>2026-04-26T14:50:58.068Z</time></trkpt><trkpt lat="38.006312" lon="13.4010381"><ele>725.0</ele><time>2026-04-26T14:51:01.068Z</time></trkpt><trkpt lat="38.0063167" lon="13.4011222"><ele>725.0</ele><time>2026-04-26T14:51:03.069Z</time></trkpt><trkpt lat="38.0063164" lon="13.4012087"><ele>725.0</ele><time>2026-04-26T14:51:05.068Z</time></trkpt><trkpt lat="38.0063214" lon="13.4012943"><ele>725.0</ele><time>2026-04-26T14:51:07.068Z</time></trkpt><trkpt lat="38.0063466" lon="13.4013969"><ele>725.0</ele><time>2026-04-26T14:51:10.068Z</time></trkpt><trkpt lat="38.0063765" lon="13.4014838"><ele>725.0</ele><time>2026-04-26T14:51:13.069Z</time></trkpt><trkpt lat="38.0064225" lon="13.4015755"><ele>724.3333333333333</ele><time>2026-04-26T14:51:16.069Z</time></trkpt><trkpt lat="38.0064693" lon="13.4016572"><ele>723.6666666666666</ele><time>2026-04-26T14:51:19.068Z</time></trkpt><trkpt lat="38.0065259" lon="13.4017532"><ele>723.0</ele><time>2026-04-26T14:51:22.068Z</time></trkpt><trkpt lat="38.0065569" lon="13.4018443"><ele>722.3333333333334</ele><time>2026-04-26T14:51:24.069Z</time></trkpt><trkpt lat="38.0065823" lon="13.4019426"><ele>721.6666666666667</ele><time>2026-04-26T14:51:26.068Z</time></trkpt><trkpt lat="38.0066151" lon="13.4020354"><ele>721.0</ele><time>2026-04-26T14:51:28.068Z</time></trkpt><trkpt lat="38.0066461" lon="13.4021197"><ele>717.1666666666667</ele><time>2026-04-26T14:51:30.068Z</time></trkpt><trkpt lat="38.0066743" lon="13.4021954"><ele>713.3333333333334</ele><time>2026-04-26T14:51:32.068Z</time></trkpt><trkpt lat="38.0067041" lon="13.402283"><ele>709.5</ele><time>2026-04-26T14:51:35.068Z</time></trkpt><trkpt lat="38.0067493" lon="13.4023784"><ele>705.6666666666666</ele><time>2026-04-26T14:51:38.068Z</time></trkpt><trkpt lat="38.0067852" lon="13.4024463"><ele>701.8333333333333</ele><time>2026-04-26T14:51:40.068Z</time></trkpt><trkpt lat="38.00683" lon="13.4025101"><ele>698.0</ele><time>2026-04-26T14:51:42.068Z</time></trkpt><trkpt lat="38.0068987" lon="13.4025911"><ele>698.0</ele><time>2026-04-26T14:51:45.068Z</time></trkpt><trkpt lat="38.0069496" lon="13.4026468"><ele>698.0</ele><time>2026-04-26T14:51:47.068Z</time></trkpt><trkpt lat="38.0070013" lon="13.4027107"><ele>698.0</ele><time>2026-04-26T14:51:49.068Z</time></trkpt><trkpt lat="38.0070512" lon="13.4027723"><ele>698.0</ele><time>2026-04-26T14:51:51.068Z</time></trkpt><trkpt lat="38.0071076" lon="13.4028467"><ele>698.0</ele><time>2026-04-26T14:51:53.069Z</time></trkpt><trkpt lat="38.0071719" lon="13.4029333"><ele>698.0</ele><time>2026-04-26T14:51:55.068Z</time></trkpt><trkpt lat="38.0072277" lon="13.4030049"><ele>696.3333333333333</ele><time>2026-04-26T14:51:57.068Z</time></trkpt><trkpt lat="38.0072747" lon="13.4030608"><ele>694.6666666666666</ele><time>2026-04-26T14:51:59.068Z</time></trkpt><trkpt lat="38.0073335" lon="13.4031117"><ele>693.0</ele><time>2026-04-26T14:52:01.068Z</time></trkpt><trkpt lat="38.0073998" lon="13.4031562"><ele>691.3333333333334</ele><time>2026-04-26T14:52:03.068Z</time></trkpt><trkpt lat="38.0074886" lon="13.4031867"><ele>689.6666666666667</ele><time>2026-04-26T14:52:05.068Z</time></trkpt><trkpt lat="38.0075833" lon="13.4031985"><ele>688.0</ele><time>2026-04-26T14:52:07.069Z</time></trkpt><trkpt lat="38.0076805" lon="13.403193"><ele>688.0</ele><time>2026-04-26T14:52:09.068Z</time></trkpt><trkpt lat="38.0077916" lon="13.4031689"><ele>688.0</ele><time>2026-04-26T14:52:11.069Z</time></trkpt><trkpt lat="38.0079028" lon="13.4031252"><ele>688.0</ele><time>2026-04-26T14:52:13.068Z</time></trkpt><trkpt lat="38.0079994" lon="13.4030751"><ele>688.0</ele><time>2026-04-26T14:52:15.068Z</time></trkpt><trkpt lat="38.008075" lon="13.4030263"><ele>688.0</ele><time>2026-04-26T14:52:17.068Z</time></trkpt><trkpt lat="38.0081385" lon="13.402987"><ele>685.1666666666667</ele><time>2026-04-26T14:52:19.068Z</time></trkpt><trkpt lat="38.0082162" lon="13.4029219"><ele>682.3333333333334</ele><time>2026-04-26T14:52:22.068Z</time></trkpt><trkpt lat="38.0082709" lon="13.4028564"><ele>679.5</ele><time>2026-04-26T14:52:24.068Z</time></trkpt><trkpt lat="38.0083273" lon="13.4027959"><ele>676.6666666666666</ele><time>2026-04-26T14:52:26.068Z</time></trkpt><trkpt lat="38.0083864" lon="13.4027396"><ele>673.8333333333333</ele><time>2026-04-26T14:52:28.068Z</time></trkpt><trkpt lat="38.008438" lon="13.4026774"><ele>671.0</ele><time>2026-04-26T14:52:30.068Z</time></trkpt><trkpt lat="38.0084899" lon="13.4026194"><ele>670.2857142857142</ele><time>2026-04-26T14:52:32.068Z</time></trkpt><trkpt lat="38.008544" lon="13.4025664"><ele>669.5714285714287</ele><time>2026-04-26T14:52:34.068Z</time></trkpt><trkpt lat="38.0085964" lon="13.4025155"><ele>668.8571428571429</ele><time>2026-04-26T14:52:36.069Z</time></trkpt><trkpt lat="38.0086519" lon="13.402465"><ele>668.1428571428571</ele><time>2026-04-26T14:52:38.068Z</time></trkpt><trkpt lat="38.0087128" lon="13.4024234"><ele>667.4285714285713</ele><time>2026-04-26T14:52:40.068Z</time></trkpt><trkpt lat="38.0087813" lon="13.4023907"><ele>666.7142857142858</ele><time>2026-04-26T14:52:42.068Z</time></trkpt><trkpt lat="38.0088523" lon="13.4023449"><ele>666.0</ele><time>2026-04-26T14:52:44.068Z</time></trkpt><trkpt lat="38.008929" lon="13.4022972"><ele>666.0</ele><time>2026-04-26T14:52:46.068Z</time></trkpt><trkpt lat="38.0090133" lon="13.4022624"><ele>666.0</ele><time>2026-04-26T14:52:48.068Z</time></trkpt><trkpt lat="38.0091061" lon="13.4022304"><ele>666.0</ele><time>2026-04-26T14:52:50.068Z</time></trkpt><trkpt lat="38.0091881" lon="13.402186"><ele>666.0</ele><time>2026-04-26T14:52:52.069Z</time></trkpt><trkpt lat="38.0092684" lon="13.4021533"><ele>666.0</ele><time>2026-04-26T14:52:54.068Z</time></trkpt><trkpt lat="38.0093475" lon="13.4021199"><ele>666.0</ele><time>2026-04-26T14:52:56.068Z</time></trkpt><trkpt lat="38.0094213" lon="13.4020833"><ele>662.8571428571429</ele><time>2026-04-26T14:52:58.068Z</time></trkpt><trkpt lat="38.0094902" lon="13.402046"><ele>659.7142857142857</ele><time>2026-04-26T14:53:00.068Z</time></trkpt><trkpt lat="38.0095512" lon="13.4020036"><ele>656.5714285714286</ele><time>2026-04-26T14:53:02.068Z</time></trkpt><trkpt lat="38.0096152" lon="13.4019684"><ele>653.4285714285714</ele><time>2026-04-26T14:53:04.068Z</time></trkpt><trkpt lat="38.0096801" lon="13.4019319"><ele>650.2857142857142</ele><time>2026-04-26T14:53:06.068Z</time></trkpt><trkpt lat="38.0097345" lon="13.4018906"><ele>647.1428571428571</ele><time>2026-04-26T14:53:08.068Z</time></trkpt><trkpt lat="38.0097956" lon="13.4018516"><ele>644.0</ele><time>2026-04-26T14:53:10.068Z</time></trkpt><trkpt lat="38.009865" lon="13.4018453"><ele>644.0</ele><time>2026-04-26T14:53:12.068Z</time></trkpt><trkpt lat="38.009924" lon="13.4018946"><ele>644.0</ele><time>2026-04-26T14:53:14.068Z</time></trkpt><trkpt lat="38.0099778" lon="13.4019609"><ele>644.0</ele><time>2026-04-26T14:53:16.068Z</time></trkpt><trkpt lat="38.0100144" lon="13.4020376"><ele>644.0</ele><time>2026-04-26T14:53:18.068Z</time></trkpt><trkpt lat="38.0100434" lon="13.4021416"><ele>644.0</ele><time>2026-04-26T14:53:21.069Z</time></trkpt><trkpt lat="38.0100469" lon="13.4022318"><ele>644.0</ele><time>2026-04-26T14:53:23.069Z</time></trkpt><trkpt lat="38.010048" lon="13.4023189"><ele>644.0</ele><time>2026-04-26T14:53:25.068Z</time></trkpt><trkpt lat="38.0100387" lon="13.4024017"><ele>644.6666666666666</ele><time>2026-04-26T14:53:27.068Z</time></trkpt><trkpt lat="38.0100222" lon="13.4025016"><ele>645.3333333333333</ele><time>2026-04-26T14:53:29.068Z</time></trkpt><trkpt lat="38.0100097" lon="13.4026059"><ele>646.0</ele><time>2026-04-26T14:53:31.068Z</time></trkpt><trkpt lat="38.0099917" lon="13.4027192"><ele>646.6666666666666</ele><time>2026-04-26T14:53:33.068Z</time></trkpt><trkpt lat="38.0099727" lon="13.4028337"><ele>647.3333333333334</ele><time>2026-04-26T14:53:35.068Z</time></trkpt><trkpt lat="38.009957" lon="13.4029456"><ele>648.0</ele><time>2026-04-26T14:53:37.068Z</time></trkpt><trkpt lat="38.0099392" lon="13.4030391"><ele>651.6666666666666</ele><time>2026-04-26T14:53:39.069Z</time></trkpt><trkpt lat="38.0099243" lon="13.4031243"><ele>655.3333333333334</ele><time>2026-04-26T14:53:41.068Z</time></trkpt><trkpt lat="38.0099062" lon="13.403203"><ele>659.0</ele><time>2026-04-26T14:53:43.068Z</time></trkpt><trkpt lat="38.0098846" lon="13.4033165"><ele>662.6666666666667</ele><time>2026-04-26T14:53:46.068Z</time></trkpt><trkpt lat="38.0098869" lon="13.4034289"><ele>666.3333333333334</ele><time>2026-04-26T14:53:48.068Z</time></trkpt><trkpt lat="38.0099033" lon="13.4035324"><ele>670.0</ele><time>2026-04-26T14:53:50.068Z</time></trkpt><trkpt lat="38.009916" lon="13.4036325"><ele>670.0</ele><time>2026-04-26T14:53:52.068Z</time></trkpt><trkpt lat="38.0099319" lon="13.4037382"><ele>670.0</ele><time>2026-04-26T14:53:54.068Z</time></trkpt><trkpt lat="38.0099417" lon="13.4038469"><ele>670.0</ele><time>2026-04-26T14:53:56.068Z</time></trkpt><trkpt lat="38.0099485" lon="13.4039582"><ele>670.0</ele><time>2026-04-26T14:53:58.068Z</time></trkpt><trkpt lat="38.0099568" lon="13.4040703"><ele>670.0</ele><time>2026-04-26T14:54:00.068Z</time></trkpt><trkpt lat="38.0099582" lon="13.4041743"><ele>670.0</ele><time>2026-04-26T14:54:02.068Z</time></trkpt><trkpt lat="38.0099499" lon="13.4042648"><ele>670.6666666666667</ele><time>2026-04-26T14:54:04.068Z</time></trkpt><trkpt lat="38.0099372" lon="13.4043792"><ele>671.3333333333334</ele><time>2026-04-26T14:54:07.068Z</time></trkpt><trkpt lat="38.0099929" lon="13.4044588"><ele>672.0</ele><time>2026-04-26T14:54:10.068Z</time></trkpt><trkpt lat="38.0100654" lon="13.4044157"><ele>672.6666666666666</ele><time>2026-04-26T14:54:13.068Z</time></trkpt><trkpt lat="38.0100875" lon="13.4043257"><ele>673.3333333333333</ele><time>2026-04-26T14:54:15.068Z</time></trkpt><trkpt lat="38.0101078" lon="13.404246"><ele>674.0</ele><time>2026-04-26T14:54:17.068Z</time></trkpt><trkpt lat="38.0101463" lon="13.4041368"><ele>668.5714285714287</ele><time>2026-04-26T14:54:20.068Z</time></trkpt><trkpt lat="38.0101798" lon="13.4040648"><ele>663.1428571428571</ele><time>2026-04-26T14:54:22.068Z</time></trkpt><trkpt lat="38.0102227" lon="13.403995"><ele>657.7142857142858</ele><time>2026-04-26T14:54:24.068Z</time></trkpt><trkpt lat="38.0102668" lon="13.4039268"><ele>652.2857142857143</ele><time>2026-04-26T14:54:26.069Z</time></trkpt><trkpt lat="38.0103219" lon="13.4038578"><ele>646.8571428571429</ele><time>2026-04-26T14:54:28.069Z</time></trkpt><trkpt lat="38.0103894" lon="13.4038122"><ele>641.4285714285714</ele><time>2026-04-26T14:54:30.068Z</time></trkpt><trkpt lat="38.010456" lon="13.4037861"><ele>636.0</ele><time>2026-04-26T14:54:32.068Z</time></trkpt><trkpt lat="38.0105222" lon="13.4037573"><ele>636.0</ele><time>2026-04-26T14:54:34.068Z</time></trkpt><trkpt lat="38.0105764" lon="13.4037102"><ele>636.0</ele><time>2026-04-26T14:54:36.068Z</time></trkpt><trkpt lat="38.0106263" lon="13.4036455"><ele>636.0</ele><time>2026-04-26T14:54:38.069Z</time></trkpt><trkpt lat="38.0106716" lon="13.4035687"><ele>636.0</ele><time>2026-04-26T14:54:40.069Z</time></trkpt><trkpt lat="38.0107072" lon="13.4034849"><ele>636.0</ele><time>2026-04-26T14:54:42.068Z</time></trkpt><trkpt lat="38.0107472" lon="13.4034058"><ele>636.0</ele><time>2026-04-26T14:54:44.068Z</time></trkpt><trkpt lat="38.0107842" lon="13.4033294"><ele>636.0</ele><time>2026-04-26T14:54:46.068Z</time></trkpt><trkpt lat="38.0108277" lon="13.4032557"><ele>634.5</ele><time>2026-04-26T14:54:48.067Z</time></trkpt><trkpt lat="38.0108875" lon="13.4031967"><ele>633.0</ele><time>2026-04-26T14:54:50.067Z</time></trkpt><trkpt lat="38.0109648" lon="13.4031457"><ele>631.5</ele><time>2026-04-26T14:54:52.067Z</time></trkpt><trkpt lat="38.0110456" lon="13.4031033"><ele>630.0</ele><time>2026-04-26T14:54:54.068Z</time></trkpt><trkpt lat="38.011116" lon="13.4030566"><ele>628.5</ele><time>2026-04-26T14:54:56.067Z</time></trkpt><trkpt lat="38.0111872" lon="13.4030135"><ele>627.0</ele><time>2026-04-26T14:54:58.067Z</time></trkpt><trkpt lat="38.0112633" lon="13.4029708"><ele>627.0</ele><time>2026-04-26T14:55:00.067Z</time></trkpt><trkpt lat="38.0113267" lon="13.402922"><ele>627.0</ele><time>2026-04-26T14:55:02.067Z</time></trkpt><trkpt lat="38.011375" lon="13.4028651"><ele>627.0</ele><time>2026-04-26T14:55:04.067Z</time></trkpt><trkpt lat="38.0114238" lon="13.4027956"><ele>627.0</ele><time>2026-04-26T14:55:06.067Z</time></trkpt><trkpt lat="38.0114687" lon="13.4027023"><ele>627.0</ele><time>2026-04-26T14:55:08.067Z</time></trkpt><trkpt lat="38.0115027" lon="13.4026218"><ele>627.0</ele><time>2026-04-26T14:55:10.067Z</time></trkpt><trkpt lat="38.0115354" lon="13.4025518"><ele>627.0</ele><time>2026-04-26T14:55:12.067Z</time></trkpt><trkpt lat="38.0115655" lon="13.4024756"><ele>627.0</ele><time>2026-04-26T14:55:14.067Z</time></trkpt><trkpt lat="38.0115899" lon="13.4023976"><ele>627.0</ele><time>2026-04-26T14:55:16.067Z</time></trkpt><trkpt lat="38.0116322" lon="13.4023058"><ele>627.0</ele><time>2026-04-26T14:55:19.067Z</time></trkpt><trkpt lat="38.011705" lon="13.4023311"><ele>627.0</ele><time>2026-04-26T14:55:22.067Z</time></trkpt><trkpt lat="38.0117251" lon="13.4024492"><ele>627.0</ele><time>2026-04-26T14:55:25.067Z</time></trkpt><trkpt lat="38.011742" lon="13.4025374"><ele>627.0</ele><time>2026-04-26T14:55:27.067Z</time></trkpt><trkpt lat="38.0117622" lon="13.4026217"><ele>623.0</ele><time>2026-04-26T14:55:29.067Z</time></trkpt><trkpt lat="38.0117803" lon="13.4027019"><ele>619.0</ele><time>2026-04-26T14:55:31.067Z</time></trkpt><trkpt lat="38.0118066" lon="13.4027835"><ele>615.0</ele><time>2026-04-26T14:55:33.067Z</time></trkpt><trkpt lat="38.0118379" lon="13.4028787"><ele>611.0</ele><time>2026-04-26T14:55:35.067Z</time></trkpt><trkpt lat="38.0118567" lon="13.4029637"><ele>607.0</ele><time>2026-04-26T14:55:37.067Z</time></trkpt><trkpt lat="38.0118791" lon="13.4030446"><ele>603.0</ele><time>2026-04-26T14:55:39.067Z</time></trkpt><trkpt lat="38.0119018" lon="13.4031233"><ele>599.0</ele><time>2026-04-26T14:55:41.067Z</time></trkpt><trkpt lat="38.0119213" lon="13.4032087"><ele>598.0</ele><time>2026-04-26T14:55:43.068Z</time></trkpt><trkpt lat="38.0119384" lon="13.4032932"><ele>597.0</ele><time>2026-04-26T14:55:45.067Z</time></trkpt><trkpt lat="38.0119582" lon="13.4033766"><ele>596.0</ele><time>2026-04-26T14:55:47.067Z</time></trkpt><trkpt lat="38.0120082" lon="13.4034635"><ele>595.0</ele><time>2026-04-26T14:55:49.067Z</time></trkpt><trkpt lat="38.012081" lon="13.4035356"><ele>594.0</ele><time>2026-04-26T14:55:51.067Z</time></trkpt><trkpt lat="38.0121652" lon="13.4035845"><ele>593.0</ele><time>2026-04-26T14:55:53.067Z</time></trkpt><trkpt lat="38.0122431" lon="13.4036281"><ele>593.0</ele><time>2026-04-26T14:55:55.068Z</time></trkpt><trkpt lat="38.0123109" lon="13.4036494"><ele>593.0</ele><time>2026-04-26T14:55:57.068Z</time></trkpt><trkpt lat="38.012378" lon="13.4036315"><ele>593.0</ele><time>2026-04-26T14:55:59.068Z</time></trkpt><trkpt lat="38.0124424" lon="13.4035725"><ele>593.0</ele><time>2026-04-26T14:56:01.068Z</time></trkpt><trkpt lat="38.0125085" lon="13.4035296"><ele>593.0</ele><time>2026-04-26T14:56:03.068Z</time></trkpt><trkpt lat="38.0125866" lon="13.4034812"><ele>593.0</ele><time>2026-04-26T14:56:06.067Z</time></trkpt><trkpt lat="38.0126574" lon="13.4034293"><ele>590.7142857142857</ele><time>2026-04-26T14:56:09.067Z</time></trkpt><trkpt lat="38.0127308" lon="13.4033617"><ele>588.4285714285714</ele><time>2026-04-26T14:56:12.068Z</time></trkpt><trkpt lat="38.0127838" lon="13.403318"><ele>586.1428571428571</ele><time>2026-04-26T14:56:14.067Z</time></trkpt><trkpt lat="38.0128382" lon="13.403247"><ele>583.8571428571429</ele><time>2026-04-26T14:56:17.068Z</time></trkpt><trkpt lat="38.0128865" lon="13.4031834"><ele>581.5714285714286</ele><time>2026-04-26T14:56:20.068Z</time></trkpt><trkpt lat="38.0129391" lon="13.4031145"><ele>579.2857142857142</ele><time>2026-04-26T14:56:23.067Z</time></trkpt><trkpt lat="38.0129821" lon="13.4030504"><ele>577.0</ele><time>2026-04-26T14:56:26.067Z</time></trkpt><trkpt lat="38.0130432" lon="13.4029803"><ele>576.1666666666667</ele><time>2026-04-26T14:56:29.068Z</time></trkpt><trkpt lat="38.0130967" lon="13.4029004"><ele>575.3333333333334</ele><time>2026-04-26T14:56:32.067Z</time></trkpt><trkpt lat="38.0131421" lon="13.4028386"><ele>574.5</ele><time>2026-04-26T14:56:34.068Z</time></trkpt><trkpt lat="38.0131898" lon="13.402777"><ele>573.6666666666666</ele><time>2026-04-26T14:56:36.067Z</time></trkpt><trkpt lat="38.0132478" lon="13.4027194"><ele>572.8333333333333</ele><time>2026-04-26T14:56:38.067Z</time></trkpt><trkpt lat="38.0133195" lon="13.402661"><ele>572.0</ele><time>2026-04-26T14:56:40.067Z</time></trkpt><trkpt lat="38.0133918" lon="13.4025999"><ele>570.8000000000001</ele><time>2026-04-26T14:56:42.067Z</time></trkpt><trkpt lat="38.0134612" lon="13.4025379"><ele>569.6</ele><time>2026-04-26T14:56:44.067Z</time></trkpt><trkpt lat="38.013534" lon="13.4024764"><ele>568.4000000000001</ele><time>2026-04-26T14:56:46.067Z</time></trkpt><trkpt lat="38.0136177" lon="13.4024172"><ele>567.2</ele><time>2026-04-26T14:56:48.067Z</time></trkpt><trkpt lat="38.0137049" lon="13.4023598"><ele>566.0</ele><time>2026-04-26T14:56:50.067Z</time></trkpt><trkpt lat="38.0137822" lon="13.4023096"><ele>566.0</ele><time>2026-04-26T14:56:52.067Z</time></trkpt><trkpt lat="38.0138513" lon="13.4022783"><ele>566.0</ele><time>2026-04-26T14:56:55.068Z</time></trkpt><trkpt lat="38.0139103" lon="13.4022411"><ele>566.0</ele><time>2026-04-26T14:56:58.067Z</time></trkpt><trkpt lat="38.0139973" lon="13.402178"><ele>566.0</ele><time>2026-04-26T14:57:24.067Z</time></trkpt><trkpt lat="38.014062" lon="13.4021301"><ele>566.0</ele><time>2026-04-26T14:57:25.067Z</time></trkpt><trkpt lat="38.0141376" lon="13.4020905"><ele>566.0</ele><time>2026-04-26T14:57:26.067Z</time></trkpt><trkpt lat="38.0142188" lon="13.4020431"><ele>564.0</ele><time>2026-04-26T14:57:27.067Z</time></trkpt><trkpt lat="38.0142953" lon="13.4019945"><ele>562.0</ele><time>2026-04-26T14:57:28.067Z</time></trkpt><trkpt lat="38.0143686" lon="13.4019432"><ele>560.0</ele><time>2026-04-26T14:57:29.067Z</time></trkpt><trkpt lat="38.0144386" lon="13.4018966"><ele>558.0</ele><time>2026-04-26T14:57:30.067Z</time></trkpt><trkpt lat="38.0145082" lon="13.4018556"><ele>556.0</ele><time>2026-04-26T14:57:31.067Z</time></trkpt><trkpt lat="38.0145729" lon="13.4018124"><ele>554.0</ele><time>2026-04-26T14:57:32.067Z</time></trkpt><trkpt lat="38.0146318" lon="13.4017678"><ele>554.0</ele><time>2026-04-26T14:57:33.067Z</time></trkpt><trkpt lat="38.0146942" lon="13.4017173"><ele>554.0</ele><time>2026-04-26T14:57:34.067Z</time></trkpt><trkpt lat="38.0147523" lon="13.4016584"><ele>554.0</ele><time>2026-04-26T14:57:35.067Z</time></trkpt><trkpt lat="38.0148131" lon="13.4015967"><ele>554.0</ele><time>2026-04-26T14:57:36.067Z</time></trkpt><trkpt lat="38.0148677" lon="13.401524"><ele>554.0</ele><time>2026-04-26T14:57:37.067Z</time></trkpt><trkpt lat="38.0149274" lon="13.4014522"><ele>554.0</ele><time>2026-04-26T14:57:38.067Z</time></trkpt><trkpt lat="38.0149787" lon="13.4013778"><ele>552.6666666666666</ele><time>2026-04-26T14:57:39.067Z</time></trkpt><trkpt lat="38.0150329" lon="13.4013062"><ele>551.3333333333333</ele><time>2026-04-26T14:57:40.067Z</time></trkpt><trkpt lat="38.015084" lon="13.4012333"><ele>550.0</ele><time>2026-04-26T14:57:41.067Z</time></trkpt><trkpt lat="38.0151375" lon="13.4011597"><ele>548.6666666666666</ele><time>2026-04-26T14:57:42.067Z</time></trkpt><trkpt lat="38.0151939" lon="13.4010878"><ele>547.3333333333334</ele><time>2026-04-26T14:57:43.067Z</time></trkpt><trkpt lat="38.0152486" lon="13.4010163"><ele>546.0</ele><time>2026-04-26T14:57:44.067Z</time></trkpt><trkpt lat="38.0153051" lon="13.400941"><ele>546.0</ele><time>2026-04-26T14:57:45.067Z</time></trkpt><trkpt lat="38.0153624" lon="13.4008695"><ele>546.0</ele><time>2026-04-26T14:57:46.068Z</time></trkpt><trkpt lat="38.0154245" lon="13.4008098"><ele>546.0</ele><time>2026-04-26T14:57:47.067Z</time></trkpt><trkpt lat="38.0155026" lon="13.4007589"><ele>546.0</ele><time>2026-04-26T14:57:48.067Z</time></trkpt><trkpt lat="38.0155898" lon="13.4007305"><ele>546.0</ele><time>2026-04-26T14:57:49.067Z</time></trkpt><trkpt lat="38.0156804" lon="13.4007141"><ele>546.0</ele><time>2026-04-26T14:57:50.067Z</time></trkpt><trkpt lat="38.0157735" lon="13.4007176"><ele>546.3333333333334</ele><time>2026-04-26T14:57:51.068Z</time></trkpt><trkpt lat="38.0158618" lon="13.4007352"><ele>546.6666666666666</ele><time>2026-04-26T14:57:52.067Z</time></trkpt><trkpt lat="38.0159446" lon="13.4007636"><ele>547.0</ele><time>2026-04-26T14:57:53.067Z</time></trkpt><trkpt lat="38.0160258" lon="13.400791"><ele>547.3333333333333</ele><time>2026-04-26T14:57:54.067Z</time></trkpt><trkpt lat="38.016101" lon="13.4008105"><ele>547.6666666666666</ele><time>2026-04-26T14:57:55.067Z</time></trkpt><trkpt lat="38.0161752" lon="13.4008243"><ele>548.0</ele><time>2026-04-26T14:57:56.067Z</time></trkpt><trkpt lat="38.0162461" lon="13.4008288"><ele>548.0</ele><time>2026-04-26T14:57:57.067Z</time></trkpt><trkpt lat="38.0163162" lon="13.4008068"><ele>548.0</ele><time>2026-04-26T14:57:58.067Z</time></trkpt><trkpt lat="38.0163864" lon="13.4007531"><ele>548.0</ele><time>2026-04-26T14:57:59.067Z</time></trkpt><trkpt lat="38.0164486" lon="13.4006769"><ele>548.0</ele><time>2026-04-26T14:58:00.068Z</time></trkpt><trkpt lat="38.0165001" lon="13.4005831"><ele>548.0</ele><time>2026-04-26T14:58:01.067Z</time></trkpt><trkpt lat="38.016528" lon="13.4004706"><ele>548.0</ele><time>2026-04-26T14:58:02.067Z</time></trkpt><trkpt lat="38.0165328" lon="13.4003559"><ele>546.5</ele><time>2026-04-26T14:58:03.067Z</time></trkpt><trkpt lat="38.0165143" lon="13.4002469"><ele>545.0</ele><time>2026-04-26T14:58:04.068Z</time></trkpt><trkpt lat="38.0164741" lon="13.400143"><ele>543.5</ele><time>2026-04-26T14:58:05.067Z</time></trkpt><trkpt lat="38.0164235" lon="13.4000674"><ele>542.0</ele><time>2026-04-26T14:58:06.067Z</time></trkpt><trkpt lat="38.0163536" lon="13.3999947"><ele>540.5</ele><time>2026-04-26T14:58:07.068Z</time></trkpt><trkpt lat="38.0162673" lon="13.3999422"><ele>539.0</ele><time>2026-04-26T14:58:08.067Z</time></trkpt><trkpt lat="38.0161768" lon="13.3998968"><ele>539.0</ele><time>2026-04-26T14:58:09.067Z</time></trkpt><trkpt lat="38.0160899" lon="13.3998479"><ele>539.0</ele><time>2026-04-26T14:58:10.067Z</time></trkpt><trkpt lat="38.0160029" lon="13.3998138"><ele>539.0</ele><time>2026-04-26T14:58:11.067Z</time></trkpt><trkpt lat="38.0159138" lon="13.3997883"><ele>539.0</ele><time>2026-04-26T14:58:12.067Z</time></trkpt><trkpt lat="38.0158267" lon="13.3997757"><ele>539.0</ele><time>2026-04-26T14:58:13.067Z</time></trkpt><trkpt lat="38.0157363" lon="13.3997759"><ele>537.3333333333333</ele><time>2026-04-26T14:58:14.067Z</time></trkpt><trkpt lat="38.0156445" lon="13.3997837"><ele>535.6666666666666</ele><time>2026-04-26T14:58:15.067Z</time></trkpt><trkpt lat="38.0155503" lon="13.3997948"><ele>534.0</ele><time>2026-04-26T14:58:16.067Z</time></trkpt><trkpt lat="38.0154606" lon="13.399801"><ele>532.3333333333334</ele><time>2026-04-26T14:58:17.067Z</time></trkpt><trkpt lat="38.0153743" lon="13.399813"><ele>530.6666666666667</ele><time>2026-04-26T14:58:18.067Z</time></trkpt><trkpt lat="38.0152922" lon="13.3998358"><ele>529.0</ele><time>2026-04-26T14:58:19.067Z</time></trkpt><trkpt lat="38.0152178" lon="13.399865"><ele>529.0</ele><time>2026-04-26T14:58:20.068Z</time></trkpt><trkpt lat="38.0151441" lon="13.3999074"><ele>529.0</ele><time>2026-04-26T14:58:21.067Z</time></trkpt><trkpt lat="38.0150744" lon="13.3999624"><ele>529.0</ele><time>2026-04-26T14:58:22.067Z</time></trkpt><trkpt lat="38.0149998" lon="13.4000302"><ele>529.0</ele><time>2026-04-26T14:58:23.067Z</time></trkpt><trkpt lat="38.0149277" lon="13.4001143"><ele>529.0</ele><time>2026-04-26T14:58:24.068Z</time></trkpt><trkpt lat="38.0148516" lon="13.4002035"><ele>529.4</ele><time>2026-04-26T14:58:25.067Z</time></trkpt><trkpt lat="38.0147677" lon="13.4002926"><ele>529.8</ele><time>2026-04-26T14:58:26.068Z</time></trkpt><trkpt lat="38.0146829" lon="13.4003853"><ele>530.2</ele><time>2026-04-26T14:58:27.067Z</time></trkpt><trkpt lat="38.0145936" lon="13.4004724"><ele>530.6</ele><time>2026-04-26T14:58:28.067Z</time></trkpt><trkpt lat="38.0145029" lon="13.4005545"><ele>531.0</ele><time>2026-04-26T14:58:29.067Z</time></trkpt><trkpt lat="38.0144159" lon="13.4006286"><ele>531.0</ele><time>2026-04-26T14:58:30.067Z</time></trkpt><trkpt lat="38.0143323" lon="13.4006945"><ele>531.0</ele><time>2026-04-26T14:58:31.067Z</time></trkpt><trkpt lat="38.0142525" lon="13.4007572"><ele>531.0</ele><time>2026-04-26T14:58:32.068Z</time></trkpt><trkpt lat="38.0141824" lon="13.4008159"><ele>531.0</ele><time>2026-04-26T14:58:33.068Z</time></trkpt><trkpt lat="38.0141137" lon="13.4008705"><ele>531.0</ele><time>2026-04-26T14:58:34.067Z</time></trkpt><trkpt lat="38.0140468" lon="13.4009202"><ele>531.0</ele><time>2026-04-26T14:58:35.067Z</time></trkpt><trkpt lat="38.0139876" lon="13.400965"><ele>532.1666666666666</ele><time>2026-04-26T14:58:36.068Z</time></trkpt><trkpt lat="38.0139298" lon="13.4010015"><ele>533.3333333333334</ele><time>2026-04-26T14:58:37.067Z</time></trkpt><trkpt lat="38.0138122" lon="13.4010295"><ele>534.5</ele><time>2026-04-26T14:58:39.067Z</time></trkpt><trkpt lat="38.0137418" lon="13.4010025"><ele>535.6666666666667</ele><time>2026-04-26T14:58:40.067Z</time></trkpt><trkpt lat="38.0136814" lon="13.4009511"><ele>536.8333333333334</ele><time>2026-04-26T14:58:41.068Z</time></trkpt><trkpt lat="38.0136358" lon="13.4008803"><ele>538.0</ele><time>2026-04-26T14:58:42.067Z</time></trkpt><trkpt lat="38.013613" lon="13.4007922"><ele>538.0</ele><time>2026-04-26T14:58:43.067Z</time></trkpt><trkpt lat="38.0136097" lon="13.4007002"><ele>538.0</ele><time>2026-04-26T14:58:44.067Z</time></trkpt><trkpt lat="38.0136239" lon="13.4006041"><ele>538.0</ele><time>2026-04-26T14:58:45.067Z</time></trkpt><trkpt lat="38.0136533" lon="13.4005029"><ele>538.0</ele><time>2026-04-26T14:58:46.067Z</time></trkpt><trkpt lat="38.0136857" lon="13.4004006"><ele>538.0</ele><time>2026-04-26T14:58:47.067Z</time></trkpt><trkpt lat="38.013718" lon="13.4002843"><ele>538.0</ele><time>2026-04-26T14:58:48.067Z</time></trkpt><trkpt lat="38.0137544" lon="13.4001483"><ele>539.5</ele><time>2026-04-26T14:58:49.067Z</time></trkpt><trkpt lat="38.0137885" lon="13.400009"><ele>541.0</ele><time>2026-04-26T14:58:50.067Z</time></trkpt><trkpt lat="38.013828" lon="13.3998695"><ele>542.5</ele><time>2026-04-26T14:58:51.067Z</time></trkpt><trkpt lat="38.0138616" lon="13.3997295"><ele>544.0</ele><time>2026-04-26T14:58:52.067Z</time></trkpt><trkpt lat="38.0138832" lon="13.3995929"><ele>544.0</ele><time>2026-04-26T14:58:53.067Z</time></trkpt><trkpt lat="38.0138976" lon="13.3994449"><ele>544.0</ele><time>2026-04-26T14:58:54.067Z</time></trkpt><trkpt lat="38.0138996" lon="13.3992912"><ele>544.0</ele><time>2026-04-26T14:58:55.067Z</time></trkpt><trkpt lat="38.0138916" lon="13.3991451"><ele>544.0</ele><time>2026-04-26T14:58:56.067Z</time></trkpt><trkpt lat="38.0138796" lon="13.3990081"><ele>544.0</ele><time>2026-04-26T14:58:57.067Z</time></trkpt><trkpt lat="38.0138645" lon="13.3988766"><ele>544.0</ele><time>2026-04-26T14:58:58.067Z</time></trkpt><trkpt lat="38.0138529" lon="13.3987487"><ele>544.0</ele><time>2026-04-26T14:58:59.067Z</time></trkpt><trkpt lat="38.0138429" lon="13.398619"><ele>544.0</ele><time>2026-04-26T14:59:00.067Z</time></trkpt><trkpt lat="38.0138305" lon="13.398488"><ele>544.0</ele><time>2026-04-26T14:59:01.067Z</time></trkpt><trkpt lat="38.0138145" lon="13.398357"><ele>541.8</ele><time>2026-04-26T14:59:02.067Z</time></trkpt><trkpt lat="38.0138037" lon="13.3982193"><ele>539.5999999999999</ele><time>2026-04-26T14:59:03.067Z</time></trkpt><trkpt lat="38.0137945" lon="13.3980792"><ele>537.4</ele><time>2026-04-26T14:59:04.067Z</time></trkpt><trkpt lat="38.0137845" lon="13.3979408"><ele>535.1999999999999</ele><time>2026-04-26T14:59:05.067Z</time></trkpt><trkpt lat="38.013775" lon="13.3978004"><ele>533.0</ele><time>2026-04-26T14:59:06.067Z</time></trkpt><trkpt lat="38.0137652" lon="13.3976644"><ele>531.4</ele><time>2026-04-26T14:59:07.067Z</time></trkpt><trkpt lat="38.0137584" lon="13.3975308"><ele>529.8</ele><time>2026-04-26T14:59:08.067Z</time></trkpt><trkpt lat="38.0137497" lon="13.3973939"><ele>528.2</ele><time>2026-04-26T14:59:09.067Z</time></trkpt><trkpt lat="38.0137428" lon="13.3972611"><ele>526.6</ele><time>2026-04-26T14:59:10.068Z</time></trkpt><trkpt lat="38.0137352" lon="13.3971338"><ele>525.0</ele><time>2026-04-26T14:59:11.067Z</time></trkpt><trkpt lat="38.0137288" lon="13.3970092"><ele>521.4</ele><time>2026-04-26T14:59:12.068Z</time></trkpt><trkpt lat="38.0137133" lon="13.3968913"><ele>517.8</ele><time>2026-04-26T14:59:13.068Z</time></trkpt><trkpt lat="38.0136901" lon="13.3967782"><ele>514.2</ele><time>2026-04-26T14:59:14.067Z</time></trkpt><trkpt lat="38.0136548" lon="13.3966747"><ele>510.6</ele><time>2026-04-26T14:59:15.067Z</time></trkpt><trkpt lat="38.0136003" lon="13.3965891"><ele>507.0</ele><time>2026-04-26T14:59:16.067Z</time></trkpt><trkpt lat="38.0135309" lon="13.3965152"><ele>507.0</ele><time>2026-04-26T14:59:17.067Z</time></trkpt><trkpt lat="38.0134551" lon="13.3964451"><ele>507.00000000000006</ele><time>2026-04-26T14:59:18.067Z</time></trkpt><trkpt lat="38.0133766" lon="13.396381"><ele>507.00000000000006</ele><time>2026-04-26T14:59:19.067Z</time></trkpt><trkpt lat="38.0133011" lon="13.3963145"><ele>507.0</ele><time>2026-04-26T14:59:20.067Z</time></trkpt><trkpt lat="38.0132324" lon="13.3962473"><ele>507.0</ele><time>2026-04-26T14:59:21.067Z</time></trkpt><trkpt lat="38.0131677" lon="13.3961791"><ele>510.42857142857144</ele><time>2026-04-26T14:59:22.067Z</time></trkpt><trkpt lat="38.013114" lon="13.3961126"><ele>513.8571428571429</ele><time>2026-04-26T14:59:23.068Z</time></trkpt><trkpt lat="38.013074" lon="13.3960463"><ele>517.2857142857143</ele><time>2026-04-26T14:59:24.068Z</time></trkpt><trkpt lat="38.0130415" lon="13.3959737"><ele>520.7142857142858</ele><time>2026-04-26T14:59:25.067Z</time></trkpt><trkpt lat="38.0130197" lon="13.3958946"><ele>524.1428571428572</ele><time>2026-04-26T14:59:26.067Z</time></trkpt><trkpt lat="38.0130173" lon="13.395814"><ele>527.5714285714286</ele><time>2026-04-26T14:59:27.067Z</time></trkpt><trkpt lat="38.0130246" lon="13.3957253"><ele>531.0</ele><time>2026-04-26T14:59:28.068Z</time></trkpt><trkpt lat="38.0130457" lon="13.3956341"><ele>531.0</ele><time>2026-04-26T14:59:29.068Z</time></trkpt><trkpt lat="38.0130823" lon="13.39555"><ele>531.0</ele><time>2026-04-26T14:59:30.067Z</time></trkpt><trkpt lat="38.0131347" lon="13.3954614"><ele>531.0</ele><time>2026-04-26T14:59:31.067Z</time></trkpt><trkpt lat="38.0131995" lon="13.3953723"><ele>531.0</ele><time>2026-04-26T14:59:32.067Z</time></trkpt><trkpt lat="38.0132732" lon="13.3952822"><ele>531.0</ele><time>2026-04-26T14:59:33.067Z</time></trkpt><trkpt lat="38.0133529" lon="13.3951816"><ele>522.25</ele><time>2026-04-26T14:59:34.067Z</time></trkpt><trkpt lat="38.0134385" lon="13.3950724"><ele>513.5</ele><time>2026-04-26T14:59:35.068Z</time></trkpt><trkpt lat="38.013525" lon="13.3949572"><ele>504.75</ele><time>2026-04-26T14:59:36.067Z</time></trkpt><trkpt lat="38.0136053" lon="13.3948494"><ele>496.0</ele><time>2026-04-26T14:59:37.067Z</time></trkpt><trkpt lat="38.0136912" lon="13.3947553"><ele>499.4</ele><time>2026-04-26T14:59:38.067Z</time></trkpt><trkpt lat="38.0137717" lon="13.3946686"><ele>502.8</ele><time>2026-04-26T14:59:39.067Z</time></trkpt><trkpt lat="38.0138545" lon="13.3945846"><ele>506.19999999999993</ele><time>2026-04-26T14:59:40.067Z</time></trkpt><trkpt lat="38.0139364" lon="13.3945025"><ele>509.59999999999997</ele><time>2026-04-26T14:59:41.067Z</time></trkpt><trkpt lat="38.0140086" lon="13.3944126"><ele>513.0</ele><time>2026-04-26T14:59:42.068Z</time></trkpt><trkpt lat="38.0140766" lon="13.3943084"><ele>513.0</ele><time>2026-04-26T14:59:43.067Z</time></trkpt><trkpt lat="38.0141396" lon="13.3941876"><ele>513.0</ele><time>2026-04-26T14:59:44.067Z</time></trkpt><trkpt lat="38.0141874" lon="13.3940525"><ele>513.0</ele><time>2026-04-26T14:59:45.067Z</time></trkpt><trkpt lat="38.0142333" lon="13.3939126"><ele>513.0</ele><time>2026-04-26T14:59:46.067Z</time></trkpt><trkpt lat="38.0142722" lon="13.3937719"><ele>509.0</ele><time>2026-04-26T14:59:47.067Z</time></trkpt><trkpt lat="38.0143128" lon="13.3936368"><ele>504.99999999999994</ele><time>2026-04-26T14:59:48.067Z</time></trkpt><trkpt lat="38.0143652" lon="13.3935122"><ele>500.99999999999994</ele><time>2026-04-26T14:59:49.067Z</time></trkpt><trkpt lat="38.0144228" lon="13.3933999"><ele>497.0</ele><time>2026-04-26T14:59:50.068Z</time></trkpt><trkpt lat="38.0144831" lon="13.3932917"><ele>493.0</ele><time>2026-04-26T14:59:51.067Z</time></trkpt><trkpt lat="38.0145534" lon="13.3931725"><ele>493.0</ele><time>2026-04-26T14:59:52.068Z</time></trkpt><trkpt lat="38.0146292" lon="13.3930414"><ele>493.0</ele><time>2026-04-26T14:59:53.068Z</time></trkpt><trkpt lat="38.0147058" lon="13.3929085"><ele>493.0</ele><time>2026-04-26T14:59:54.067Z</time></trkpt><trkpt lat="38.0147847" lon="13.3927676"><ele>493.0</ele><time>2026-04-26T14:59:55.067Z</time></trkpt><trkpt lat="38.0148571" lon="13.3926258"><ele>491.5</ele><time>2026-04-26T14:59:56.067Z</time></trkpt><trkpt lat="38.0149261" lon="13.3924849"><ele>490.0</ele><time>2026-04-26T14:59:57.067Z</time></trkpt><trkpt lat="38.0149946" lon="13.3923533"><ele>488.5</ele><time>2026-04-26T14:59:58.067Z</time></trkpt><trkpt lat="38.0150709" lon="13.3922312"><ele>487.0</ele><time>2026-04-26T14:59:59.067Z</time></trkpt><trkpt lat="38.0151448" lon="13.392121"><ele>487.0</ele><time>2026-04-26T15:00:00.067Z</time></trkpt><trkpt lat="38.0152197" lon="13.3920249"><ele>487.00000000000006</ele><time>2026-04-26T15:00:01.067Z</time></trkpt><trkpt lat="38.0152862" lon="13.3919288"><ele>487.00000000000006</ele><time>2026-04-26T15:00:02.067Z</time></trkpt><trkpt lat="38.0153499" lon="13.3918305"><ele>487.0</ele><time>2026-04-26T15:00:03.067Z</time></trkpt><trkpt lat="38.015397" lon="13.3917172"><ele>487.0</ele><time>2026-04-26T15:00:04.067Z</time></trkpt><trkpt lat="38.015429" lon="13.3915856"><ele>487.0</ele><time>2026-04-26T15:00:05.067Z</time></trkpt><trkpt lat="38.0154372" lon="13.3914323"><ele>487.0</ele><time>2026-04-26T15:00:06.067Z</time></trkpt><trkpt lat="38.0154375" lon="13.3912827"><ele>487.0</ele><time>2026-04-26T15:00:07.067Z</time></trkpt><trkpt lat="38.0154227" lon="13.3911355"><ele>487.0</ele><time>2026-04-26T15:00:08.067Z</time></trkpt><trkpt lat="38.0153979" lon="13.3909853"><ele>488.0</ele><time>2026-04-26T15:00:09.068Z</time></trkpt><trkpt lat="38.0153609" lon="13.390833"><ele>489.0</ele><time>2026-04-26T15:00:10.067Z</time></trkpt><trkpt lat="38.0153169" lon="13.3906745"><ele>490.0</ele><time>2026-04-26T15:00:11.067Z</time></trkpt><trkpt lat="38.0152729" lon="13.3905237"><ele>491.0</ele><time>2026-04-26T15:00:12.067Z</time></trkpt><trkpt lat="38.0152346" lon="13.3903771"><ele>487.75</ele><time>2026-04-26T15:00:13.067Z</time></trkpt><trkpt lat="38.0151952" lon="13.390234"><ele>484.5</ele><time>2026-04-26T15:00:14.067Z</time></trkpt><trkpt lat="38.0151552" lon="13.390094"><ele>481.25</ele><time>2026-04-26T15:00:15.067Z</time></trkpt><trkpt lat="38.0151087" lon="13.3899538"><ele>478.0</ele><time>2026-04-26T15:00:16.067Z</time></trkpt><trkpt lat="38.0150464" lon="13.3898227"><ele>482.25</ele><time>2026-04-26T15:00:17.067Z</time></trkpt><trkpt lat="38.0149781" lon="13.389692"><ele>486.5</ele><time>2026-04-26T15:00:18.067Z</time></trkpt><trkpt lat="38.0149061" lon="13.3895705"><ele>490.75</ele><time>2026-04-26T15:00:19.067Z</time></trkpt><trkpt lat="38.014833" lon="13.3894638"><ele>495.0</ele><time>2026-04-26T15:00:20.067Z</time></trkpt><trkpt lat="38.0147594" lon="13.3893697"><ele>495.0</ele><time>2026-04-26T15:00:21.068Z</time></trkpt><trkpt lat="38.0146887" lon="13.3892864"><ele>495.0</ele><time>2026-04-26T15:00:22.067Z</time></trkpt><trkpt lat="38.0146291" lon="13.3892085"><ele>495.0</ele><time>2026-04-26T15:00:23.067Z</time></trkpt><trkpt lat="38.0145797" lon="13.3891363"><ele>495.0</ele><time>2026-04-26T15:00:24.067Z</time></trkpt><trkpt lat="38.0145426" lon="13.3890586"><ele>495.0</ele><time>2026-04-26T15:00:25.067Z</time></trkpt><trkpt lat="38.014524" lon="13.3889763"><ele>495.0</ele><time>2026-04-26T15:00:26.067Z</time></trkpt><trkpt lat="38.014536" lon="13.3888164"><ele>497.0</ele><time>2026-04-26T15:00:28.068Z</time></trkpt><trkpt lat="38.0145514" lon="13.388733"><ele>499.0</ele><time>2026-04-26T15:00:29.067Z</time></trkpt><trkpt lat="38.0146197" lon="13.3886102"><ele>501.0</ele><time>2026-04-26T15:00:31.067Z</time></trkpt><trkpt lat="38.0146773" lon="13.388575"><ele>503.0</ele><time>2026-04-26T15:00:32.067Z</time></trkpt><trkpt lat="38.0147376" lon="13.3885465"><ele>505.0</ele><time>2026-04-26T15:00:33.067Z</time></trkpt><trkpt lat="38.0148127" lon="13.3885343"><ele>507.0</ele><time>2026-04-26T15:00:34.068Z</time></trkpt><trkpt lat="38.014913" lon="13.3885207"><ele>501.5</ele><time>2026-04-26T15:00:35.068Z</time></trkpt><trkpt lat="38.0150378" lon="13.3885185"><ele>496.0</ele><time>2026-04-26T15:00:36.067Z</time></trkpt><trkpt lat="38.0151639" lon="13.3885252"><ele>490.5</ele><time>2026-04-26T15:00:37.067Z</time></trkpt><trkpt lat="38.0152901" lon="13.3885304"><ele>485.0</ele><time>2026-04-26T15:00:38.068Z</time></trkpt><trkpt lat="38.0154236" lon="13.3885334"><ele>485.0</ele><time>2026-04-26T15:00:39.067Z</time></trkpt><trkpt lat="38.0155602" lon="13.3885359"><ele>485.0</ele><time>2026-04-26T15:00:40.067Z</time></trkpt><trkpt lat="38.0157022" lon="13.3885367"><ele>485.0</ele><time>2026-04-26T15:00:41.067Z</time></trkpt><trkpt lat="38.0158335" lon="13.3885373"><ele>485.0</ele><time>2026-04-26T15:00:42.067Z</time></trkpt><trkpt lat="38.0159593" lon="13.3885418"><ele>483.8333333333333</ele><time>2026-04-26T15:00:43.067Z</time></trkpt><trkpt lat="38.0160683" lon="13.3885439"><ele>482.66666666666663</ele><time>2026-04-26T15:00:44.067Z</time></trkpt><trkpt lat="38.0161662" lon="13.3885436"><ele>481.5</ele><time>2026-04-26T15:00:45.067Z</time></trkpt><trkpt lat="38.0162526" lon="13.3885343"><ele>480.33333333333337</ele><time>2026-04-26T15:00:46.067Z</time></trkpt><trkpt lat="38.0163312" lon="13.3885128"><ele>479.1666666666667</ele><time>2026-04-26T15:00:47.067Z</time></trkpt><trkpt lat="38.0163926" lon="13.388474"><ele>478.0</ele><time>2026-04-26T15:00:48.067Z</time></trkpt><trkpt lat="38.0164429" lon="13.3884222"><ele>478.0</ele><time>2026-04-26T15:00:49.067Z</time></trkpt><trkpt lat="38.0164874" lon="13.3883504"><ele>477.99999999999994</ele><time>2026-04-26T15:00:50.067Z</time></trkpt><trkpt lat="38.0165283" lon="13.3882524"><ele>477.99999999999994</ele><time>2026-04-26T15:00:51.067Z</time></trkpt><trkpt lat="38.0165653" lon="13.3881392"><ele>478.0</ele><time>2026-04-26T15:00:52.067Z</time></trkpt><trkpt lat="38.0165935" lon="13.388021"><ele>478.0</ele><time>2026-04-26T15:00:53.067Z</time></trkpt><trkpt lat="38.0166193" lon="13.3878951"><ele>477.75</ele><time>2026-04-26T15:00:54.067Z</time></trkpt><trkpt lat="38.0166443" lon="13.3877611"><ele>477.5</ele><time>2026-04-26T15:00:55.067Z</time></trkpt><trkpt lat="38.0166687" lon="13.3876206"><ele>477.25</ele><time>2026-04-26T15:00:56.067Z</time></trkpt><trkpt lat="38.0167024" lon="13.3874752"><ele>477.0</ele><time>2026-04-26T15:00:57.067Z</time></trkpt><trkpt lat="38.0167481" lon="13.3873306"><ele>477.0</ele><time>2026-04-26T15:00:58.067Z</time></trkpt><trkpt lat="38.016799" lon="13.3871921"><ele>477.0</ele><time>2026-04-26T15:00:59.067Z</time></trkpt><trkpt lat="38.0168545" lon="13.3870551"><ele>477.0</ele><time>2026-04-26T15:01:00.067Z</time></trkpt><trkpt lat="38.0169164" lon="13.386919"><ele>477.0</ele><time>2026-04-26T15:01:01.067Z</time></trkpt><trkpt lat="38.0169871" lon="13.3867853"><ele>481.25</ele><time>2026-04-26T15:01:02.067Z</time></trkpt><trkpt lat="38.0170711" lon="13.3866725"><ele>485.5</ele><time>2026-04-26T15:01:03.067Z</time></trkpt><trkpt lat="38.0171553" lon="13.3865705"><ele>489.75</ele><time>2026-04-26T15:01:04.068Z</time></trkpt><trkpt lat="38.0172464" lon="13.3864703"><ele>494.0</ele><time>2026-04-26T15:01:05.067Z</time></trkpt><trkpt lat="38.0173297" lon="13.3863619"><ele>496.4</ele><time>2026-04-26T15:01:06.067Z</time></trkpt><trkpt lat="38.0173985" lon="13.3862415"><ele>498.79999999999995</ele><time>2026-04-26T15:01:07.067Z</time></trkpt><trkpt lat="38.0174413" lon="13.3861149"><ele>501.20000000000005</ele><time>2026-04-26T15:01:08.067Z</time></trkpt><trkpt lat="38.0174497" lon="13.3859798"><ele>503.6</ele><time>2026-04-26T15:01:09.067Z</time></trkpt><trkpt lat="38.0174416" lon="13.3858407"><ele>506.0</ele><time>2026-04-26T15:01:10.067Z</time></trkpt><trkpt lat="38.0174209" lon="13.3856891"><ele>506.0</ele><time>2026-04-26T15:01:11.067Z</time></trkpt><trkpt lat="38.0173962" lon="13.3855239"><ele>506.0</ele><time>2026-04-26T15:01:12.067Z</time></trkpt><trkpt lat="38.0173761" lon="13.3853543"><ele>506.0</ele><time>2026-04-26T15:01:13.067Z</time></trkpt><trkpt lat="38.0173639" lon="13.3851841"><ele>506.0</ele><time>2026-04-26T15:01:14.067Z</time></trkpt><trkpt lat="38.0173598" lon="13.3850178"><ele>503.75</ele><time>2026-04-26T15:01:15.067Z</time></trkpt><trkpt lat="38.0173663" lon="13.3848585"><ele>501.5</ele><time>2026-04-26T15:01:16.067Z</time></trkpt><trkpt lat="38.0173745" lon="13.3847111"><ele>499.25</ele><time>2026-04-26T15:01:17.067Z</time></trkpt><trkpt lat="38.0173834" lon="13.3845664"><ele>497.0</ele><time>2026-04-26T15:01:18.067Z</time></trkpt><trkpt lat="38.0173874" lon="13.3844329"><ele>493.40000000000003</ele><time>2026-04-26T15:01:19.068Z</time></trkpt><trkpt lat="38.0173793" lon="13.3843064"><ele>489.80000000000007</ele><time>2026-04-26T15:01:20.067Z</time></trkpt><trkpt lat="38.0173484" lon="13.3841872"><ele>486.2</ele><time>2026-04-26T15:01:21.068Z</time></trkpt><trkpt lat="38.0172934" lon="13.3840849"><ele>482.6</ele><time>2026-04-26T15:01:22.068Z</time></trkpt><trkpt lat="38.0172062" lon="13.384"><ele>479.0</ele><time>2026-04-26T15:01:23.067Z</time></trkpt><trkpt lat="38.0171045" lon="13.3839357"><ele>479.0</ele><time>2026-04-26T15:01:24.068Z</time></trkpt><trkpt lat="38.0169957" lon="13.3838749"><ele>479.0</ele><time>2026-04-26T15:01:25.067Z</time></trkpt><trkpt lat="38.0168854" lon="13.38383"><ele>479.0</ele><time>2026-04-26T15:01:26.067Z</time></trkpt><trkpt lat="38.0167851" lon="13.3837839"><ele>479.0</ele><time>2026-04-26T15:01:27.067Z</time></trkpt><trkpt lat="38.0166955" lon="13.3837292"><ele>479.0</ele><time>2026-04-26T15:01:28.067Z</time></trkpt><trkpt lat="38.0166165" lon="13.3836515"><ele>479.66666666666663</ele><time>2026-04-26T15:01:29.067Z</time></trkpt><trkpt lat="38.0165634" lon="13.3835547"><ele>480.3333333333333</ele><time>2026-04-26T15:01:30.067Z</time></trkpt><trkpt lat="38.0165341" lon="13.3834446"><ele>481.0</ele><time>2026-04-26T15:01:31.067Z</time></trkpt><trkpt lat="38.0165184" lon="13.3833382"><ele>481.66666666666663</ele><time>2026-04-26T15:01:32.067Z</time></trkpt><trkpt lat="38.0165276" lon="13.3832414"><ele>482.3333333333333</ele><time>2026-04-26T15:01:33.067Z</time></trkpt><trkpt lat="38.0165675" lon="13.3831388"><ele>483.0</ele><time>2026-04-26T15:01:34.067Z</time></trkpt><trkpt lat="38.0166374" lon="13.3830519"><ele>482.79999999999995</ele><time>2026-04-26T15:01:35.067Z</time></trkpt><trkpt lat="38.0167257" lon="13.3829768"><ele>482.59999999999997</ele><time>2026-04-26T15:01:36.067Z</time></trkpt><trkpt lat="38.0168208" lon="13.3829084"><ele>482.40000000000003</ele><time>2026-04-26T15:01:37.067Z</time></trkpt><trkpt lat="38.0169096" lon="13.3828319"><ele>482.20000000000005</ele><time>2026-04-26T15:01:38.067Z</time></trkpt><trkpt lat="38.0169867" lon="13.3827453"><ele>482.0</ele><time>2026-04-26T15:01:39.067Z</time></trkpt><trkpt lat="38.0170612" lon="13.3826463"><ele>482.0</ele><time>2026-04-26T15:01:40.067Z</time></trkpt><trkpt lat="38.0171244" lon="13.3825325"><ele>482.00000000000006</ele><time>2026-04-26T15:01:41.067Z</time></trkpt><trkpt lat="38.0171785" lon="13.382415"><ele>482.00000000000006</ele><time>2026-04-26T15:01:42.067Z</time></trkpt><trkpt lat="38.0172261" lon="13.3822925"><ele>482.0</ele><time>2026-04-26T15:01:43.067Z</time></trkpt><trkpt lat="38.0172697" lon="13.3821724"><ele>482.0</ele><time>2026-04-26T15:01:44.067Z</time></trkpt><trkpt lat="38.0173109" lon="13.3820605"><ele>485.40000000000003</ele><time>2026-04-26T15:01:45.067Z</time></trkpt><trkpt lat="38.0173485" lon="13.3819519"><ele>488.80000000000007</ele><time>2026-04-26T15:01:46.067Z</time></trkpt><trkpt lat="38.0173747" lon="13.3818372"><ele>492.2</ele><time>2026-04-26T15:01:47.068Z</time></trkpt><trkpt lat="38.0173936" lon="13.3817058"><ele>495.6</ele><time>2026-04-26T15:01:48.067Z</time></trkpt><trkpt lat="38.0174027" lon="13.3815642"><ele>499.0</ele><time>2026-04-26T15:01:49.068Z</time></trkpt><trkpt lat="38.0174022" lon="13.3814098"><ele>501.0</ele><time>2026-04-26T15:01:50.067Z</time></trkpt><trkpt lat="38.0174033" lon="13.3812525"><ele>503.0</ele><time>2026-04-26T15:01:51.067Z</time></trkpt><trkpt lat="38.0174018" lon="13.381097"><ele>505.0</ele><time>2026-04-26T15:01:52.067Z</time></trkpt><trkpt lat="38.0174012" lon="13.3809519"><ele>507.0</ele><time>2026-04-26T15:01:53.067Z</time></trkpt><trkpt lat="38.0174004" lon="13.3807982"><ele>507.0</ele><time>2026-04-26T15:01:54.068Z</time></trkpt><trkpt lat="38.0174033" lon="13.3806486"><ele>507.0</ele><time>2026-04-26T15:01:55.067Z</time></trkpt><trkpt lat="38.017424" lon="13.3805013"><ele>507.0</ele><time>2026-04-26T15:01:56.068Z</time></trkpt><trkpt lat="38.0174556" lon="13.3803618"><ele>507.0</ele><time>2026-04-26T15:01:57.067Z</time></trkpt><trkpt lat="38.0174958" lon="13.380228"><ele>504.0</ele><time>2026-04-26T15:01:58.067Z</time></trkpt><trkpt lat="38.017546" lon="13.3800997"><ele>501.00000000000006</ele><time>2026-04-26T15:01:59.067Z</time></trkpt><trkpt lat="38.0175993" lon="13.3799786"><ele>498.00000000000006</ele><time>2026-04-26T15:02:00.067Z</time></trkpt><trkpt lat="38.0176492" lon="13.3798691"><ele>495.0</ele><time>2026-04-26T15:02:01.067Z</time></trkpt><trkpt lat="38.0176988" lon="13.379768"><ele>492.0</ele><time>2026-04-26T15:02:02.067Z</time></trkpt><trkpt lat="38.0177591" lon="13.3796735"><ele>492.0</ele><time>2026-04-26T15:02:03.067Z</time></trkpt><trkpt lat="38.0178299" lon="13.3795843"><ele>492.00000000000006</ele><time>2026-04-26T15:02:04.067Z</time></trkpt><trkpt lat="38.017908" lon="13.3795178"><ele>492.00000000000006</ele><time>2026-04-26T15:02:05.067Z</time></trkpt><trkpt lat="38.0179981" lon="13.3794786"><ele>492.0</ele><time>2026-04-26T15:02:06.067Z</time></trkpt><trkpt lat="38.0180956" lon="13.3794609"><ele>492.0</ele><time>2026-04-26T15:02:07.067Z</time></trkpt><trkpt lat="38.018202" lon="13.3794583"><ele>492.0</ele><time>2026-04-26T15:02:08.068Z</time></trkpt><trkpt lat="38.0183156" lon="13.3794623"><ele>492.0</ele><time>2026-04-26T15:02:09.067Z</time></trkpt><trkpt lat="38.0184334" lon="13.3794714"><ele>492.0</ele><time>2026-04-26T15:02:10.068Z</time></trkpt><trkpt lat="38.0185517" lon="13.3794832"><ele>492.0</ele><time>2026-04-26T15:02:11.067Z</time></trkpt><trkpt lat="38.0186679" lon="13.379489"><ele>490.40000000000003</ele><time>2026-04-26T15:02:12.067Z</time></trkpt><trkpt lat="38.0187796" lon="13.3794913"><ele>488.80000000000007</ele><time>2026-04-26T15:02:13.067Z</time></trkpt><trkpt lat="38.018888" lon="13.3794884"><ele>487.2</ele><time>2026-04-26T15:02:14.067Z</time></trkpt><trkpt lat="38.0189878" lon="13.3794856"><ele>485.6</ele><time>2026-04-26T15:02:15.067Z</time></trkpt><trkpt lat="38.0190775" lon="13.3794887"><ele>484.0</ele><time>2026-04-26T15:02:16.067Z</time></trkpt><trkpt lat="38.0191588" lon="13.3794955"><ele>484.00000000000006</ele><time>2026-04-26T15:02:17.068Z</time></trkpt><trkpt lat="38.019231" lon="13.3795007"><ele>484.0</ele><time>2026-04-26T15:02:18.067Z</time></trkpt><trkpt lat="38.0192951" lon="13.3795004"><ele>484.0</ele><time>2026-04-26T15:02:19.067Z</time></trkpt><trkpt lat="38.0193683" lon="13.3794909"><ele>484.0</ele><time>2026-04-26T15:02:21.068Z</time></trkpt><trkpt lat="38.0194484" lon="13.3794418"><ele>484.00000000000006</ele><time>2026-04-26T15:02:26.067Z</time></trkpt><trkpt lat="38.0195027" lon="13.3793715"><ele>484.0</ele><time>2026-04-26T15:02:28.068Z</time></trkpt><trkpt lat="38.0195618" lon="13.3792824"><ele>484.00000000000006</ele><time>2026-04-26T15:02:30.067Z</time></trkpt><trkpt lat="38.0196103" lon="13.3791842"><ele>484.0</ele><time>2026-04-26T15:02:32.067Z</time></trkpt><trkpt lat="38.0196405" lon="13.3790734"><ele>484.0</ele><time>2026-04-26T15:02:34.068Z</time></trkpt><trkpt lat="38.0196644" lon="13.3789905"><ele>484.0</ele><time>2026-04-26T15:02:36.068Z</time></trkpt><trkpt lat="38.0196992" lon="13.3789172"><ele>484.00000000000006</ele><time>2026-04-26T15:02:38.067Z</time></trkpt><trkpt lat="38.0197328" lon="13.3788214"><ele>484.0</ele><time>2026-04-26T15:02:40.066Z</time></trkpt><trkpt lat="38.0197758" lon="13.3786877"><ele>485.33333333333337</ele><time>2026-04-26T15:02:42.066Z</time></trkpt><trkpt lat="38.0198213" lon="13.3785533"><ele>486.6666666666667</ele><time>2026-04-26T15:02:44.066Z</time></trkpt><trkpt lat="38.0198434" lon="13.3784745"><ele>488.0</ele><time>2026-04-26T15:02:45.066Z</time></trkpt><trkpt lat="38.0198587" lon="13.3783842"><ele>489.33333333333337</ele><time>2026-04-26T15:02:46.066Z</time></trkpt><trkpt lat="38.0198683" lon="13.3782878"><ele>490.6666666666667</ele><time>2026-04-26T15:02:47.066Z</time></trkpt><trkpt lat="38.0198727" lon="13.3781918"><ele>492.0</ele><time>2026-04-26T15:02:48.066Z</time></trkpt><trkpt lat="38.0198737" lon="13.3781003"><ele>491.8333333333333</ele><time>2026-04-26T15:02:49.066Z</time></trkpt><trkpt lat="38.019868" lon="13.3780148"><ele>491.66666666666663</ele><time>2026-04-26T15:02:50.066Z</time></trkpt><trkpt lat="38.0198623" lon="13.3779335"><ele>491.5</ele><time>2026-04-26T15:02:51.066Z</time></trkpt><trkpt lat="38.0198557" lon="13.3777785"><ele>491.3333333333333</ele><time>2026-04-26T15:02:53.066Z</time></trkpt><trkpt lat="38.0198578" lon="13.3776795"><ele>491.16666666666663</ele><time>2026-04-26T15:02:55.066Z</time></trkpt><trkpt lat="38.0198782" lon="13.377561"><ele>491.0</ele><time>2026-04-26T15:02:58.066Z</time></trkpt><trkpt lat="38.0198986" lon="13.3774673"><ele>490.99999999999994</ele><time>2026-04-26T15:03:00.067Z</time></trkpt><trkpt lat="38.019931" lon="13.3773279"><ele>491.0</ele><time>2026-04-26T15:03:02.066Z</time></trkpt><trkpt lat="38.0199432" lon="13.3772407"><ele>491.0</ele><time>2026-04-26T15:03:03.066Z</time></trkpt><trkpt lat="38.0199537" lon="13.3771529"><ele>491.0</ele><time>2026-04-26T15:03:04.066Z</time></trkpt><trkpt lat="38.0199571" lon="13.3770573"><ele>490.99999999999994</ele><time>2026-04-26T15:03:05.066Z</time></trkpt><trkpt lat="38.0199593" lon="13.3769603"><ele>491.0</ele><time>2026-04-26T15:03:06.067Z</time></trkpt><trkpt lat="38.0199602" lon="13.3768607"><ele>490.3333333333333</ele><time>2026-04-26T15:03:07.066Z</time></trkpt><trkpt lat="38.0199589" lon="13.3767608"><ele>489.66666666666663</ele><time>2026-04-26T15:03:08.066Z</time></trkpt><trkpt lat="38.0199555" lon="13.3766573"><ele>489.0</ele><time>2026-04-26T15:03:09.066Z</time></trkpt><trkpt lat="38.0199523" lon="13.3765488"><ele>488.33333333333337</ele><time>2026-04-26T15:03:10.066Z</time></trkpt><trkpt lat="38.0199471" lon="13.3764479"><ele>487.6666666666667</ele><time>2026-04-26T15:03:11.066Z</time></trkpt><trkpt lat="38.0199392" lon="13.3763431"><ele>487.0</ele><time>2026-04-26T15:03:12.066Z</time></trkpt><trkpt lat="38.0199462" lon="13.3762415"><ele>487.0</ele><time>2026-04-26T15:03:13.066Z</time></trkpt><trkpt lat="38.019954" lon="13.3761382"><ele>487.00000000000006</ele><time>2026-04-26T15:03:14.066Z</time></trkpt><trkpt lat="38.0199666" lon="13.3760332"><ele>487.00000000000006</ele><time>2026-04-26T15:03:15.067Z</time></trkpt><trkpt lat="38.019986" lon="13.3759189"><ele>487.0</ele><time>2026-04-26T15:03:16.066Z</time></trkpt><trkpt lat="38.0200158" lon="13.3757953"><ele>487.0</ele><time>2026-04-26T15:03:17.067Z</time></trkpt><trkpt lat="38.0200555" lon="13.3756779"><ele>483.6</ele><time>2026-04-26T15:03:18.067Z</time></trkpt><trkpt lat="38.0200977" lon="13.3755647"><ele>480.20000000000005</ele><time>2026-04-26T15:03:19.066Z</time></trkpt><trkpt lat="38.0201409" lon="13.3754509"><ele>476.8</ele><time>2026-04-26T15:03:20.066Z</time></trkpt><trkpt lat="38.0201855" lon="13.3753274"><ele>473.4</ele><time>2026-04-26T15:03:21.066Z</time></trkpt><trkpt lat="38.0202295" lon="13.3752028"><ele>470.0</ele><time>2026-04-26T15:03:22.066Z</time></trkpt><trkpt lat="38.0202723" lon="13.3750751"><ele>470.0</ele><time>2026-04-26T15:03:23.066Z</time></trkpt><trkpt lat="38.02031" lon="13.3749464"><ele>470.0</ele><time>2026-04-26T15:03:24.066Z</time></trkpt><trkpt lat="38.0203496" lon="13.3748269"><ele>470.0</ele><time>2026-04-26T15:03:25.066Z</time></trkpt><trkpt lat="38.0203801" lon="13.3747166"><ele>470.0</ele><time>2026-04-26T15:03:26.067Z</time></trkpt><trkpt lat="38.0204031" lon="13.3746039"><ele>470.0</ele><time>2026-04-26T15:03:27.066Z</time></trkpt><trkpt lat="38.0204108" lon="13.3744864"><ele>469.4</ele><time>2026-04-26T15:03:28.066Z</time></trkpt><trkpt lat="38.0204039" lon="13.3743603"><ele>468.8</ele><time>2026-04-26T15:03:29.066Z</time></trkpt><trkpt lat="38.0203845" lon="13.3742368"><ele>468.20000000000005</ele><time>2026-04-26T15:03:30.067Z</time></trkpt><trkpt lat="38.0203477" lon="13.3741128"><ele>467.6</ele><time>2026-04-26T15:03:31.067Z</time></trkpt><trkpt lat="38.0203129" lon="13.3739892"><ele>467.0</ele><time>2026-04-26T15:03:32.067Z</time></trkpt><trkpt lat="38.0202851" lon="13.3738576"><ele>467.40000000000003</ele><time>2026-04-26T15:03:33.066Z</time></trkpt><trkpt lat="38.0202673" lon="13.3737237"><ele>467.80000000000007</ele><time>2026-04-26T15:03:34.066Z</time></trkpt><trkpt lat="38.0202811" lon="13.3735918"><ele>468.2</ele><time>2026-04-26T15:03:35.066Z</time></trkpt><trkpt lat="38.020325" lon="13.3734716"><ele>468.6</ele><time>2026-04-26T15:03:36.066Z</time></trkpt><trkpt lat="38.0203876" lon="13.3733645"><ele>469.0</ele><time>2026-04-26T15:03:37.066Z</time></trkpt><trkpt lat="38.0204662" lon="13.3732641"><ele>469.0</ele><time>2026-04-26T15:03:38.066Z</time></trkpt><trkpt lat="38.0205425" lon="13.373167"><ele>469.0</ele><time>2026-04-26T15:03:39.066Z</time></trkpt><trkpt lat="38.0206078" lon="13.3730725"><ele>469.0</ele><time>2026-04-26T15:03:40.066Z</time></trkpt><trkpt lat="38.0206647" lon="13.3729788"><ele>469.0</ele><time>2026-04-26T15:03:41.066Z</time></trkpt><trkpt lat="38.0207002" lon="13.3728754"><ele>469.0</ele><time>2026-04-26T15:03:42.066Z</time></trkpt><trkpt lat="38.0206952" lon="13.3727586"><ele>468.79999999999995</ele><time>2026-04-26T15:03:43.067Z</time></trkpt><trkpt lat="38.0206549" lon="13.3726468"><ele>468.59999999999997</ele><time>2026-04-26T15:03:44.066Z</time></trkpt><trkpt lat="38.0205932" lon="13.3725415"><ele>468.4</ele><time>2026-04-26T15:03:45.066Z</time></trkpt><trkpt lat="38.0205132" lon="13.3724327"><ele>468.2</ele><time>2026-04-26T15:03:46.067Z</time></trkpt><trkpt lat="38.0204248" lon="13.3723183"><ele>468.0</ele><time>2026-04-26T15:03:47.066Z</time></trkpt><trkpt lat="38.0203394" lon="13.3722044"><ele>466.25</ele><time>2026-04-26T15:03:48.067Z</time></trkpt><trkpt lat="38.0202533" lon="13.3720862"><ele>464.5</ele><time>2026-04-26T15:03:49.067Z</time></trkpt><trkpt lat="38.0201714" lon="13.3719546"><ele>462.75</ele><time>2026-04-26T15:03:50.066Z</time></trkpt><trkpt lat="38.0200908" lon="13.3718319"><ele>461.0</ele><time>2026-04-26T15:03:51.066Z</time></trkpt><trkpt lat="38.0200126" lon="13.3717099"><ele>464.0</ele><time>2026-04-26T15:03:52.066Z</time></trkpt><trkpt lat="38.0199372" lon="13.3715949"><ele>467.0</ele><time>2026-04-26T15:03:53.067Z</time></trkpt><trkpt lat="38.0198612" lon="13.3714847"><ele>470.0</ele><time>2026-04-26T15:03:54.066Z</time></trkpt><trkpt lat="38.0197917" lon="13.3713757"><ele>473.0</ele><time>2026-04-26T15:03:55.066Z</time></trkpt><trkpt lat="38.0197226" lon="13.3712741"><ele>476.0</ele><time>2026-04-26T15:03:56.066Z</time></trkpt><trkpt lat="38.01966" lon="13.3711842"><ele>475.99999999999994</ele><time>2026-04-26T15:03:57.067Z</time></trkpt><trkpt lat="38.0196053" lon="13.3710994"><ele>476.0</ele><time>2026-04-26T15:03:58.066Z</time></trkpt><trkpt lat="38.0195525" lon="13.3710184"><ele>476.0</ele><time>2026-04-26T15:03:59.066Z</time></trkpt><trkpt lat="38.0195065" lon="13.3709377"><ele>476.0</ele><time>2026-04-26T15:04:00.066Z</time></trkpt><trkpt lat="38.0194712" lon="13.3708424"><ele>475.99999999999994</ele><time>2026-04-26T15:04:01.066Z</time></trkpt><trkpt lat="38.0194556" lon="13.3707357"><ele>476.0</ele><time>2026-04-26T15:04:02.067Z</time></trkpt><trkpt lat="38.0194521" lon="13.370629"><ele>475.99999999999994</ele><time>2026-04-26T15:04:03.066Z</time></trkpt><trkpt lat="38.0194729" lon="13.3705289"><ele>476.0</ele><time>2026-04-26T15:04:04.066Z</time></trkpt><trkpt lat="38.0195046" lon="13.370438"><ele>476.0</ele><time>2026-04-26T15:04:05.066Z</time></trkpt><trkpt lat="38.0195559" lon="13.3703686"><ele>476.0</ele><time>2026-04-26T15:04:06.066Z</time></trkpt><trkpt lat="38.0196257" lon="13.3703258"><ele>475.99999999999994</ele><time>2026-04-26T15:04:07.066Z</time></trkpt><trkpt lat="38.019701" lon="13.3702854"><ele>476.0</ele><time>2026-04-26T15:04:08.067Z</time></trkpt><trkpt lat="38.0197917" lon="13.370253"><ele>474.8</ele><time>2026-04-26T15:04:09.067Z</time></trkpt><trkpt lat="38.0198862" lon="13.3702287"><ele>473.6</ele><time>2026-04-26T15:04:10.066Z</time></trkpt><trkpt lat="38.0199892" lon="13.3702077"><ele>472.4</ele><time>2026-04-26T15:04:11.066Z</time></trkpt><trkpt lat="38.0200987" lon="13.3701882"><ele>471.2</ele><time>2026-04-26T15:04:12.066Z</time></trkpt><trkpt lat="38.0202098" lon="13.3701623"><ele>470.0</ele><time>2026-04-26T15:04:13.066Z</time></trkpt><trkpt lat="38.0203207" lon="13.3701361"><ele>470.0</ele><time>2026-04-26T15:04:14.066Z</time></trkpt><trkpt lat="38.0204296" lon="13.3700975"><ele>470.0</ele><time>2026-04-26T15:04:15.067Z</time></trkpt><trkpt lat="38.0205363" lon="13.3700515"><ele>470.0</ele><time>2026-04-26T15:04:16.066Z</time></trkpt><trkpt lat="38.0206387" lon="13.3700031"><ele>470.0</ele><time>2026-04-26T15:04:17.066Z</time></trkpt><trkpt lat="38.0207317" lon="13.3699572"><ele>470.0</ele><time>2026-04-26T15:04:18.066Z</time></trkpt><trkpt lat="38.0208178" lon="13.3699134"><ele>468.6</ele><time>2026-04-26T15:04:19.066Z</time></trkpt><trkpt lat="38.0209017" lon="13.3698712"><ele>467.2</ele><time>2026-04-26T15:04:20.066Z</time></trkpt><trkpt lat="38.0209802" lon="13.3698208"><ele>465.79999999999995</ele><time>2026-04-26T15:04:21.067Z</time></trkpt><trkpt lat="38.021054" lon="13.3697623"><ele>464.4</ele><time>2026-04-26T15:04:22.067Z</time></trkpt><trkpt lat="38.021122" lon="13.3696787"><ele>463.0</ele><time>2026-04-26T15:04:23.066Z</time></trkpt><trkpt lat="38.021179" lon="13.3695619"><ele>467.0</ele><time>2026-04-26T15:04:24.066Z</time></trkpt><trkpt lat="38.0212376" lon="13.3694357"><ele>471.0</ele><time>2026-04-26T15:04:25.066Z</time></trkpt><trkpt lat="38.0212983" lon="13.3693117"><ele>475.0</ele><time>2026-04-26T15:04:26.066Z</time></trkpt><trkpt lat="38.0213663" lon="13.3691834"><ele>479.0</ele><time>2026-04-26T15:04:27.067Z</time></trkpt><trkpt lat="38.021431" lon="13.369052"><ele>479.0</ele><time>2026-04-26T15:04:28.066Z</time></trkpt><trkpt lat="38.0214964" lon="13.3689211"><ele>479.0</ele><time>2026-04-26T15:04:29.067Z</time></trkpt><trkpt lat="38.0215565" lon="13.368791"><ele>479.0</ele><time>2026-04-26T15:04:30.066Z</time></trkpt><trkpt lat="38.0216198" lon="13.3686533"><ele>479.0</ele><time>2026-04-26T15:04:31.066Z</time></trkpt><trkpt lat="38.021687" lon="13.3685174"><ele>478.25</ele><time>2026-04-26T15:04:32.066Z</time></trkpt><trkpt lat="38.0217468" lon="13.368383"><ele>477.5</ele><time>2026-04-26T15:04:33.066Z</time></trkpt><trkpt lat="38.0218023" lon="13.3682502"><ele>476.75</ele><time>2026-04-26T15:04:34.066Z</time></trkpt><trkpt lat="38.0218576" lon="13.368121"><ele>476.0</ele><time>2026-04-26T15:04:35.066Z</time></trkpt><trkpt lat="38.0219095" lon="13.3679921"><ele>477.8</ele><time>2026-04-26T15:04:36.067Z</time></trkpt><trkpt lat="38.0219623" lon="13.3678686"><ele>479.6</ele><time>2026-04-26T15:04:37.066Z</time></trkpt><trkpt lat="38.0220103" lon="13.3677494"><ele>481.4</ele><time>2026-04-26T15:04:38.066Z</time></trkpt><trkpt lat="38.0220515" lon="13.367621"><ele>483.2</ele><time>2026-04-26T15:04:39.066Z</time></trkpt><trkpt lat="38.0220975" lon="13.3674932"><ele>485.0</ele><time>2026-04-26T15:04:40.066Z</time></trkpt><trkpt lat="38.0221366" lon="13.3673669"><ele>485.0</ele><time>2026-04-26T15:04:41.066Z</time></trkpt><trkpt lat="38.0221746" lon="13.3672402"><ele>485.0</ele><time>2026-04-26T15:04:42.066Z</time></trkpt><trkpt lat="38.0222235" lon="13.3671223"><ele>485.0</ele><time>2026-04-26T15:04:43.066Z</time></trkpt><trkpt lat="38.0222807" lon="13.3670112"><ele>485.0</ele><time>2026-04-26T15:04:44.066Z</time></trkpt><trkpt lat="38.0223446" lon="13.3669189"><ele>485.0</ele><time>2026-04-26T15:04:45.066Z</time></trkpt><trkpt lat="38.0224195" lon="13.3668319"><ele>483.2</ele><time>2026-04-26T15:04:46.066Z</time></trkpt><trkpt lat="38.0225003" lon="13.3667434"><ele>481.4</ele><time>2026-04-26T15:04:47.066Z</time></trkpt><trkpt lat="38.0225712" lon="13.3666464"><ele>479.6</ele><time>2026-04-26T15:04:48.066Z</time></trkpt><trkpt lat="38.0226321" lon="13.366535"><ele>477.8</ele><time>2026-04-26T15:04:49.066Z</time></trkpt><trkpt lat="38.0226844" lon="13.366421"><ele>476.0</ele><time>2026-04-26T15:04:50.067Z</time></trkpt><trkpt lat="38.0227212" lon="13.3663045"><ele>476.0</ele><time>2026-04-26T15:04:51.066Z</time></trkpt><trkpt lat="38.0227562" lon="13.3661838"><ele>476.0</ele><time>2026-04-26T15:04:52.066Z</time></trkpt><trkpt lat="38.0228025" lon="13.3660714"><ele>476.0</ele><time>2026-04-26T15:04:53.066Z</time></trkpt><trkpt lat="38.0228691" lon="13.3659783"><ele>476.0</ele><time>2026-04-26T15:04:54.067Z</time></trkpt><trkpt lat="38.0229459" lon="13.365905"><ele>476.0</ele><time>2026-04-26T15:04:55.067Z</time></trkpt><trkpt lat="38.0230248" lon="13.3658525"><ele>475.99999999999994</ele><time>2026-04-26T15:04:56.066Z</time></trkpt><trkpt lat="38.0231177" lon="13.3658274"><ele>476.0</ele><time>2026-04-26T15:04:57.066Z</time></trkpt><trkpt lat="38.0232089" lon="13.3658186"><ele>476.0</ele><time>2026-04-26T15:04:58.066Z</time></trkpt><trkpt lat="38.0232969" lon="13.3658265"><ele>476.0</ele><time>2026-04-26T15:04:59.066Z</time></trkpt><trkpt lat="38.0233745" lon="13.3658519"><ele>475.99999999999994</ele><time>2026-04-26T15:05:00.067Z</time></trkpt><trkpt lat="38.0234465" lon="13.3658965"><ele>476.0</ele><time>2026-04-26T15:05:01.066Z</time></trkpt><trkpt lat="38.0235133" lon="13.3659508"><ele>474.6</ele><time>2026-04-26T15:05:02.066Z</time></trkpt><trkpt lat="38.0235799" lon="13.3660158"><ele>473.20000000000005</ele><time>2026-04-26T15:05:03.066Z</time></trkpt><trkpt lat="38.0236325" lon="13.3661046"><ele>471.79999999999995</ele><time>2026-04-26T15:05:04.066Z</time></trkpt><trkpt lat="38.0236811" lon="13.3662122"><ele>470.4</ele><time>2026-04-26T15:05:05.066Z</time></trkpt><trkpt lat="38.0237074" lon="13.3663362"><ele>469.0</ele><time>2026-04-26T15:05:06.066Z</time></trkpt><trkpt lat="38.0237291" lon="13.3664668"><ele>468.4</ele><time>2026-04-26T15:05:07.066Z</time></trkpt><trkpt lat="38.023744" lon="13.3665925"><ele>467.79999999999995</ele><time>2026-04-26T15:05:08.066Z</time></trkpt><trkpt lat="38.0237563" lon="13.3667109"><ele>467.20000000000005</ele><time>2026-04-26T15:05:09.066Z</time></trkpt><trkpt lat="38.0237657" lon="13.3668196"><ele>466.6</ele><time>2026-04-26T15:05:10.066Z</time></trkpt><trkpt lat="38.0237776" lon="13.3669283"><ele>466.0</ele><time>2026-04-26T15:05:11.066Z</time></trkpt><trkpt lat="38.0237919" lon="13.3670351"><ele>466.0</ele><time>2026-04-26T15:05:12.066Z</time></trkpt><trkpt lat="38.0237998" lon="13.3671477"><ele>466.0</ele><time>2026-04-26T15:05:13.067Z</time></trkpt><trkpt lat="38.0237868" lon="13.3672559"><ele>466.0</ele><time>2026-04-26T15:05:14.066Z</time></trkpt><trkpt lat="38.0237384" lon="13.3673615"><ele>466.0</ele><time>2026-04-26T15:05:15.067Z</time></trkpt><trkpt lat="38.023673" lon="13.3674619"><ele>466.0</ele><time>2026-04-26T15:05:16.066Z</time></trkpt><trkpt lat="38.0235941" lon="13.3675607"><ele>465.75</ele><time>2026-04-26T15:05:17.066Z</time></trkpt><trkpt lat="38.023515" lon="13.3676743"><ele>465.5</ele><time>2026-04-26T15:05:18.066Z</time></trkpt><trkpt lat="38.0234432" lon="13.3678025"><ele>465.25</ele><time>2026-04-26T15:05:19.066Z</time></trkpt><trkpt lat="38.0233799" lon="13.3679401"><ele>465.0</ele><time>2026-04-26T15:05:20.066Z</time></trkpt><trkpt lat="38.0233243" lon="13.3680829"><ele>464.6</ele><time>2026-04-26T15:05:21.066Z</time></trkpt><trkpt lat="38.0232737" lon="13.3682275"><ele>464.2</ele><time>2026-04-26T15:05:22.067Z</time></trkpt><trkpt lat="38.0232313" lon="13.3683683"><ele>463.79999999999995</ele><time>2026-04-26T15:05:23.066Z</time></trkpt><trkpt lat="38.0231986" lon="13.3684976"><ele>463.4</ele><time>2026-04-26T15:05:24.067Z</time></trkpt><trkpt lat="38.0231834" lon="13.3686066"><ele>463.0</ele><time>2026-04-26T15:05:25.066Z</time></trkpt><trkpt lat="38.0231855" lon="13.3687145"><ele>463.00000000000006</ele><time>2026-04-26T15:05:26.066Z</time></trkpt><trkpt lat="38.0232014" lon="13.3688093"><ele>463.0</ele><time>2026-04-26T15:05:27.066Z</time></trkpt><trkpt lat="38.0232502" lon="13.3688875"><ele>463.0</ele><time>2026-04-26T15:05:28.066Z</time></trkpt><trkpt lat="38.023314" lon="13.368953"><ele>463.0</ele><time>2026-04-26T15:05:29.066Z</time></trkpt><trkpt lat="38.023377" lon="13.3690228"><ele>463.00000000000006</ele><time>2026-04-26T15:05:30.066Z</time></trkpt><trkpt lat="38.023437" lon="13.3690955"><ele>463.0</ele><time>2026-04-26T15:05:31.066Z</time></trkpt><trkpt lat="38.0234881" lon="13.3691711"><ele>463.83333333333337</ele><time>2026-04-26T15:05:32.066Z</time></trkpt><trkpt lat="38.0235394" lon="13.3692506"><ele>464.6666666666667</ele><time>2026-04-26T15:05:33.066Z</time></trkpt><trkpt lat="38.0235917" lon="13.3693335"><ele>465.5</ele><time>2026-04-26T15:05:34.066Z</time></trkpt><trkpt lat="38.0236433" lon="13.3694248"><ele>466.33333333333337</ele><time>2026-04-26T15:05:35.067Z</time></trkpt><trkpt lat="38.0236896" lon="13.369521"><ele>467.1666666666667</ele><time>2026-04-26T15:05:36.066Z</time></trkpt><trkpt lat="38.02373" lon="13.369624"><ele>468.0</ele><time>2026-04-26T15:05:37.066Z</time></trkpt><trkpt lat="38.023766" lon="13.3697302"><ele>468.0</ele><time>2026-04-26T15:05:38.066Z</time></trkpt><trkpt lat="38.0237862" lon="13.3698477"><ele>467.99999999999994</ele><time>2026-04-26T15:05:39.066Z</time></trkpt><trkpt lat="38.0237974" lon="13.3699765"><ele>467.99999999999994</ele><time>2026-04-26T15:05:40.067Z</time></trkpt><trkpt lat="38.0238017" lon="13.3701039"><ele>468.0</ele><time>2026-04-26T15:05:41.066Z</time></trkpt><trkpt lat="38.0238018" lon="13.3702307"><ele>468.0</ele><time>2026-04-26T15:05:42.066Z</time></trkpt><trkpt lat="38.0237974" lon="13.3703608"><ele>468.0</ele><time>2026-04-26T15:05:43.066Z</time></trkpt><trkpt lat="38.0237921" lon="13.3705021"><ele>467.99999999999994</ele><time>2026-04-26T15:05:44.066Z</time></trkpt><trkpt lat="38.0237885" lon="13.3706509"><ele>467.99999999999994</ele><time>2026-04-26T15:05:45.066Z</time></trkpt><trkpt lat="38.0237707" lon="13.3707906"><ele>468.0</ele><time>2026-04-26T15:05:46.066Z</time></trkpt><trkpt lat="38.023732" lon="13.3709149"><ele>468.0</ele><time>2026-04-26T15:05:47.066Z</time></trkpt><trkpt lat="38.0236725" lon="13.3710277"><ele>468.75</ele><time>2026-04-26T15:05:48.066Z</time></trkpt><trkpt lat="38.0236047" lon="13.3711265"><ele>469.5</ele><time>2026-04-26T15:05:49.066Z</time></trkpt><trkpt lat="38.0235359" lon="13.3712346"><ele>470.25</ele><time>2026-04-26T15:05:50.066Z</time></trkpt><trkpt lat="38.0234753" lon="13.3713622"><ele>471.0</ele><time>2026-04-26T15:05:51.067Z</time></trkpt><trkpt lat="38.0234257" lon="13.3715138"><ele>473.25</ele><time>2026-04-26T15:05:52.066Z</time></trkpt><trkpt lat="38.02339" lon="13.3716666"><ele>475.5</ele><time>2026-04-26T15:05:53.066Z</time></trkpt><trkpt lat="38.0233603" lon="13.3718182"><ele>477.75</ele><time>2026-04-26T15:05:54.067Z</time></trkpt><trkpt lat="38.0233299" lon="13.3719663"><ele>480.0</ele><time>2026-04-26T15:05:55.066Z</time></trkpt><trkpt lat="38.0233079" lon="13.3721139"><ele>481.5</ele><time>2026-04-26T15:05:56.066Z</time></trkpt><trkpt lat="38.0233031" lon="13.3722742"><ele>483.0</ele><time>2026-04-26T15:05:57.066Z</time></trkpt><trkpt lat="38.0233058" lon="13.372435"><ele>484.5</ele><time>2026-04-26T15:05:58.066Z</time></trkpt><trkpt lat="38.023316" lon="13.3725866"><ele>486.0</ele><time>2026-04-26T15:05:59.067Z</time></trkpt><trkpt lat="38.0233354" lon="13.3727396"><ele>486.0</ele><time>2026-04-26T15:06:00.066Z</time></trkpt><trkpt lat="38.0233557" lon="13.3728884"><ele>486.0</ele><time>2026-04-26T15:06:01.067Z</time></trkpt><trkpt lat="38.0233739" lon="13.3730368"><ele>486.0</ele><time>2026-04-26T15:06:02.067Z</time></trkpt><trkpt lat="38.0233805" lon="13.3731802"><ele>486.0</ele><time>2026-04-26T15:06:03.067Z</time></trkpt><trkpt lat="38.0233618" lon="13.3733248"><ele>487.0</ele><time>2026-04-26T15:06:04.066Z</time></trkpt><trkpt lat="38.0233249" lon="13.3734713"><ele>488.0</ele><time>2026-04-26T15:06:05.066Z</time></trkpt><trkpt lat="38.0232774" lon="13.3736262"><ele>489.0</ele><time>2026-04-26T15:06:06.067Z</time></trkpt><trkpt lat="38.0232244" lon="13.3737809"><ele>490.0</ele><time>2026-04-26T15:06:07.066Z</time></trkpt><trkpt lat="38.0231718" lon="13.3739368"><ele>484.0</ele><time>2026-04-26T15:06:08.066Z</time></trkpt><trkpt lat="38.02312" lon="13.374091"><ele>478.0</ele><time>2026-04-26T15:06:09.066Z</time></trkpt><trkpt lat="38.0230737" lon="13.3742346"><ele>472.0</ele><time>2026-04-26T15:06:10.066Z</time></trkpt><trkpt lat="38.0230513" lon="13.3743712"><ele>466.0</ele><time>2026-04-26T15:06:11.066Z</time></trkpt><trkpt lat="38.0230533" lon="13.3745212"><ele>466.0</ele><time>2026-04-26T15:06:12.066Z</time></trkpt><trkpt lat="38.02307" lon="13.3746804"><ele>466.0</ele><time>2026-04-26T15:06:13.066Z</time></trkpt><trkpt lat="38.023094" lon="13.3748366"><ele>466.0</ele><time>2026-04-26T15:06:14.066Z</time></trkpt><trkpt lat="38.0231246" lon="13.3749682"><ele>466.0</ele><time>2026-04-26T15:06:15.066Z</time></trkpt><trkpt lat="38.0231597" lon="13.3750692"><ele>466.0</ele><time>2026-04-26T15:06:16.066Z</time></trkpt><trkpt lat="38.0232056" lon="13.3751402"><ele>466.6666666666667</ele><time>2026-04-26T15:06:17.066Z</time></trkpt><trkpt lat="38.0232697" lon="13.375186"><ele>467.33333333333337</ele><time>2026-04-26T15:06:18.066Z</time></trkpt><trkpt lat="38.0233502" lon="13.3752048"><ele>468.0</ele><time>2026-04-26T15:06:19.066Z</time></trkpt><trkpt lat="38.0234407" lon="13.3751996"><ele>468.66666666666663</ele><time>2026-04-26T15:06:20.067Z</time></trkpt><trkpt lat="38.0235291" lon="13.37516"><ele>469.3333333333333</ele><time>2026-04-26T15:06:21.066Z</time></trkpt><trkpt lat="38.0236091" lon="13.3750891"><ele>470.0</ele><time>2026-04-26T15:06:22.066Z</time></trkpt><trkpt lat="38.023685" lon="13.3750031"><ele>475.6</ele><time>2026-04-26T15:06:23.066Z</time></trkpt><trkpt lat="38.0237523" lon="13.3748984"><ele>481.2</ele><time>2026-04-26T15:06:24.067Z</time></trkpt><trkpt lat="38.0238224" lon="13.3747936"><ele>486.79999999999995</ele><time>2026-04-26T15:06:25.066Z</time></trkpt><trkpt lat="38.0238913" lon="13.3746954"><ele>492.4</ele><time>2026-04-26T15:06:26.066Z</time></trkpt><trkpt lat="38.0239581" lon="13.3745931"><ele>498.0</ele><time>2026-04-26T15:06:27.066Z</time></trkpt><trkpt lat="38.0240327" lon="13.3744867"><ele>498.25</ele><time>2026-04-26T15:06:28.066Z</time></trkpt><trkpt lat="38.0241022" lon="13.3743703"><ele>498.5</ele><time>2026-04-26T15:06:29.066Z</time></trkpt><trkpt lat="38.0241687" lon="13.3742503"><ele>498.75</ele><time>2026-04-26T15:06:30.066Z</time></trkpt><trkpt lat="38.0242306" lon="13.374125"><ele>499.0</ele><time>2026-04-26T15:06:31.066Z</time></trkpt><trkpt lat="38.0242907" lon="13.3739951"><ele>499.75</ele><time>2026-04-26T15:06:32.067Z</time></trkpt><trkpt lat="38.0243538" lon="13.373867"><ele>500.5</ele><time>2026-04-26T15:06:33.066Z</time></trkpt><trkpt lat="38.0244184" lon="13.3737385"><ele>501.25</ele><time>2026-04-26T15:06:34.067Z</time></trkpt><trkpt lat="38.0244837" lon="13.3736107"><ele>502.0</ele><time>2026-04-26T15:06:35.066Z</time></trkpt><trkpt lat="38.024546" lon="13.3734858"><ele>503.6</ele><time>2026-04-26T15:06:36.066Z</time></trkpt><trkpt lat="38.0246042" lon="13.3733687"><ele>505.20000000000005</ele><time>2026-04-26T15:06:37.066Z</time></trkpt><trkpt lat="38.0246578" lon="13.3732643"><ele>506.8</ele><time>2026-04-26T15:06:38.066Z</time></trkpt><trkpt lat="38.0247098" lon="13.3731722"><ele>508.4</ele><time>2026-04-26T15:06:39.066Z</time></trkpt><trkpt lat="38.024762" lon="13.373091"><ele>510.0</ele><time>2026-04-26T15:06:40.066Z</time></trkpt><trkpt lat="38.0248104" lon="13.3730171"><ele>510.0</ele><time>2026-04-26T15:06:41.067Z</time></trkpt><trkpt lat="38.0248563" lon="13.3729457"><ele>510.0</ele><time>2026-04-26T15:06:42.066Z</time></trkpt><trkpt lat="38.0248969" lon="13.3728833"><ele>510.0</ele><time>2026-04-26T15:06:43.066Z</time></trkpt><trkpt lat="38.0249391" lon="13.372817"><ele>510.0</ele><time>2026-04-26T15:06:44.066Z</time></trkpt><trkpt lat="38.0249866" lon="13.372745"><ele>510.0</ele><time>2026-04-26T15:06:45.066Z</time></trkpt><trkpt lat="38.0250418" lon="13.3726619"><ele>510.0</ele><time>2026-04-26T15:06:46.066Z</time></trkpt><trkpt lat="38.0251062" lon="13.3725687"><ele>510.0</ele><time>2026-04-26T15:06:47.066Z</time></trkpt><trkpt lat="38.0251768" lon="13.3724713"><ele>510.0</ele><time>2026-04-26T15:06:48.066Z</time></trkpt><trkpt lat="38.0252523" lon="13.3723732"><ele>510.0</ele><time>2026-04-26T15:06:49.066Z</time></trkpt><trkpt lat="38.0253319" lon="13.3722778"><ele>510.0</ele><time>2026-04-26T15:06:50.066Z</time></trkpt><trkpt lat="38.0254144" lon="13.3721906"><ele>510.0</ele><time>2026-04-26T15:06:51.066Z</time></trkpt><trkpt lat="38.025504" lon="13.3721184"><ele>510.0</ele><time>2026-04-26T15:06:52.067Z</time></trkpt><trkpt lat="38.025604" lon="13.3720639"><ele>510.0</ele><time>2026-04-26T15:06:53.066Z</time></trkpt><trkpt lat="38.0257113" lon="13.3720161"><ele>510.0</ele><time>2026-04-26T15:06:54.067Z</time></trkpt><trkpt lat="38.0258224" lon="13.3719681"><ele>510.0</ele><time>2026-04-26T15:06:55.066Z</time></trkpt><trkpt lat="38.0259302" lon="13.3719106"><ele>510.0</ele><time>2026-04-26T15:06:56.066Z</time></trkpt><trkpt lat="38.0260336" lon="13.3718461"><ele>510.0</ele><time>2026-04-26T15:06:57.066Z</time></trkpt><trkpt lat="38.0261265" lon="13.3717828"><ele>510.0</ele><time>2026-04-26T15:06:58.066Z</time></trkpt><trkpt lat="38.026222" lon="13.3717185"><ele>510.0</ele><time>2026-04-26T15:06:59.067Z</time></trkpt><trkpt lat="38.0263203" lon="13.3716541"><ele>510.0</ele><time>2026-04-26T15:07:00.066Z</time></trkpt><trkpt lat="38.0264208" lon="13.3715895"><ele>510.0</ele><time>2026-04-26T15:07:01.067Z</time></trkpt><trkpt lat="38.0265222" lon="13.371528"><ele>510.0</ele><time>2026-04-26T15:07:02.066Z</time></trkpt><trkpt lat="38.0266256" lon="13.3714789"><ele>510.0</ele><time>2026-04-26T15:07:03.066Z</time></trkpt><trkpt lat="38.0267357" lon="13.3714421"><ele>510.0</ele><time>2026-04-26T15:07:04.066Z</time></trkpt><trkpt lat="38.0268476" lon="13.3714248"><ele>510.0</ele><time>2026-04-26T15:07:05.066Z</time></trkpt><trkpt lat="38.0269678" lon="13.371429"><ele>508.0</ele><time>2026-04-26T15:07:06.066Z</time></trkpt><trkpt lat="38.0270924" lon="13.3714409"><ele>506.0</ele><time>2026-04-26T15:07:07.066Z</time></trkpt><trkpt lat="38.0272163" lon="13.3714552"><ele>504.0</ele><time>2026-04-26T15:07:08.066Z</time></trkpt><trkpt lat="38.0273409" lon="13.3714647"><ele>502.0</ele><time>2026-04-26T15:07:09.067Z</time></trkpt><trkpt lat="38.027468" lon="13.3714648"><ele>501.75</ele><time>2026-04-26T15:07:10.066Z</time></trkpt><trkpt lat="38.0275979" lon="13.3714546"><ele>501.5</ele><time>2026-04-26T15:07:11.066Z</time></trkpt><trkpt lat="38.0277304" lon="13.3714404"><ele>501.25</ele><time>2026-04-26T15:07:12.067Z</time></trkpt><trkpt lat="38.0278656" lon="13.3714249"><ele>501.0</ele><time>2026-04-26T15:07:13.067Z</time></trkpt><trkpt lat="38.0280002" lon="13.3714005"><ele>501.0</ele><time>2026-04-26T15:07:14.066Z</time></trkpt><trkpt lat="38.0281367" lon="13.3713785"><ele>501.0</ele><time>2026-04-26T15:07:15.066Z</time></trkpt><trkpt lat="38.0282705" lon="13.3713616"><ele>501.0</ele><time>2026-04-26T15:07:16.066Z</time></trkpt><trkpt lat="38.0284032" lon="13.3713499"><ele>501.0</ele><time>2026-04-26T15:07:17.066Z</time></trkpt><trkpt lat="38.0285314" lon="13.3713411"><ele>506.0</ele><time>2026-04-26T15:07:18.067Z</time></trkpt><trkpt lat="38.0286582" lon="13.3713329"><ele>511.0</ele><time>2026-04-26T15:07:19.066Z</time></trkpt><trkpt lat="38.0287807" lon="13.3713258"><ele>516.0</ele><time>2026-04-26T15:07:20.066Z</time></trkpt><trkpt lat="38.0289026" lon="13.3713173"><ele>521.0</ele><time>2026-04-26T15:07:21.066Z</time></trkpt><trkpt lat="38.0290214" lon="13.3713008"><ele>521.0</ele><time>2026-04-26T15:07:22.066Z</time></trkpt><trkpt lat="38.0291401" lon="13.3712679"><ele>521.0</ele><time>2026-04-26T15:07:23.067Z</time></trkpt><trkpt lat="38.029261" lon="13.3712201"><ele>521.0</ele><time>2026-04-26T15:07:24.066Z</time></trkpt><trkpt lat="38.0293829" lon="13.3711666"><ele>521.0</ele><time>2026-04-26T15:07:25.066Z</time></trkpt><trkpt lat="38.0295051" lon="13.3711194"><ele>521.75</ele><time>2026-04-26T15:07:26.067Z</time></trkpt><trkpt lat="38.0296297" lon="13.3710782"><ele>522.5</ele><time>2026-04-26T15:07:27.066Z</time></trkpt><trkpt lat="38.029757" lon="13.3710428"><ele>523.25</ele><time>2026-04-26T15:07:28.066Z</time></trkpt><trkpt lat="38.0298881" lon="13.3710131"><ele>524.0</ele><time>2026-04-26T15:07:29.066Z</time></trkpt><trkpt lat="38.0300209" lon="13.3709892"><ele>524.5</ele><time>2026-04-26T15:07:30.066Z</time></trkpt><trkpt lat="38.030147" lon="13.3709703"><ele>525.0</ele><time>2026-04-26T15:07:31.066Z</time></trkpt><trkpt lat="38.0302548" lon="13.3709438"><ele>525.5</ele><time>2026-04-26T15:07:32.067Z</time></trkpt><trkpt lat="38.0303522" lon="13.3709012"><ele>526.0</ele><time>2026-04-26T15:07:33.066Z</time></trkpt><trkpt lat="38.0304482" lon="13.3708246"><ele>526.0</ele><time>2026-04-26T15:07:34.066Z</time></trkpt><trkpt lat="38.030546" lon="13.3707219"><ele>526.0</ele><time>2026-04-26T15:07:35.066Z</time></trkpt><trkpt lat="38.0306392" lon="13.370607"><ele>526.0</ele><time>2026-04-26T15:07:36.066Z</time></trkpt><trkpt lat="38.0307303" lon="13.3704857"><ele>526.0</ele><time>2026-04-26T15:07:37.066Z</time></trkpt><trkpt lat="38.0308212" lon="13.3703586"><ele>528.0</ele><time>2026-04-26T15:07:38.067Z</time></trkpt><trkpt lat="38.0309157" lon="13.3702356"><ele>530.0</ele><time>2026-04-26T15:07:39.066Z</time></trkpt><trkpt lat="38.0310136" lon="13.3701389"><ele>532.0</ele><time>2026-04-26T15:07:40.066Z</time></trkpt><trkpt lat="38.0311176" lon="13.370082"><ele>534.0</ele><time>2026-04-26T15:07:41.066Z</time></trkpt><trkpt lat="38.0312326" lon="13.3700523"><ele>534.0</ele><time>2026-04-26T15:07:42.066Z</time></trkpt><trkpt lat="38.0313653" lon="13.370038"><ele>534.0</ele><time>2026-04-26T15:07:43.066Z</time></trkpt><trkpt lat="38.0315116" lon="13.370028"><ele>534.0</ele><time>2026-04-26T15:07:44.066Z</time></trkpt><trkpt lat="38.0316623" lon="13.3700221"><ele>534.0</ele><time>2026-04-26T15:07:45.066Z</time></trkpt><trkpt lat="38.0318145" lon="13.3700265"><ele>532.75</ele><time>2026-04-26T15:07:46.067Z</time></trkpt><trkpt lat="38.0319644" lon="13.3700342"><ele>531.5</ele><time>2026-04-26T15:07:47.067Z</time></trkpt><trkpt lat="38.0321116" lon="13.3700412"><ele>530.25</ele><time>2026-04-26T15:07:48.066Z</time></trkpt><trkpt lat="38.0322516" lon="13.3700497"><ele>529.0</ele><time>2026-04-26T15:07:49.066Z</time></trkpt><trkpt lat="38.0323774" lon="13.3700634"><ele>530.75</ele><time>2026-04-26T15:07:50.066Z</time></trkpt><trkpt lat="38.0325002" lon="13.3700716"><ele>532.5</ele><time>2026-04-26T15:07:51.066Z</time></trkpt><trkpt lat="38.032628" lon="13.37006"><ele>534.25</ele><time>2026-04-26T15:07:52.066Z</time></trkpt><trkpt lat="38.0327527" lon="13.370023"><ele>536.0</ele><time>2026-04-26T15:07:53.066Z</time></trkpt><trkpt lat="38.0328807" lon="13.3699735"><ele>536.0</ele><time>2026-04-26T15:07:54.066Z</time></trkpt><trkpt lat="38.0330151" lon="13.3699134"><ele>536.0</ele><time>2026-04-26T15:07:55.066Z</time></trkpt><trkpt lat="38.0331513" lon="13.3698403"><ele>536.0</ele><time>2026-04-26T15:07:56.067Z</time></trkpt><trkpt lat="38.0332903" lon="13.3697618"><ele>536.0</ele><time>2026-04-26T15:07:57.066Z</time></trkpt><trkpt lat="38.0334274" lon="13.3696811"><ele>540.3333333333333</ele><time>2026-04-26T15:07:58.066Z</time></trkpt><trkpt lat="38.0335649" lon="13.3695946"><ele>544.6666666666666</ele><time>2026-04-26T15:07:59.067Z</time></trkpt><trkpt lat="38.0337054" lon="13.3694964"><ele>549.0</ele><time>2026-04-26T15:08:00.066Z</time></trkpt><trkpt lat="38.0338479" lon="13.3693944"><ele>549.0</ele><time>2026-04-26T15:08:01.067Z</time></trkpt><trkpt lat="38.0339933" lon="13.3692891"><ele>549.0</ele><time>2026-04-26T15:08:02.066Z</time></trkpt><trkpt lat="38.0341426" lon="13.3691845"><ele>549.0</ele><time>2026-04-26T15:08:03.066Z</time></trkpt><trkpt lat="38.0342952" lon="13.3690804"><ele>547.6666666666666</ele><time>2026-04-26T15:08:04.067Z</time></trkpt><trkpt lat="38.0344463" lon="13.3689693"><ele>546.3333333333333</ele><time>2026-04-26T15:08:05.066Z</time></trkpt><trkpt lat="38.0345959" lon="13.3688574"><ele>545.0</ele><time>2026-04-26T15:08:06.066Z</time></trkpt><trkpt lat="38.0347417" lon="13.3687464"><ele>546.0</ele><time>2026-04-26T15:08:07.066Z</time></trkpt><trkpt lat="38.0348787" lon="13.3686419"><ele>547.0</ele><time>2026-04-26T15:08:08.067Z</time></trkpt><trkpt lat="38.0350006" lon="13.3685441"><ele>548.0</ele><time>2026-04-26T15:08:09.067Z</time></trkpt><trkpt lat="38.0351066" lon="13.3684584"><ele>549.0</ele><time>2026-04-26T15:08:10.066Z</time></trkpt><trkpt lat="38.0351935" lon="13.3683726"><ele>549.0</ele><time>2026-04-26T15:08:11.066Z</time></trkpt><trkpt lat="38.0352639" lon="13.368277"><ele>549.0</ele><time>2026-04-26T15:08:12.066Z</time></trkpt><trkpt lat="38.0353096" lon="13.3681426"><ele>549.0</ele><time>2026-04-26T15:08:13.066Z</time></trkpt><trkpt lat="38.0353397" lon="13.3679754"><ele>549.0</ele><time>2026-04-26T15:08:14.066Z</time></trkpt><trkpt lat="38.0353651" lon="13.3677827"><ele>553.0</ele><time>2026-04-26T15:08:15.066Z</time></trkpt><trkpt lat="38.0353936" lon="13.3675849"><ele>557.0</ele><time>2026-04-26T15:08:16.067Z</time></trkpt><trkpt lat="38.0354238" lon="13.3673781"><ele>561.0</ele><time>2026-04-26T15:08:17.066Z</time></trkpt><trkpt lat="38.0354789" lon="13.3671734"><ele>566.0</ele><time>2026-04-26T15:08:18.066Z</time></trkpt><trkpt lat="38.0355407" lon="13.3669625"><ele>571.0</ele><time>2026-04-26T15:08:19.067Z</time></trkpt><trkpt lat="38.0356119" lon="13.366759"><ele>576.0</ele><time>2026-04-26T15:08:20.066Z</time></trkpt><trkpt lat="38.0356841" lon="13.3665624"><ele>576.0</ele><time>2026-04-26T15:08:21.066Z</time></trkpt><trkpt lat="38.0357567" lon="13.3663756"><ele>576.0</ele><time>2026-04-26T15:08:22.066Z</time></trkpt><trkpt lat="38.0358332" lon="13.3661974"><ele>576.0</ele><time>2026-04-26T15:08:23.066Z</time></trkpt><trkpt lat="38.0359157" lon="13.3660254"><ele>573.6666666666666</ele><time>2026-04-26T15:08:24.066Z</time></trkpt><trkpt lat="38.0360074" lon="13.3658636"><ele>571.3333333333333</ele><time>2026-04-26T15:08:25.066Z</time></trkpt><trkpt lat="38.0360997" lon="13.3657173"><ele>569.0</ele><time>2026-04-26T15:08:26.066Z</time></trkpt><trkpt lat="38.0362033" lon="13.3655852"><ele>571.0</ele><time>2026-04-26T15:08:27.066Z</time></trkpt><trkpt lat="38.0363147" lon="13.3654621"><ele>573.0</ele><time>2026-04-26T15:08:28.066Z</time></trkpt><trkpt lat="38.0364309" lon="13.3653521"><ele>575.0</ele><time>2026-04-26T15:08:29.066Z</time></trkpt><trkpt lat="38.0365598" lon="13.3652549"><ele>577.0</ele><time>2026-04-26T15:08:30.066Z</time></trkpt><trkpt lat="38.0366849" lon="13.3651697"><ele>577.0</ele><time>2026-04-26T15:08:31.066Z</time></trkpt><trkpt lat="38.0367942" lon="13.365091"><ele>577.0</ele><time>2026-04-26T15:08:32.067Z</time></trkpt><trkpt lat="38.0368796" lon="13.3650186"><ele>577.0</ele><time>2026-04-26T15:08:33.066Z</time></trkpt><trkpt lat="38.0369268" lon="13.3649525"><ele>577.0</ele><time>2026-04-26T15:08:34.066Z</time></trkpt><trkpt lat="38.0369497" lon="13.3648527"><ele>577.0</ele><time>2026-04-26T15:08:36.066Z</time></trkpt><trkpt lat="38.0369531" lon="13.3647434"><ele>578.1666666666667</ele><time>2026-04-26T15:08:39.066Z</time></trkpt><trkpt lat="38.0370092" lon="13.3646696"><ele>579.3333333333334</ele><time>2026-04-26T15:08:46.066Z</time></trkpt><trkpt lat="38.0370841" lon="13.3646556"><ele>580.5</ele><time>2026-04-26T15:08:49.066Z</time></trkpt><trkpt lat="38.0370517" lon="13.3645716"><ele>581.6666666666666</ele><time>2026-04-26T15:10:02.066Z</time></trkpt><trkpt lat="38.0369343" lon="13.3646096"><ele>582.8333333333333</ele><time>2026-04-26T15:10:04.066Z</time></trkpt><trkpt lat="38.0368393" lon="13.3646347"><ele>584.0</ele><time>2026-04-26T15:10:05.066Z</time></trkpt><trkpt lat="38.0367127" lon="13.3646523"><ele>582.75</ele><time>2026-04-26T15:10:06.066Z</time></trkpt><trkpt lat="38.0365843" lon="13.364674"><ele>581.5</ele><time>2026-04-26T15:10:07.066Z</time></trkpt><trkpt lat="38.0364716" lon="13.3646931"><ele>580.25</ele><time>2026-04-26T15:10:08.067Z</time></trkpt><trkpt lat="38.0363643" lon="13.3647061"><ele>579.0</ele><time>2026-04-26T15:10:09.066Z</time></trkpt><trkpt lat="38.0362579" lon="13.3647228"><ele>579.0</ele><time>2026-04-26T15:10:10.066Z</time></trkpt><trkpt lat="38.0361423" lon="13.3647392"><ele>579.0</ele><time>2026-04-26T15:10:11.066Z</time></trkpt><trkpt lat="38.0360175" lon="13.3647459"><ele>579.0</ele><time>2026-04-26T15:10:12.066Z</time></trkpt><trkpt lat="38.0358982" lon="13.3647367"><ele>579.0</ele><time>2026-04-26T15:10:13.066Z</time></trkpt><trkpt lat="38.0357861" lon="13.3647277"><ele>582.0</ele><time>2026-04-26T15:10:14.066Z</time></trkpt><trkpt lat="38.0356849" lon="13.364728"><ele>585.0</ele><time>2026-04-26T15:10:15.067Z</time></trkpt><trkpt lat="38.0355951" lon="13.3647532"><ele>588.0</ele><time>2026-04-26T15:10:16.066Z</time></trkpt><trkpt lat="38.0355098" lon="13.364805"><ele>591.0</ele><time>2026-04-26T15:10:17.067Z</time></trkpt><trkpt lat="38.0354319" lon="13.3648858"><ele>594.0</ele><time>2026-04-26T15:10:18.066Z</time></trkpt><trkpt lat="38.0353705" lon="13.3649931"><ele>594.0</ele><time>2026-04-26T15:10:19.066Z</time></trkpt><trkpt lat="38.0353402" lon="13.3651262"><ele>594.0</ele><time>2026-04-26T15:10:20.067Z</time></trkpt><trkpt lat="38.0353093" lon="13.3652656"><ele>594.0</ele><time>2026-04-26T15:10:21.066Z</time></trkpt><trkpt lat="38.0352829" lon="13.3653997"><ele>594.0</ele><time>2026-04-26T15:10:22.066Z</time></trkpt><trkpt lat="38.035252" lon="13.3655309"><ele>594.0</ele><time>2026-04-26T15:10:23.066Z</time></trkpt><trkpt lat="38.0352189" lon="13.3656649"><ele>594.75</ele><time>2026-04-26T15:10:24.066Z</time></trkpt><trkpt lat="38.0351746" lon="13.3657945"><ele>595.5</ele><time>2026-04-26T15:10:25.066Z</time></trkpt><trkpt lat="38.0351179" lon="13.3659226"><ele>596.25</ele><time>2026-04-26T15:10:26.066Z</time></trkpt><trkpt lat="38.0350471" lon="13.3660385"><ele>597.0</ele><time>2026-04-26T15:10:27.066Z</time></trkpt><trkpt lat="38.0349673" lon="13.3661462"><ele>597.0</ele><time>2026-04-26T15:10:28.066Z</time></trkpt><trkpt lat="38.0348776" lon="13.3662477"><ele>597.0</ele><time>2026-04-26T15:10:29.066Z</time></trkpt><trkpt lat="38.0347828" lon="13.3663427"><ele>597.0</ele><time>2026-04-26T15:10:30.066Z</time></trkpt><trkpt lat="38.0346792" lon="13.3664147"><ele>597.0</ele><time>2026-04-26T15:10:31.066Z</time></trkpt><trkpt lat="38.0345699" lon="13.3664579"><ele>594.4</ele><time>2026-04-26T15:10:32.067Z</time></trkpt><trkpt lat="38.0344596" lon="13.3664774"><ele>591.8000000000001</ele><time>2026-04-26T15:10:33.066Z</time></trkpt><trkpt lat="38.0343516" lon="13.3664733"><ele>589.2</ele><time>2026-04-26T15:10:34.066Z</time></trkpt><trkpt lat="38.0342561" lon="13.3664567"><ele>586.6</ele><time>2026-04-26T15:10:35.066Z</time></trkpt><trkpt lat="38.0341676" lon="13.3664311"><ele>584.0</ele><time>2026-04-26T15:10:36.066Z</time></trkpt><trkpt lat="38.0340794" lon="13.3663705"><ele>584.6</ele><time>2026-04-26T15:10:37.066Z</time></trkpt><trkpt lat="38.0339906" lon="13.3662923"><ele>585.2</ele><time>2026-04-26T15:10:38.067Z</time></trkpt><trkpt lat="38.0339071" lon="13.3662095"><ele>585.8000000000001</ele><time>2026-04-26T15:10:39.066Z</time></trkpt><trkpt lat="38.0338245" lon="13.3661291"><ele>586.4</ele><time>2026-04-26T15:10:40.066Z</time></trkpt><trkpt lat="38.0337406" lon="13.3660409"><ele>587.0</ele><time>2026-04-26T15:10:41.066Z</time></trkpt><trkpt lat="38.0336587" lon="13.365943"><ele>587.0</ele><time>2026-04-26T15:10:42.066Z</time></trkpt><trkpt lat="38.0335813" lon="13.365835"><ele>587.0</ele><time>2026-04-26T15:10:43.067Z</time></trkpt><trkpt lat="38.0335091" lon="13.3656986"><ele>587.0</ele><time>2026-04-26T15:10:44.066Z</time></trkpt><trkpt lat="38.0334439" lon="13.3655468"><ele>587.0</ele><time>2026-04-26T15:10:45.066Z</time></trkpt><trkpt lat="38.0333723" lon="13.3653999"><ele>587.75</ele><time>2026-04-26T15:10:46.067Z</time></trkpt><trkpt lat="38.0333073" lon="13.3652636"><ele>588.5</ele><time>2026-04-26T15:10:47.066Z</time></trkpt><trkpt lat="38.0332418" lon="13.3651315"><ele>589.25</ele><time>2026-04-26T15:10:48.066Z</time></trkpt><trkpt lat="38.0331788" lon="13.3649995"><ele>590.0</ele><time>2026-04-26T15:10:49.066Z</time></trkpt><trkpt lat="38.0331256" lon="13.3648566"><ele>590.0</ele><time>2026-04-26T15:10:50.066Z</time></trkpt><trkpt lat="38.0330758" lon="13.364705"><ele>590.0</ele><time>2026-04-26T15:10:51.066Z</time></trkpt><trkpt lat="38.0330353" lon="13.3645592"><ele>590.0</ele><time>2026-04-26T15:10:52.066Z</time></trkpt><trkpt lat="38.0330099" lon="13.3644174"><ele>590.0</ele><time>2026-04-26T15:10:53.066Z</time></trkpt><trkpt lat="38.0329898" lon="13.3642863"><ele>590.8</ele><time>2026-04-26T15:10:54.066Z</time></trkpt><trkpt lat="38.0329731" lon="13.3641569"><ele>591.6</ele><time>2026-04-26T15:10:55.066Z</time></trkpt><trkpt lat="38.0329716" lon="13.3640353"><ele>592.4</ele><time>2026-04-26T15:10:56.067Z</time></trkpt><trkpt lat="38.0329884" lon="13.3639194"><ele>593.2</ele><time>2026-04-26T15:10:57.066Z</time></trkpt><trkpt lat="38.0330422" lon="13.363804"><ele>594.0</ele><time>2026-04-26T15:10:58.066Z</time></trkpt><trkpt lat="38.0331445" lon="13.3636805"><ele>590.3333333333334</ele><time>2026-04-26T15:10:59.066Z</time></trkpt><trkpt lat="38.0332773" lon="13.3635458"><ele>586.6666666666667</ele><time>2026-04-26T15:11:00.066Z</time></trkpt><trkpt lat="38.0334067" lon="13.3634054"><ele>583.0</ele><time>2026-04-26T15:11:01.067Z</time></trkpt><trkpt lat="38.0335252" lon="13.3632674"><ele>583.0</ele><time>2026-04-26T15:11:02.066Z</time></trkpt><trkpt lat="38.0336232" lon="13.3631259"><ele>583.0</ele><time>2026-04-26T15:11:03.066Z</time></trkpt><trkpt lat="38.0337019" lon="13.3629728"><ele>583.0</ele><time>2026-04-26T15:11:04.066Z</time></trkpt><trkpt lat="38.0337499" lon="13.3628029"><ele>583.0</ele><time>2026-04-26T15:11:05.066Z</time></trkpt><trkpt lat="38.0337658" lon="13.3626221"><ele>578.3333333333334</ele><time>2026-04-26T15:11:06.066Z</time></trkpt><trkpt lat="38.0337729" lon="13.3624243"><ele>573.6666666666666</ele><time>2026-04-26T15:11:07.066Z</time></trkpt><trkpt lat="38.0337829" lon="13.3622324"><ele>569.0</ele><time>2026-04-26T15:11:08.067Z</time></trkpt><trkpt lat="38.0337925" lon="13.3620502"><ele>567.5</ele><time>2026-04-26T15:11:09.066Z</time></trkpt><trkpt lat="38.0337986" lon="13.3618804"><ele>566.0</ele><time>2026-04-26T15:11:10.066Z</time></trkpt><trkpt lat="38.0338161" lon="13.3617215"><ele>564.5</ele><time>2026-04-26T15:11:11.066Z</time></trkpt><trkpt lat="38.0338405" lon="13.3615682"><ele>563.0</ele><time>2026-04-26T15:11:12.067Z</time></trkpt><trkpt lat="38.0338996" lon="13.361433"><ele>562.5</ele><time>2026-04-26T15:11:13.066Z</time></trkpt><trkpt lat="38.0339776" lon="13.3613132"><ele>562.0</ele><time>2026-04-26T15:11:14.066Z</time></trkpt><trkpt lat="38.0340576" lon="13.3612019"><ele>561.5</ele><time>2026-04-26T15:11:15.066Z</time></trkpt><trkpt lat="38.0341273" lon="13.3610936"><ele>561.0</ele><time>2026-04-26T15:11:16.066Z</time></trkpt><trkpt lat="38.0341828" lon="13.3609847"><ele>564.0</ele><time>2026-04-26T15:11:17.067Z</time></trkpt><trkpt lat="38.0342272" lon="13.3608575"><ele>567.0</ele><time>2026-04-26T15:11:18.066Z</time></trkpt><trkpt lat="38.0342434" lon="13.3607061"><ele>570.0</ele><time>2026-04-26T15:11:19.066Z</time></trkpt><trkpt lat="38.0342263" lon="13.3605569"><ele>573.0</ele><time>2026-04-26T15:11:20.066Z</time></trkpt><trkpt lat="38.0341796" lon="13.360411"><ele>573.75</ele><time>2026-04-26T15:11:21.067Z</time></trkpt><trkpt lat="38.0340987" lon="13.3602828"><ele>574.5</ele><time>2026-04-26T15:11:22.066Z</time></trkpt><trkpt lat="38.0340082" lon="13.3601978"><ele>575.25</ele><time>2026-04-26T15:11:23.066Z</time></trkpt><trkpt lat="38.0339105" lon="13.3601497"><ele>576.0</ele><time>2026-04-26T15:11:24.066Z</time></trkpt><trkpt lat="38.0337994" lon="13.3601255"><ele>576.0</ele><time>2026-04-26T15:11:25.066Z</time></trkpt><trkpt lat="38.0336791" lon="13.3601491"><ele>576.0</ele><time>2026-04-26T15:11:26.066Z</time></trkpt><trkpt lat="38.0335648" lon="13.3601909"><ele>576.0</ele><time>2026-04-26T15:11:27.066Z</time></trkpt><trkpt lat="38.0334367" lon="13.3602734"><ele>576.0</ele><time>2026-04-26T15:11:28.066Z</time></trkpt><trkpt lat="38.0332933" lon="13.3603709"><ele>580.0</ele><time>2026-04-26T15:11:29.066Z</time></trkpt><trkpt lat="38.0331469" lon="13.3604744"><ele>584.0</ele><time>2026-04-26T15:11:30.066Z</time></trkpt><trkpt lat="38.0330032" lon="13.3605849"><ele>588.0</ele><time>2026-04-26T15:11:31.066Z</time></trkpt><trkpt lat="38.0328563" lon="13.3606914"><ele>580.3333333333334</ele><time>2026-04-26T15:11:32.067Z</time></trkpt><trkpt lat="38.0327118" lon="13.3607873"><ele>572.6666666666667</ele><time>2026-04-26T15:11:33.066Z</time></trkpt><trkpt lat="38.032567" lon="13.3608645"><ele>565.0</ele><time>2026-04-26T15:11:34.066Z</time></trkpt><trkpt lat="38.0324269" lon="13.3609231"><ele>565.0</ele><time>2026-04-26T15:11:35.066Z</time></trkpt><trkpt lat="38.0322842" lon="13.3609631"><ele>565.0</ele><time>2026-04-26T15:11:36.066Z</time></trkpt><trkpt lat="38.0321366" lon="13.3609966"><ele>565.0</ele><time>2026-04-26T15:11:37.066Z</time></trkpt><trkpt lat="38.0319788" lon="13.3610112"><ele>565.0</ele><time>2026-04-26T15:11:38.066Z</time></trkpt><trkpt lat="38.0318205" lon="13.3610164"><ele>565.0</ele><time>2026-04-26T15:11:39.066Z</time></trkpt><trkpt lat="38.0316699" lon="13.3610238"><ele>565.0</ele><time>2026-04-26T15:11:40.066Z</time></trkpt><trkpt lat="38.0315234" lon="13.3610349"><ele>563.25</ele><time>2026-04-26T15:11:41.066Z</time></trkpt><trkpt lat="38.0313832" lon="13.3610431"><ele>561.5</ele><time>2026-04-26T15:11:42.066Z</time></trkpt><trkpt lat="38.0312532" lon="13.3610443"><ele>559.75</ele><time>2026-04-26T15:11:43.066Z</time></trkpt><trkpt lat="38.0311233" lon="13.3610358"><ele>558.0</ele><time>2026-04-26T15:11:44.066Z</time></trkpt><trkpt lat="38.0309811" lon="13.3610023"><ele>558.0</ele><time>2026-04-26T15:11:45.066Z</time></trkpt><trkpt lat="38.0308332" lon="13.3609422"><ele>558.0</ele><time>2026-04-26T15:11:46.066Z</time></trkpt><trkpt lat="38.0306871" lon="13.3608571"><ele>558.0</ele><time>2026-04-26T15:11:47.066Z</time></trkpt><trkpt lat="38.0305434" lon="13.3607684"><ele>554.6666666666666</ele><time>2026-04-26T15:11:48.066Z</time></trkpt><trkpt lat="38.0303964" lon="13.3606821"><ele>551.3333333333333</ele><time>2026-04-26T15:11:49.067Z</time></trkpt><trkpt lat="38.0302521" lon="13.3606002"><ele>548.0</ele><time>2026-04-26T15:11:50.066Z</time></trkpt><trkpt lat="38.0301021" lon="13.3605422"><ele>556.3333333333333</ele><time>2026-04-26T15:11:51.067Z</time></trkpt><trkpt lat="38.0299456" lon="13.3605179"><ele>564.6666666666666</ele><time>2026-04-26T15:11:52.066Z</time></trkpt><trkpt lat="38.0297871" lon="13.3605178"><ele>573.0</ele><time>2026-04-26T15:11:53.066Z</time></trkpt><trkpt lat="38.0296256" lon="13.3605294"><ele>573.0</ele><time>2026-04-26T15:11:54.067Z</time></trkpt><trkpt lat="38.0294687" lon="13.3605326"><ele>573.0</ele><time>2026-04-26T15:11:55.066Z</time></trkpt><trkpt lat="38.0293081" lon="13.3605138"><ele>573.0</ele><time>2026-04-26T15:11:56.067Z</time></trkpt><trkpt lat="38.0291482" lon="13.3604739"><ele>569.6666666666666</ele><time>2026-04-26T15:11:57.066Z</time></trkpt><trkpt lat="38.0289822" lon="13.3604286"><ele>566.3333333333333</ele><time>2026-04-26T15:11:58.066Z</time></trkpt><trkpt lat="38.0288189" lon="13.3603792"><ele>563.0</ele><time>2026-04-26T15:11:59.066Z</time></trkpt><trkpt lat="38.0286595" lon="13.3603303"><ele>563.0</ele><time>2026-04-26T15:12:00.066Z</time></trkpt><trkpt lat="38.0285105" lon="13.3602832"><ele>563.0</ele><time>2026-04-26T15:12:01.066Z</time></trkpt><trkpt lat="38.0283722" lon="13.3602375"><ele>563.0</ele><time>2026-04-26T15:12:02.066Z</time></trkpt><trkpt lat="38.0282432" lon="13.3601801"><ele>563.0</ele><time>2026-04-26T15:12:03.067Z</time></trkpt><trkpt lat="38.0281212" lon="13.3600881"><ele>564.75</ele><time>2026-04-26T15:12:04.066Z</time></trkpt><trkpt lat="38.028005" lon="13.3599769"><ele>566.5</ele><time>2026-04-26T15:12:05.066Z</time></trkpt><trkpt lat="38.0279111" lon="13.3598531"><ele>568.25</ele><time>2026-04-26T15:12:06.066Z</time></trkpt><trkpt lat="38.0278246" lon="13.359722"><ele>570.0</ele><time>2026-04-26T15:12:07.067Z</time></trkpt><trkpt lat="38.0277395" lon="13.3596116"><ele>570.0</ele><time>2026-04-26T15:12:08.066Z</time></trkpt><trkpt lat="38.0276391" lon="13.3595187"><ele>570.0</ele><time>2026-04-26T15:12:09.066Z</time></trkpt><trkpt lat="38.027527" lon="13.3594561"><ele>570.0</ele><time>2026-04-26T15:12:10.067Z</time></trkpt><trkpt lat="38.0274071" lon="13.3594177"><ele>570.0</ele><time>2026-04-26T15:12:11.066Z</time></trkpt><trkpt lat="38.0272722" lon="13.3593796"><ele>569.25</ele><time>2026-04-26T15:12:12.067Z</time></trkpt><trkpt lat="38.0271458" lon="13.3593442"><ele>568.5</ele><time>2026-04-26T15:12:13.067Z</time></trkpt><trkpt lat="38.0270242" lon="13.3593152"><ele>567.75</ele><time>2026-04-26T15:12:14.066Z</time></trkpt><trkpt lat="38.0268998" lon="13.359311"><ele>567.0</ele><time>2026-04-26T15:12:15.066Z</time></trkpt><trkpt lat="38.0267846" lon="13.3593412"><ele>567.0</ele><time>2026-04-26T15:12:16.066Z</time></trkpt><trkpt lat="38.0266816" lon="13.359407"><ele>567.0</ele><time>2026-04-26T15:12:17.066Z</time></trkpt><trkpt lat="38.0265832" lon="13.3595141"><ele>567.0</ele><time>2026-04-26T15:12:18.067Z</time></trkpt><trkpt lat="38.0264788" lon="13.3596397"><ele>567.0</ele><time>2026-04-26T15:12:19.066Z</time></trkpt><trkpt lat="38.026367" lon="13.3597755"><ele>564.0</ele><time>2026-04-26T15:12:20.066Z</time></trkpt><trkpt lat="38.0262576" lon="13.3598978"><ele>561.0</ele><time>2026-04-26T15:12:21.066Z</time></trkpt><trkpt lat="38.0261544" lon="13.3599963"><ele>558.0</ele><time>2026-04-26T15:12:22.066Z</time></trkpt><trkpt lat="38.026052" lon="13.3600599"><ele>555.0</ele><time>2026-04-26T15:12:23.066Z</time></trkpt><trkpt lat="38.0259608" lon="13.3600784"><ele>555.0</ele><time>2026-04-26T15:12:24.066Z</time></trkpt><trkpt lat="38.0258785" lon="13.3600556"><ele>555.0</ele><time>2026-04-26T15:12:25.066Z</time></trkpt><trkpt lat="38.0258038" lon="13.3599747"><ele>555.0</ele><time>2026-04-26T15:12:26.066Z</time></trkpt><trkpt lat="38.0257281" lon="13.3598439"><ele>555.0</ele><time>2026-04-26T15:12:27.066Z</time></trkpt><trkpt lat="38.0256472" lon="13.3597014"><ele>555.0</ele><time>2026-04-26T15:12:28.066Z</time></trkpt><trkpt lat="38.0255683" lon="13.3595383"><ele>553.5</ele><time>2026-04-26T15:12:29.066Z</time></trkpt><trkpt lat="38.0254902" lon="13.3593695"><ele>552.0</ele><time>2026-04-26T15:12:30.066Z</time></trkpt><trkpt lat="38.0254275" lon="13.3591991"><ele>550.5</ele><time>2026-04-26T15:12:31.066Z</time></trkpt><trkpt lat="38.0253821" lon="13.3590365"><ele>549.0</ele><time>2026-04-26T15:12:32.065Z</time></trkpt><trkpt lat="38.0253506" lon="13.3588859"><ele>555.25</ele><time>2026-04-26T15:12:33.066Z</time></trkpt><trkpt lat="38.0253055" lon="13.3587367"><ele>561.5</ele><time>2026-04-26T15:12:34.066Z</time></trkpt><trkpt lat="38.0252306" lon="13.3586156"><ele>567.75</ele><time>2026-04-26T15:12:35.065Z</time></trkpt><trkpt lat="38.0251353" lon="13.3585232"><ele>574.0</ele><time>2026-04-26T15:12:36.065Z</time></trkpt><trkpt lat="38.0250206" lon="13.358447"><ele>575.5</ele><time>2026-04-26T15:12:37.065Z</time></trkpt><trkpt lat="38.0249099" lon="13.3583831"><ele>577.0</ele><time>2026-04-26T15:12:38.065Z</time></trkpt><trkpt lat="38.0248067" lon="13.358319"><ele>578.5</ele><time>2026-04-26T15:12:39.065Z</time></trkpt><trkpt lat="38.0247008" lon="13.3582696"><ele>580.0</ele><time>2026-04-26T15:12:40.065Z</time></trkpt><trkpt lat="38.0245871" lon="13.3582589"><ele>580.0</ele><time>2026-04-26T15:12:41.066Z</time></trkpt><trkpt lat="38.0244778" lon="13.3582872"><ele>580.0</ele><time>2026-04-26T15:12:42.066Z</time></trkpt><trkpt lat="38.0243749" lon="13.3583517"><ele>580.0</ele><time>2026-04-26T15:12:43.065Z</time></trkpt><trkpt lat="38.0242941" lon="13.3584606"><ele>580.0</ele><time>2026-04-26T15:12:44.065Z</time></trkpt><trkpt lat="38.0242296" lon="13.3586039"><ele>580.0</ele><time>2026-04-26T15:12:45.065Z</time></trkpt><trkpt lat="38.0241888" lon="13.3587766"><ele>580.0</ele><time>2026-04-26T15:12:46.065Z</time></trkpt><trkpt lat="38.0241445" lon="13.3589632"><ele>580.0</ele><time>2026-04-26T15:12:47.065Z</time></trkpt><trkpt lat="38.0240908" lon="13.3591509"><ele>584.6666666666667</ele><time>2026-04-26T15:12:48.065Z</time></trkpt><trkpt lat="38.0240216" lon="13.3593266"><ele>589.3333333333334</ele><time>2026-04-26T15:12:49.065Z</time></trkpt><trkpt lat="38.0239334" lon="13.3594944"><ele>594.0</ele><time>2026-04-26T15:12:50.065Z</time></trkpt><trkpt lat="38.0238348" lon="13.3596471"><ele>589.5</ele><time>2026-04-26T15:12:51.065Z</time></trkpt><trkpt lat="38.0237259" lon="13.3597695"><ele>585.0</ele><time>2026-04-26T15:12:52.065Z</time></trkpt><trkpt lat="38.0236178" lon="13.3598433"><ele>580.5</ele><time>2026-04-26T15:12:53.065Z</time></trkpt><trkpt lat="38.0235083" lon="13.3598999"><ele>576.0</ele><time>2026-04-26T15:12:54.065Z</time></trkpt><trkpt lat="38.0234148" lon="13.3599695"><ele>576.0</ele><time>2026-04-26T15:12:55.065Z</time></trkpt><trkpt lat="38.0233516" lon="13.3600713"><ele>576.0</ele><time>2026-04-26T15:12:56.066Z</time></trkpt><trkpt lat="38.0233007" lon="13.3602377"><ele>576.0</ele><time>2026-04-26T15:12:57.065Z</time></trkpt><trkpt lat="38.0232659" lon="13.3604436"><ele>576.0</ele><time>2026-04-26T15:12:58.065Z</time></trkpt><trkpt lat="38.0232358" lon="13.3606507"><ele>587.0</ele><time>2026-04-26T15:12:59.065Z</time></trkpt><trkpt lat="38.0231959" lon="13.3608622"><ele>598.0</ele><time>2026-04-26T15:13:00.065Z</time></trkpt><trkpt lat="38.023153" lon="13.3610731"><ele>609.0</ele><time>2026-04-26T15:13:01.065Z</time></trkpt><trkpt lat="38.0231063" lon="13.3612823"><ele>602.3333333333334</ele><time>2026-04-26T15:13:02.065Z</time></trkpt><trkpt lat="38.0230518" lon="13.36149"><ele>595.6666666666667</ele><time>2026-04-26T15:13:03.065Z</time></trkpt><trkpt lat="38.0229848" lon="13.3616852"><ele>589.0</ele><time>2026-04-26T15:13:04.065Z</time></trkpt><trkpt lat="38.0228929" lon="13.3618602"><ele>589.0</ele><time>2026-04-26T15:13:05.065Z</time></trkpt><trkpt lat="38.0227808" lon="13.3620143"><ele>589.0</ele><time>2026-04-26T15:13:06.065Z</time></trkpt><trkpt lat="38.0226566" lon="13.3621393"><ele>589.0</ele><time>2026-04-26T15:13:07.065Z</time></trkpt><trkpt lat="38.0225191" lon="13.3622376"><ele>582.0</ele><time>2026-04-26T15:13:08.065Z</time></trkpt><trkpt lat="38.0223685" lon="13.3623047"><ele>575.0</ele><time>2026-04-26T15:13:09.065Z</time></trkpt><trkpt lat="38.0222067" lon="13.3623403"><ele>568.0</ele><time>2026-04-26T15:13:10.065Z</time></trkpt><trkpt lat="38.0220316" lon="13.3623461"><ele>568.0</ele><time>2026-04-26T15:13:11.065Z</time></trkpt><trkpt lat="38.0218414" lon="13.362338"><ele>568.0</ele><time>2026-04-26T15:13:12.065Z</time></trkpt><trkpt lat="38.0216409" lon="13.3623298"><ele>568.0</ele><time>2026-04-26T15:13:13.066Z</time></trkpt><trkpt lat="38.021441" lon="13.3623326"><ele>572.0</ele><time>2026-04-26T15:13:14.065Z</time></trkpt><trkpt lat="38.0212419" lon="13.3623462"><ele>576.0</ele><time>2026-04-26T15:13:15.065Z</time></trkpt><trkpt lat="38.0210354" lon="13.3623663"><ele>580.0</ele><time>2026-04-26T15:13:16.065Z</time></trkpt><trkpt lat="38.0208243" lon="13.3623879"><ele>582.3333333333334</ele><time>2026-04-26T15:13:17.065Z</time></trkpt><trkpt lat="38.0206096" lon="13.3624101"><ele>584.6666666666666</ele><time>2026-04-26T15:13:18.065Z</time></trkpt><trkpt lat="38.0203999" lon="13.3624323"><ele>587.0</ele><time>2026-04-26T15:13:19.065Z</time></trkpt><trkpt lat="38.0201992" lon="13.3624512"><ele>587.0</ele><time>2026-04-26T15:13:20.065Z</time></trkpt><trkpt lat="38.0200085" lon="13.3624759"><ele>587.0</ele><time>2026-04-26T15:13:21.065Z</time></trkpt><trkpt lat="38.0198357" lon="13.3624995"><ele>587.0</ele><time>2026-04-26T15:13:22.065Z</time></trkpt><trkpt lat="38.0196829" lon="13.3625169"><ele>588.75</ele><time>2026-04-26T15:13:23.066Z</time></trkpt><trkpt lat="38.0195463" lon="13.3625329"><ele>590.5</ele><time>2026-04-26T15:13:24.065Z</time></trkpt><trkpt lat="38.0194231" lon="13.3625476"><ele>592.25</ele><time>2026-04-26T15:13:25.065Z</time></trkpt><trkpt lat="38.0193151" lon="13.3625579"><ele>594.0</ele><time>2026-04-26T15:13:26.066Z</time></trkpt><trkpt lat="38.0192143" lon="13.362562"><ele>593.6</ele><time>2026-04-26T15:13:27.066Z</time></trkpt><trkpt lat="38.019115" lon="13.3625599"><ele>593.2</ele><time>2026-04-26T15:13:28.065Z</time></trkpt><trkpt lat="38.0190138" lon="13.3625528"><ele>592.8000000000001</ele><time>2026-04-26T15:13:29.065Z</time></trkpt><trkpt lat="38.0189038" lon="13.3625418"><ele>592.4</ele><time>2026-04-26T15:13:30.065Z</time></trkpt><trkpt lat="38.0187806" lon="13.3625231"><ele>592.0</ele><time>2026-04-26T15:13:31.065Z</time></trkpt><trkpt lat="38.0186505" lon="13.3625027"><ele>592.0</ele><time>2026-04-26T15:13:32.065Z</time></trkpt><trkpt lat="38.0185142" lon="13.3624799"><ele>592.0</ele><time>2026-04-26T15:13:33.065Z</time></trkpt><trkpt lat="38.0183776" lon="13.3624524"><ele>592.0</ele><time>2026-04-26T15:13:34.065Z</time></trkpt><trkpt lat="38.0182471" lon="13.3624306"><ele>592.0</ele><time>2026-04-26T15:13:35.066Z</time></trkpt><trkpt lat="38.0181224" lon="13.3624095"><ele>591.6</ele><time>2026-04-26T15:13:36.065Z</time></trkpt><trkpt lat="38.0180076" lon="13.3623908"><ele>591.2</ele><time>2026-04-26T15:13:37.065Z</time></trkpt><trkpt lat="38.0178972" lon="13.3623726"><ele>590.8</ele><time>2026-04-26T15:13:38.065Z</time></trkpt><trkpt lat="38.017795" lon="13.3623555"><ele>590.4</ele><time>2026-04-26T15:13:39.066Z</time></trkpt><trkpt lat="38.0177015" lon="13.3623454"><ele>590.0</ele><time>2026-04-26T15:13:40.065Z</time></trkpt><trkpt lat="38.0176113" lon="13.3623339"><ele>590.0000000000001</ele><time>2026-04-26T15:13:41.065Z</time></trkpt><trkpt lat="38.0175275" lon="13.3623249"><ele>590.0</ele><time>2026-04-26T15:13:42.065Z</time></trkpt><trkpt lat="38.0174499" lon="13.3623022"><ele>590.0</ele><time>2026-04-26T15:13:43.065Z</time></trkpt><trkpt lat="38.0173767" lon="13.3622825"><ele>590.0</ele><time>2026-04-26T15:13:44.065Z</time></trkpt><trkpt lat="38.0173123" lon="13.3622779"><ele>590.0</ele><time>2026-04-26T15:13:45.065Z</time></trkpt><trkpt lat="38.0172491" lon="13.3622746"><ele>590.0000000000001</ele><time>2026-04-26T15:13:46.065Z</time></trkpt><trkpt lat="38.0171854" lon="13.3622679"><ele>590.0</ele><time>2026-04-26T15:13:47.065Z</time></trkpt><trkpt lat="38.017071" lon="13.3622452"><ele>589.3333333333333</ele><time>2026-04-26T15:13:49.065Z</time></trkpt><trkpt lat="38.0169986" lon="13.3622351"><ele>588.6666666666666</ele><time>2026-04-26T15:13:50.065Z</time></trkpt><trkpt lat="38.0169216" lon="13.3622256"><ele>588.0</ele><time>2026-04-26T15:13:51.066Z</time></trkpt><trkpt lat="38.0168335" lon="13.3622101"><ele>587.3333333333334</ele><time>2026-04-26T15:13:52.065Z</time></trkpt><trkpt lat="38.0167383" lon="13.3621906"><ele>586.6666666666667</ele><time>2026-04-26T15:13:53.065Z</time></trkpt><trkpt lat="38.0166329" lon="13.3621761"><ele>586.0</ele><time>2026-04-26T15:13:54.065Z</time></trkpt><trkpt lat="38.0165249" lon="13.3621605"><ele>589.5</ele><time>2026-04-26T15:13:55.065Z</time></trkpt><trkpt lat="38.016416" lon="13.3621574"><ele>593.0</ele><time>2026-04-26T15:13:56.065Z</time></trkpt><trkpt lat="38.0163017" lon="13.3621456"><ele>596.5</ele><time>2026-04-26T15:13:57.065Z</time></trkpt><trkpt lat="38.0161794" lon="13.3621363"><ele>600.0</ele><time>2026-04-26T15:13:58.065Z</time></trkpt><trkpt lat="38.016053" lon="13.3621232"><ele>600.0</ele><time>2026-04-26T15:13:59.065Z</time></trkpt><trkpt lat="38.0159252" lon="13.3621135"><ele>600.0</ele><time>2026-04-26T15:14:00.065Z</time></trkpt><trkpt lat="38.0158001" lon="13.3621077"><ele>600.0</ele><time>2026-04-26T15:14:01.065Z</time></trkpt><trkpt lat="38.0156694" lon="13.3620998"><ele>600.0</ele><time>2026-04-26T15:14:02.065Z</time></trkpt><trkpt lat="38.0155387" lon="13.3620901"><ele>598.75</ele><time>2026-04-26T15:14:03.065Z</time></trkpt><trkpt lat="38.0154062" lon="13.3620749"><ele>597.5</ele><time>2026-04-26T15:14:04.065Z</time></trkpt><trkpt lat="38.0152734" lon="13.3620544"><ele>596.25</ele><time>2026-04-26T15:14:05.065Z</time></trkpt><trkpt lat="38.0151415" lon="13.3620176"><ele>595.0</ele><time>2026-04-26T15:14:06.065Z</time></trkpt><trkpt lat="38.0149921" lon="13.3619621"><ele>591.6666666666667</ele><time>2026-04-26T15:14:07.065Z</time></trkpt><trkpt lat="38.0148392" lon="13.3618791"><ele>588.3333333333334</ele><time>2026-04-26T15:14:08.065Z</time></trkpt><trkpt lat="38.0146765" lon="13.3617944"><ele>585.0</ele><time>2026-04-26T15:14:09.065Z</time></trkpt><trkpt lat="38.0145094" lon="13.3617066"><ele>585.0</ele><time>2026-04-26T15:14:10.066Z</time></trkpt><trkpt lat="38.0143515" lon="13.361612"><ele>585.0</ele><time>2026-04-26T15:14:11.066Z</time></trkpt><trkpt lat="38.0142023" lon="13.3615032"><ele>585.0</ele><time>2026-04-26T15:14:12.065Z</time></trkpt><trkpt lat="38.0140568" lon="13.3613775"><ele>585.0</ele><time>2026-04-26T15:14:13.065Z</time></trkpt><trkpt lat="38.0139106" lon="13.3612434"><ele>585.0</ele><time>2026-04-26T15:14:14.066Z</time></trkpt><trkpt lat="38.0137621" lon="13.3610958"><ele>585.0</ele><time>2026-04-26T15:14:15.066Z</time></trkpt><trkpt lat="38.0136122" lon="13.3609379"><ele>585.0</ele><time>2026-04-26T15:14:16.066Z</time></trkpt><trkpt lat="38.0134651" lon="13.3607806"><ele>585.0</ele><time>2026-04-26T15:14:17.065Z</time></trkpt><trkpt lat="38.0133172" lon="13.360616"><ele>585.0</ele><time>2026-04-26T15:14:18.065Z</time></trkpt><trkpt lat="38.0131649" lon="13.3604485"><ele>584.6666666666666</ele><time>2026-04-26T15:14:19.065Z</time></trkpt><trkpt lat="38.013016" lon="13.3602883"><ele>584.3333333333333</ele><time>2026-04-26T15:14:20.065Z</time></trkpt><trkpt lat="38.0128762" lon="13.3601432"><ele>584.0</ele><time>2026-04-26T15:14:21.065Z</time></trkpt><trkpt lat="38.0127455" lon="13.3600042"><ele>584.0</ele><time>2026-04-26T15:14:22.065Z</time></trkpt><trkpt lat="38.0126225" lon="13.359871"><ele>584.0</ele><time>2026-04-26T15:14:23.065Z</time></trkpt><trkpt lat="38.0125099" lon="13.3597485"><ele>584.0</ele><time>2026-04-26T15:14:24.065Z</time></trkpt><trkpt lat="38.0124053" lon="13.3596293"><ele>584.25</ele><time>2026-04-26T15:14:25.065Z</time></trkpt><trkpt lat="38.0123169" lon="13.3595061"><ele>584.5</ele><time>2026-04-26T15:14:26.065Z</time></trkpt><trkpt lat="38.0122399" lon="13.3593753"><ele>584.75</ele><time>2026-04-26T15:14:27.065Z</time></trkpt><trkpt lat="38.0121623" lon="13.3592307"><ele>585.0</ele><time>2026-04-26T15:14:28.065Z</time></trkpt><trkpt lat="38.0120839" lon="13.3590661"><ele>585.0</ele><time>2026-04-26T15:14:29.065Z</time></trkpt><trkpt lat="38.0120037" lon="13.3588925"><ele>585.0</ele><time>2026-04-26T15:14:30.066Z</time></trkpt><trkpt lat="38.0119295" lon="13.3587095"><ele>585.0</ele><time>2026-04-26T15:14:31.065Z</time></trkpt><trkpt lat="38.0118525" lon="13.3585303"><ele>585.25</ele><time>2026-04-26T15:14:32.065Z</time></trkpt><trkpt lat="38.0117782" lon="13.3583582"><ele>585.5</ele><time>2026-04-26T15:14:33.065Z</time></trkpt><trkpt lat="38.0117044" lon="13.3582025"><ele>585.75</ele><time>2026-04-26T15:14:34.065Z</time></trkpt><trkpt lat="38.0116309" lon="13.3580525"><ele>586.0</ele><time>2026-04-26T15:14:35.065Z</time></trkpt><trkpt lat="38.0115691" lon="13.3579261"><ele>586.0</ele><time>2026-04-26T15:14:36.065Z</time></trkpt><trkpt lat="38.0115096" lon="13.3578316"><ele>586.0</ele><time>2026-04-26T15:14:37.065Z</time></trkpt><trkpt lat="38.0114506" lon="13.3577501"><ele>586.0</ele><time>2026-04-26T15:14:38.065Z</time></trkpt><trkpt lat="38.0113921" lon="13.3576801"><ele>586.0</ele><time>2026-04-26T15:14:39.065Z</time></trkpt><trkpt lat="38.0113332" lon="13.3576244"><ele>586.0</ele><time>2026-04-26T15:14:40.066Z</time></trkpt><trkpt lat="38.0112335" lon="13.3575209"><ele>586.0</ele><time>2026-04-26T15:14:42.065Z</time></trkpt><trkpt lat="38.0111644" lon="13.3574634"><ele>586.0</ele><time>2026-04-26T15:14:43.065Z</time></trkpt><trkpt lat="38.0110753" lon="13.3574078"><ele>586.0</ele><time>2026-04-26T15:14:44.065Z</time></trkpt><trkpt lat="38.0109775" lon="13.357348"><ele>586.0</ele><time>2026-04-26T15:14:45.065Z</time></trkpt><trkpt lat="38.0108761" lon="13.3572936"><ele>586.0</ele><time>2026-04-26T15:14:46.065Z</time></trkpt><trkpt lat="38.0107754" lon="13.3572428"><ele>586.25</ele><time>2026-04-26T15:14:47.066Z</time></trkpt><trkpt lat="38.0106741" lon="13.3571862"><ele>586.5</ele><time>2026-04-26T15:14:48.065Z</time></trkpt><trkpt lat="38.010568" lon="13.3571319"><ele>586.75</ele><time>2026-04-26T15:14:49.065Z</time></trkpt><trkpt lat="38.010453" lon="13.3570815"><ele>587.0</ele><time>2026-04-26T15:14:50.065Z</time></trkpt><trkpt lat="38.0103322" lon="13.3570313"><ele>587.0</ele><time>2026-04-26T15:14:51.065Z</time></trkpt><trkpt lat="38.0102078" lon="13.356981"><ele>587.0</ele><time>2026-04-26T15:14:52.065Z</time></trkpt><trkpt lat="38.010077" lon="13.3569299"><ele>587.0</ele><time>2026-04-26T15:14:53.066Z</time></trkpt><trkpt lat="38.0099459" lon="13.3568854"><ele>587.0</ele><time>2026-04-26T15:14:54.065Z</time></trkpt><trkpt lat="38.0098014" lon="13.3568561"><ele>587.3333333333333</ele><time>2026-04-26T15:14:55.065Z</time></trkpt><trkpt lat="38.0096489" lon="13.3568494"><ele>587.6666666666666</ele><time>2026-04-26T15:14:56.065Z</time></trkpt><trkpt lat="38.0095011" lon="13.3568577"><ele>588.0</ele><time>2026-04-26T15:14:57.065Z</time></trkpt><trkpt lat="38.0093471" lon="13.356883"><ele>588.0</ele><time>2026-04-26T15:14:58.066Z</time></trkpt><trkpt lat="38.0091913" lon="13.3569108"><ele>588.0</ele><time>2026-04-26T15:14:59.065Z</time></trkpt><trkpt lat="38.0090323" lon="13.3569344"><ele>588.0</ele><time>2026-04-26T15:15:00.066Z</time></trkpt><trkpt lat="38.0088724" lon="13.356957"><ele>588.5</ele><time>2026-04-26T15:15:01.065Z</time></trkpt><trkpt lat="38.008723" lon="13.3569812"><ele>589.0</ele><time>2026-04-26T15:15:02.065Z</time></trkpt><trkpt lat="38.0085785" lon="13.3570016"><ele>589.5</ele><time>2026-04-26T15:15:03.065Z</time></trkpt><trkpt lat="38.0084286" lon="13.3570293"><ele>590.0</ele><time>2026-04-26T15:15:04.065Z</time></trkpt><trkpt lat="38.0082757" lon="13.3570578"><ele>590.5</ele><time>2026-04-26T15:15:05.065Z</time></trkpt><trkpt lat="38.0081256" lon="13.3570905"><ele>591.0</ele><time>2026-04-26T15:15:06.065Z</time></trkpt><trkpt lat="38.0079901" lon="13.3571384"><ele>591.5</ele><time>2026-04-26T15:15:07.065Z</time></trkpt><trkpt lat="38.0078626" lon="13.3571854"><ele>592.0</ele><time>2026-04-26T15:15:08.065Z</time></trkpt><trkpt lat="38.0077355" lon="13.3572393"><ele>592.25</ele><time>2026-04-26T15:15:09.065Z</time></trkpt><trkpt lat="38.007604" lon="13.3573114"><ele>592.5</ele><time>2026-04-26T15:15:10.065Z</time></trkpt><trkpt lat="38.0074832" lon="13.3574178"><ele>592.75</ele><time>2026-04-26T15:15:11.065Z</time></trkpt><trkpt lat="38.007372" lon="13.3575364"><ele>593.0</ele><time>2026-04-26T15:15:12.065Z</time></trkpt><trkpt lat="38.0072633" lon="13.3576597"><ele>593.0</ele><time>2026-04-26T15:15:13.065Z</time></trkpt><trkpt lat="38.0071524" lon="13.3577765"><ele>593.0</ele><time>2026-04-26T15:15:14.065Z</time></trkpt><trkpt lat="38.0070319" lon="13.3578741"><ele>593.0</ele><time>2026-04-26T15:15:15.065Z</time></trkpt><trkpt lat="38.0068971" lon="13.3579376"><ele>593.0</ele><time>2026-04-26T15:15:16.065Z</time></trkpt><trkpt lat="38.0067605" lon="13.3579756"><ele>592.75</ele><time>2026-04-26T15:15:17.065Z</time></trkpt><trkpt lat="38.0066199" lon="13.357998"><ele>592.5</ele><time>2026-04-26T15:15:18.065Z</time></trkpt><trkpt lat="38.0064848" lon="13.3580125"><ele>592.25</ele><time>2026-04-26T15:15:19.065Z</time></trkpt><trkpt lat="38.0063601" lon="13.3580234"><ele>592.0</ele><time>2026-04-26T15:15:20.065Z</time></trkpt><trkpt lat="38.0062461" lon="13.3580332"><ele>592.25</ele><time>2026-04-26T15:15:21.065Z</time></trkpt><trkpt lat="38.0061426" lon="13.3580436"><ele>592.5</ele><time>2026-04-26T15:15:22.065Z</time></trkpt><trkpt lat="38.0060474" lon="13.3580517"><ele>592.75</ele><time>2026-04-26T15:15:23.065Z</time></trkpt><trkpt lat="38.0059346" lon="13.3580488"><ele>593.0</ele><time>2026-04-26T15:15:24.065Z</time></trkpt><trkpt lat="38.0057886" lon="13.3580045"><ele>593.0</ele><time>2026-04-26T15:15:25.065Z</time></trkpt><trkpt lat="38.0056277" lon="13.3579194"><ele>593.0</ele><time>2026-04-26T15:15:26.065Z</time></trkpt><trkpt lat="38.0054638" lon="13.3577941"><ele>593.0</ele><time>2026-04-26T15:15:27.066Z</time></trkpt><trkpt lat="38.0052983" lon="13.3576529"><ele>593.0</ele><time>2026-04-26T15:15:28.065Z</time></trkpt><trkpt lat="38.0051235" lon="13.3575051"><ele>593.0</ele><time>2026-04-26T15:15:29.065Z</time></trkpt><trkpt lat="38.0049419" lon="13.3573562"><ele>593.0</ele><time>2026-04-26T15:15:30.065Z</time></trkpt><trkpt lat="38.0047551" lon="13.3572039"><ele>596.0</ele><time>2026-04-26T15:15:31.066Z</time></trkpt><trkpt lat="38.0045604" lon="13.3570419"><ele>599.0</ele><time>2026-04-26T15:15:32.065Z</time></trkpt><trkpt lat="38.0043551" lon="13.3568752"><ele>602.0</ele><time>2026-04-26T15:15:33.065Z</time></trkpt><trkpt lat="38.0041412" lon="13.3567057"><ele>605.0</ele><time>2026-04-26T15:15:34.065Z</time></trkpt><trkpt lat="38.0039236" lon="13.3565326"><ele>604.5</ele><time>2026-04-26T15:15:35.065Z</time></trkpt><trkpt lat="38.003703" lon="13.3563571"><ele>604.0</ele><time>2026-04-26T15:15:36.065Z</time></trkpt><trkpt lat="38.0034847" lon="13.3561833"><ele>606.5</ele><time>2026-04-26T15:15:37.065Z</time></trkpt><trkpt lat="38.0032752" lon="13.3560151"><ele>609.0</ele><time>2026-04-26T15:15:38.065Z</time></trkpt><trkpt lat="38.0030731" lon="13.3558527"><ele>609.0</ele><time>2026-04-26T15:15:39.065Z</time></trkpt><trkpt lat="38.0028821" lon="13.3556955"><ele>609.0</ele><time>2026-04-26T15:15:40.065Z</time></trkpt><trkpt lat="38.0026967" lon="13.3555431"><ele>609.0</ele><time>2026-04-26T15:15:41.065Z</time></trkpt><trkpt lat="38.0025187" lon="13.3553984"><ele>610.6666666666666</ele><time>2026-04-26T15:15:42.065Z</time></trkpt><trkpt lat="38.0023451" lon="13.3552602"><ele>612.3333333333333</ele><time>2026-04-26T15:15:43.065Z</time></trkpt><trkpt lat="38.0021805" lon="13.3551333"><ele>614.0</ele><time>2026-04-26T15:15:44.065Z</time></trkpt><trkpt lat="38.0020256" lon="13.3550192"><ele>614.0</ele><time>2026-04-26T15:15:45.066Z</time></trkpt><trkpt lat="38.0018675" lon="13.3549085"><ele>614.0</ele><time>2026-04-26T15:15:46.065Z</time></trkpt><trkpt lat="38.0017053" lon="13.3547933"><ele>614.0</ele><time>2026-04-26T15:15:47.065Z</time></trkpt><trkpt lat="38.0015359" lon="13.3546719"><ele>612.6666666666666</ele><time>2026-04-26T15:15:48.065Z</time></trkpt><trkpt lat="38.0013583" lon="13.3545444"><ele>611.3333333333334</ele><time>2026-04-26T15:15:49.065Z</time></trkpt><trkpt lat="38.0011721" lon="13.3544129"><ele>610.0</ele><time>2026-04-26T15:15:50.065Z</time></trkpt><trkpt lat="38.0009712" lon="13.3542769"><ele>607.0</ele><time>2026-04-26T15:15:51.065Z</time></trkpt><trkpt lat="38.0007695" lon="13.3541322"><ele>604.0</ele><time>2026-04-26T15:15:52.065Z</time></trkpt><trkpt lat="38.0005667" lon="13.3539824"><ele>607.5</ele><time>2026-04-26T15:15:53.066Z</time></trkpt><trkpt lat="38.0003614" lon="13.353829"><ele>611.0</ele><time>2026-04-26T15:15:54.065Z</time></trkpt><trkpt lat="38.0001544" lon="13.3536752"><ele>611.0</ele><time>2026-04-26T15:15:55.065Z</time></trkpt><trkpt lat="37.9999475" lon="13.3535215"><ele>611.0</ele><time>2026-04-26T15:15:56.066Z</time></trkpt><trkpt lat="37.9997387" lon="13.3533631"><ele>611.0</ele><time>2026-04-26T15:15:57.065Z</time></trkpt><trkpt lat="37.9995289" lon="13.3531957"><ele>611.0</ele><time>2026-04-26T15:15:58.065Z</time></trkpt><trkpt lat="37.9993146" lon="13.3530258"><ele>610.0</ele><time>2026-04-26T15:15:59.065Z</time></trkpt><trkpt lat="37.9990947" lon="13.3528526"><ele>609.0</ele><time>2026-04-26T15:16:00.065Z</time></trkpt><trkpt lat="37.9988711" lon="13.3526777"><ele>609.0</ele><time>2026-04-26T15:16:01.065Z</time></trkpt><trkpt lat="37.9986465" lon="13.3525042"><ele>609.0</ele><time>2026-04-26T15:16:02.065Z</time></trkpt><trkpt lat="37.9984249" lon="13.3523289"><ele>611.0</ele><time>2026-04-26T15:16:03.066Z</time></trkpt><trkpt lat="37.9982102" lon="13.3521563"><ele>613.0</ele><time>2026-04-26T15:16:04.065Z</time></trkpt><trkpt lat="37.9980028" lon="13.3519901"><ele>613.0</ele><time>2026-04-26T15:16:05.065Z</time></trkpt><trkpt lat="37.9978052" lon="13.3518299"><ele>613.0</ele><time>2026-04-26T15:16:06.065Z</time></trkpt><trkpt lat="37.9976237" lon="13.3516773"><ele>614.0</ele><time>2026-04-26T15:16:07.066Z</time></trkpt><trkpt lat="37.9974515" lon="13.3515346"><ele>615.0</ele><time>2026-04-26T15:16:08.065Z</time></trkpt><trkpt lat="37.9972873" lon="13.3514"><ele>616.0</ele><time>2026-04-26T15:16:09.065Z</time></trkpt><trkpt lat="37.9971288" lon="13.3512701"><ele>616.0</ele><time>2026-04-26T15:16:10.065Z</time></trkpt><trkpt lat="37.9969801" lon="13.3511475"><ele>616.0</ele><time>2026-04-26T15:16:11.065Z</time></trkpt><trkpt lat="37.9968374" lon="13.3510364"><ele>616.0</ele><time>2026-04-26T15:16:12.065Z</time></trkpt><trkpt lat="37.9966987" lon="13.3509524"><ele>611.6666666666667</ele><time>2026-04-26T15:16:13.065Z</time></trkpt><trkpt lat="37.996562" lon="13.350905"><ele>607.3333333333334</ele><time>2026-04-26T15:16:14.065Z</time></trkpt><trkpt lat="37.9964171" lon="13.3508886"><ele>603.0</ele><time>2026-04-26T15:16:15.065Z</time></trkpt><trkpt lat="37.9962454" lon="13.3509061"><ele>603.0</ele><time>2026-04-26T15:16:16.066Z</time></trkpt><trkpt lat="37.9960626" lon="13.3509401"><ele>603.0</ele><time>2026-04-26T15:16:17.065Z</time></trkpt><trkpt lat="37.995876" lon="13.3509777"><ele>603.0</ele><time>2026-04-26T15:16:18.065Z</time></trkpt><trkpt lat="37.9956879" lon="13.3510097"><ele>601.3333333333334</ele><time>2026-04-26T15:16:19.065Z</time></trkpt><trkpt lat="37.9955033" lon="13.3510323"><ele>599.6666666666667</ele><time>2026-04-26T15:16:20.066Z</time></trkpt><trkpt lat="37.9953356" lon="13.3510311"><ele>598.0</ele><time>2026-04-26T15:16:21.065Z</time></trkpt><trkpt lat="37.9951788" lon="13.3509872"><ele>598.0</ele><time>2026-04-26T15:16:22.065Z</time></trkpt><trkpt lat="37.9950393" lon="13.3509076"><ele>598.0</ele><time>2026-04-26T15:16:23.065Z</time></trkpt><trkpt lat="37.9949097" lon="13.3507867"><ele>598.0</ele><time>2026-04-26T15:16:24.065Z</time></trkpt><trkpt lat="37.9947727" lon="13.3506261"><ele>598.6666666666667</ele><time>2026-04-26T15:16:25.065Z</time></trkpt><trkpt lat="37.9946238" lon="13.3504473"><ele>599.3333333333334</ele><time>2026-04-26T15:16:26.065Z</time></trkpt><trkpt lat="37.9944691" lon="13.3502846"><ele>600.0</ele><time>2026-04-26T15:16:27.065Z</time></trkpt><trkpt lat="37.9943166" lon="13.3501252"><ele>600.0</ele><time>2026-04-26T15:16:28.065Z</time></trkpt><trkpt lat="37.9941766" lon="13.3499718"><ele>600.0</ele><time>2026-04-26T15:16:29.065Z</time></trkpt><trkpt lat="37.9940502" lon="13.3498381"><ele>600.0</ele><time>2026-04-26T15:16:30.065Z</time></trkpt><trkpt lat="37.9939262" lon="13.3497175"><ele>601.3333333333334</ele><time>2026-04-26T15:16:31.065Z</time></trkpt><trkpt lat="37.9937906" lon="13.3496242"><ele>602.6666666666667</ele><time>2026-04-26T15:16:32.066Z</time></trkpt><trkpt lat="37.9936314" lon="13.3495455"><ele>604.0</ele><time>2026-04-26T15:16:33.065Z</time></trkpt><trkpt lat="37.9934554" lon="13.3494737"><ele>604.3333333333334</ele><time>2026-04-26T15:16:34.065Z</time></trkpt><trkpt lat="37.9932733" lon="13.3494109"><ele>604.6666666666666</ele><time>2026-04-26T15:16:35.065Z</time></trkpt><trkpt lat="37.9930864" lon="13.3493467"><ele>605.0</ele><time>2026-04-26T15:16:36.065Z</time></trkpt><trkpt lat="37.9928976" lon="13.3492842"><ele>605.0</ele><time>2026-04-26T15:16:37.066Z</time></trkpt><trkpt lat="37.9927091" lon="13.3492173"><ele>605.0</ele><time>2026-04-26T15:16:38.065Z</time></trkpt><trkpt lat="37.9925237" lon="13.3491376"><ele>605.0</ele><time>2026-04-26T15:16:39.065Z</time></trkpt><trkpt lat="37.9923452" lon="13.3490435"><ele>607.6666666666666</ele><time>2026-04-26T15:16:40.065Z</time></trkpt><trkpt lat="37.9921733" lon="13.3489277"><ele>610.3333333333334</ele><time>2026-04-26T15:16:41.065Z</time></trkpt><trkpt lat="37.9920054" lon="13.3487997"><ele>613.0</ele><time>2026-04-26T15:16:42.065Z</time></trkpt><trkpt lat="37.9918476" lon="13.3486809"><ele>613.0</ele><time>2026-04-26T15:16:43.065Z</time></trkpt><trkpt lat="37.9916928" lon="13.3485753"><ele>613.0</ele><time>2026-04-26T15:16:44.065Z</time></trkpt><trkpt lat="37.9915475" lon="13.3484862"><ele>613.0</ele><time>2026-04-26T15:16:45.065Z</time></trkpt><trkpt lat="37.9914053" lon="13.3484216"><ele>613.25</ele><time>2026-04-26T15:16:46.065Z</time></trkpt><trkpt lat="37.9912644" lon="13.3483669"><ele>613.5</ele><time>2026-04-26T15:16:47.065Z</time></trkpt><trkpt lat="37.9911285" lon="13.3483229"><ele>613.75</ele><time>2026-04-26T15:16:48.065Z</time></trkpt><trkpt lat="37.9909931" lon="13.3482856"><ele>614.0</ele><time>2026-04-26T15:16:49.065Z</time></trkpt><trkpt lat="37.990854" lon="13.3482536"><ele>616.0</ele><time>2026-04-26T15:16:50.066Z</time></trkpt><trkpt lat="37.9907189" lon="13.3482299"><ele>618.0</ele><time>2026-04-26T15:16:51.065Z</time></trkpt><trkpt lat="37.9905826" lon="13.3482165"><ele>620.0</ele><time>2026-04-26T15:16:52.065Z</time></trkpt><trkpt lat="37.9904568" lon="13.3482026"><ele>622.0</ele><time>2026-04-26T15:16:53.065Z</time></trkpt><trkpt lat="37.9903445" lon="13.3481714"><ele>622.0</ele><time>2026-04-26T15:16:54.065Z</time></trkpt><trkpt lat="37.9902513" lon="13.3481106"><ele>622.0</ele><time>2026-04-26T15:16:55.065Z</time></trkpt><trkpt lat="37.9901796" lon="13.3480345"><ele>622.0</ele><time>2026-04-26T15:16:56.066Z</time></trkpt><trkpt lat="37.9901213" lon="13.3479392"><ele>622.0</ele><time>2026-04-26T15:16:57.065Z</time></trkpt><trkpt lat="37.9900817" lon="13.3478274"><ele>622.0</ele><time>2026-04-26T15:16:58.065Z</time></trkpt><trkpt lat="37.9900618" lon="13.3477086"><ele>621.4</ele><time>2026-04-26T15:16:59.065Z</time></trkpt><trkpt lat="37.9900559" lon="13.3475866"><ele>620.8000000000001</ele><time>2026-04-26T15:17:00.065Z</time></trkpt><trkpt lat="37.9900667" lon="13.3474576"><ele>620.2</ele><time>2026-04-26T15:17:01.065Z</time></trkpt><trkpt lat="37.9900928" lon="13.3473285"><ele>619.6</ele><time>2026-04-26T15:17:02.065Z</time></trkpt><trkpt lat="37.9901387" lon="13.3472074"><ele>619.0</ele><time>2026-04-26T15:17:03.066Z</time></trkpt><trkpt lat="37.9901912" lon="13.3470768"><ele>620.75</ele><time>2026-04-26T15:17:04.065Z</time></trkpt><trkpt lat="37.9902386" lon="13.3469412"><ele>622.5</ele><time>2026-04-26T15:17:05.065Z</time></trkpt><trkpt lat="37.9902779" lon="13.3467955"><ele>624.25</ele><time>2026-04-26T15:17:06.066Z</time></trkpt><trkpt lat="37.9903076" lon="13.3466483"><ele>626.0</ele><time>2026-04-26T15:17:07.065Z</time></trkpt><trkpt lat="37.9903243" lon="13.3464986"><ele>627.0</ele><time>2026-04-26T15:17:08.065Z</time></trkpt><trkpt lat="37.9903344" lon="13.3463449"><ele>628.0</ele><time>2026-04-26T15:17:09.065Z</time></trkpt><trkpt lat="37.990341" lon="13.3461963"><ele>629.0</ele><time>2026-04-26T15:17:10.065Z</time></trkpt><trkpt lat="37.9903451" lon="13.346047"><ele>630.0</ele><time>2026-04-26T15:17:11.065Z</time></trkpt><trkpt lat="37.9903525" lon="13.3459037"><ele>630.0</ele><time>2026-04-26T15:17:12.065Z</time></trkpt><trkpt lat="37.9903559" lon="13.3457645"><ele>630.0</ele><time>2026-04-26T15:17:13.065Z</time></trkpt><trkpt lat="37.9903661" lon="13.3456232"><ele>630.0</ele><time>2026-04-26T15:17:14.066Z</time></trkpt><trkpt lat="37.9903817" lon="13.34549"><ele>630.0</ele><time>2026-04-26T15:17:15.065Z</time></trkpt><trkpt lat="37.990405" lon="13.3453527"><ele>630.0</ele><time>2026-04-26T15:17:16.065Z</time></trkpt><trkpt lat="37.9904282" lon="13.3452165"><ele>630.6</ele><time>2026-04-26T15:17:17.066Z</time></trkpt><trkpt lat="37.9904507" lon="13.34508"><ele>631.2</ele><time>2026-04-26T15:17:18.065Z</time></trkpt><trkpt lat="37.99047" lon="13.3449436"><ele>631.8</ele><time>2026-04-26T15:17:19.065Z</time></trkpt><trkpt lat="37.9904906" lon="13.344806"><ele>632.4</ele><time>2026-04-26T15:17:20.065Z</time></trkpt><trkpt lat="37.9905128" lon="13.3446643"><ele>633.0</ele><time>2026-04-26T15:17:21.065Z</time></trkpt><trkpt lat="37.9905367" lon="13.3445172"><ele>634.5</ele><time>2026-04-26T15:17:22.066Z</time></trkpt><trkpt lat="37.9905551" lon="13.3443705"><ele>636.0</ele><time>2026-04-26T15:17:23.065Z</time></trkpt><trkpt lat="37.9905689" lon="13.3442198"><ele>637.5</ele><time>2026-04-26T15:17:24.065Z</time></trkpt><trkpt lat="37.9905725" lon="13.344069"><ele>639.0</ele><time>2026-04-26T15:17:25.065Z</time></trkpt><trkpt lat="37.9905618" lon="13.343933"><ele>641.8</ele><time>2026-04-26T15:17:26.065Z</time></trkpt><trkpt lat="37.9905379" lon="13.3438185"><ele>644.5999999999999</ele><time>2026-04-26T15:17:27.065Z</time></trkpt><trkpt lat="37.9904953" lon="13.3437166"><ele>647.4</ele><time>2026-04-26T15:17:28.065Z</time></trkpt><trkpt lat="37.990425" lon="13.3436103"><ele>650.1999999999999</ele><time>2026-04-26T15:17:29.065Z</time></trkpt><trkpt lat="37.9903251" lon="13.3434885"><ele>653.0</ele><time>2026-04-26T15:17:30.065Z</time></trkpt><trkpt lat="37.9902025" lon="13.3433838"><ele>653.0</ele><time>2026-04-26T15:17:31.065Z</time></trkpt><trkpt lat="37.9900638" lon="13.3432879"><ele>653.0</ele><time>2026-04-26T15:17:32.065Z</time></trkpt><trkpt lat="37.9899025" lon="13.3431937"><ele>653.0</ele><time>2026-04-26T15:17:33.065Z</time></trkpt><trkpt lat="37.9897324" lon="13.3430857"><ele>653.3333333333333</ele><time>2026-04-26T15:17:34.065Z</time></trkpt><trkpt lat="37.9895597" lon="13.3429665"><ele>653.6666666666666</ele><time>2026-04-26T15:17:35.065Z</time></trkpt><trkpt lat="37.9893911" lon="13.3428502"><ele>654.0</ele><time>2026-04-26T15:17:36.065Z</time></trkpt><trkpt lat="37.9892329" lon="13.3427495"><ele>653.0</ele><time>2026-04-26T15:17:37.065Z</time></trkpt><trkpt lat="37.9890776" lon="13.3426388"><ele>652.0</ele><time>2026-04-26T15:17:38.065Z</time></trkpt><trkpt lat="37.9889221" lon="13.3425089"><ele>651.0</ele><time>2026-04-26T15:17:39.065Z</time></trkpt><trkpt lat="37.988778" lon="13.3423558"><ele>656.3333333333334</ele><time>2026-04-26T15:17:40.065Z</time></trkpt><trkpt lat="37.9886411" lon="13.3421892"><ele>661.6666666666667</ele><time>2026-04-26T15:17:41.065Z</time></trkpt><trkpt lat="37.9885094" lon="13.3420281"><ele>667.0</ele><time>2026-04-26T15:17:42.065Z</time></trkpt><trkpt lat="37.9883828" lon="13.3418619"><ele>668.0</ele><time>2026-04-26T15:17:43.065Z</time></trkpt><trkpt lat="37.9882641" lon="13.3416887"><ele>669.0</ele><time>2026-04-26T15:17:44.065Z</time></trkpt><trkpt lat="37.988163" lon="13.3415053"><ele>670.0</ele><time>2026-04-26T15:17:45.065Z</time></trkpt><trkpt lat="37.9880787" lon="13.3413209"><ele>670.0</ele><time>2026-04-26T15:17:46.065Z</time></trkpt><trkpt lat="37.9880049" lon="13.3411305"><ele>670.0</ele><time>2026-04-26T15:17:47.065Z</time></trkpt><trkpt lat="37.9879341" lon="13.3409406"><ele>670.0</ele><time>2026-04-26T15:17:48.066Z</time></trkpt><trkpt lat="37.9878635" lon="13.3407505"><ele>670.0</ele><time>2026-04-26T15:17:49.065Z</time></trkpt><trkpt lat="37.9877931" lon="13.3405736"><ele>670.0</ele><time>2026-04-26T15:17:50.065Z</time></trkpt><trkpt lat="37.9877154" lon="13.3404183"><ele>670.0</ele><time>2026-04-26T15:17:51.065Z</time></trkpt><trkpt lat="37.9876208" lon="13.3402912"><ele>670.0</ele><time>2026-04-26T15:17:52.065Z</time></trkpt><trkpt lat="37.987503" lon="13.3401986"><ele>674.6666666666667</ele><time>2026-04-26T15:17:53.065Z</time></trkpt><trkpt lat="37.9873543" lon="13.3401281"><ele>679.3333333333334</ele><time>2026-04-26T15:17:54.065Z</time></trkpt><trkpt lat="37.9871923" lon="13.3400568"><ele>684.0</ele><time>2026-04-26T15:17:55.065Z</time></trkpt><trkpt lat="37.9870224" lon="13.3399999"><ele>684.0</ele><time>2026-04-26T15:17:56.065Z</time></trkpt><trkpt lat="37.9868505" lon="13.3399486"><ele>684.0</ele><time>2026-04-26T15:17:57.065Z</time></trkpt><trkpt lat="37.986684" lon="13.3398915"><ele>684.0</ele><time>2026-04-26T15:17:58.065Z</time></trkpt><trkpt lat="37.9865212" lon="13.3398252"><ele>687.3333333333334</ele><time>2026-04-26T15:17:59.066Z</time></trkpt><trkpt lat="37.986358" lon="13.3397554"><ele>690.6666666666667</ele><time>2026-04-26T15:18:00.065Z</time></trkpt><trkpt lat="37.9861994" lon="13.3396638"><ele>694.0</ele><time>2026-04-26T15:18:01.065Z</time></trkpt><trkpt lat="37.9860384" lon="13.3395562"><ele>694.0</ele><time>2026-04-26T15:18:02.065Z</time></trkpt><trkpt lat="37.985881" lon="13.3394302"><ele>694.0</ele><time>2026-04-26T15:18:03.065Z</time></trkpt><trkpt lat="37.9857295" lon="13.3393002"><ele>694.0</ele><time>2026-04-26T15:18:04.065Z</time></trkpt><trkpt lat="37.9855818" lon="13.3391682"><ele>696.0</ele><time>2026-04-26T15:18:05.065Z</time></trkpt><trkpt lat="37.9854403" lon="13.3390388"><ele>698.0</ele><time>2026-04-26T15:18:06.065Z</time></trkpt><trkpt lat="37.9852986" lon="13.3389176"><ele>700.0</ele><time>2026-04-26T15:18:07.065Z</time></trkpt><trkpt lat="37.9851551" lon="13.3388135"><ele>700.0</ele><time>2026-04-26T15:18:08.065Z</time></trkpt><trkpt lat="37.9850196" lon="13.3387315"><ele>700.0</ele><time>2026-04-26T15:18:09.065Z</time></trkpt><trkpt lat="37.9848948" lon="13.3386595"><ele>700.0</ele><time>2026-04-26T15:18:10.065Z</time></trkpt><trkpt lat="37.9847761" lon="13.3385821"><ele>700.0</ele><time>2026-04-26T15:18:11.065Z</time></trkpt><trkpt lat="37.984661" lon="13.338489"><ele>698.75</ele><time>2026-04-26T15:18:12.065Z</time></trkpt><trkpt lat="37.9845592" lon="13.3383782"><ele>697.5</ele><time>2026-04-26T15:18:13.065Z</time></trkpt><trkpt lat="37.9844613" lon="13.3382519"><ele>696.25</ele><time>2026-04-26T15:18:14.065Z</time></trkpt><trkpt lat="37.9843761" lon="13.3381136"><ele>695.0</ele><time>2026-04-26T15:18:15.065Z</time></trkpt><trkpt lat="37.9843002" lon="13.3379506"><ele>695.0</ele><time>2026-04-26T15:18:16.065Z</time></trkpt><trkpt lat="37.9842346" lon="13.3377757"><ele>695.0</ele><time>2026-04-26T15:18:17.065Z</time></trkpt><trkpt lat="37.9841676" lon="13.3375977"><ele>695.0</ele><time>2026-04-26T15:18:18.065Z</time></trkpt><trkpt lat="37.984101" lon="13.3374236"><ele>689.5</ele><time>2026-04-26T15:18:19.065Z</time></trkpt><trkpt lat="37.9840312" lon="13.3372684"><ele>684.0</ele><time>2026-04-26T15:18:20.065Z</time></trkpt><trkpt lat="37.9839516" lon="13.3371292"><ele>678.5</ele><time>2026-04-26T15:18:21.065Z</time></trkpt><trkpt lat="37.9838609" lon="13.3370169"><ele>673.0</ele><time>2026-04-26T15:18:22.066Z</time></trkpt><trkpt lat="37.9837499" lon="13.3369354"><ele>673.0</ele><time>2026-04-26T15:18:23.065Z</time></trkpt><trkpt lat="37.9836065" lon="13.3368768"><ele>673.0</ele><time>2026-04-26T15:18:24.065Z</time></trkpt><trkpt lat="37.9834417" lon="13.3368385"><ele>673.0</ele><time>2026-04-26T15:18:25.065Z</time></trkpt><trkpt lat="37.9832629" lon="13.3368121"><ele>670.6666666666667</ele><time>2026-04-26T15:18:26.065Z</time></trkpt><trkpt lat="37.9830911" lon="13.3367851"><ele>668.3333333333334</ele><time>2026-04-26T15:18:27.065Z</time></trkpt><trkpt lat="37.9829268" lon="13.3367567"><ele>666.0</ele><time>2026-04-26T15:18:28.065Z</time></trkpt><trkpt lat="37.9827676" lon="13.3367311"><ele>666.0</ele><time>2026-04-26T15:18:29.065Z</time></trkpt><trkpt lat="37.9826264" lon="13.336702"><ele>666.0</ele><time>2026-04-26T15:18:30.065Z</time></trkpt><trkpt lat="37.9824939" lon="13.3366636"><ele>666.0</ele><time>2026-04-26T15:18:31.065Z</time></trkpt><trkpt lat="37.9823703" lon="13.33662"><ele>666.0</ele><time>2026-04-26T15:18:32.065Z</time></trkpt><trkpt lat="37.9822552" lon="13.3365653"><ele>666.0</ele><time>2026-04-26T15:18:33.065Z</time></trkpt><trkpt lat="37.9821434" lon="13.3364754"><ele>666.0</ele><time>2026-04-26T15:18:34.065Z</time></trkpt><trkpt lat="37.9820335" lon="13.3363487"><ele>666.0</ele><time>2026-04-26T15:18:35.065Z</time></trkpt><trkpt lat="37.9819391" lon="13.3361933"><ele>666.0</ele><time>2026-04-26T15:18:36.066Z</time></trkpt><trkpt lat="37.981866" lon="13.3360218"><ele>666.0</ele><time>2026-04-26T15:18:37.065Z</time></trkpt><trkpt lat="37.9818136" lon="13.335826"><ele>666.0</ele><time>2026-04-26T15:18:38.065Z</time></trkpt><trkpt lat="37.9817717" lon="13.3356212"><ele>666.0</ele><time>2026-04-26T15:18:39.065Z</time></trkpt><trkpt lat="37.9817264" lon="13.3353867"><ele>660.0</ele><time>2026-04-26T15:18:40.065Z</time></trkpt><trkpt lat="37.9816679" lon="13.3351307"><ele>654.0</ele><time>2026-04-26T15:18:41.065Z</time></trkpt><trkpt lat="37.9816051" lon="13.3348648"><ele>648.0</ele><time>2026-04-26T15:18:42.065Z</time></trkpt><trkpt lat="37.9815465" lon="13.3346066"><ele>647.0</ele><time>2026-04-26T15:18:43.065Z</time></trkpt><trkpt lat="37.9814858" lon="13.3343621"><ele>646.0</ele><time>2026-04-26T15:18:44.065Z</time></trkpt><trkpt lat="37.9814138" lon="13.3341366"><ele>645.0</ele><time>2026-04-26T15:18:45.065Z</time></trkpt><trkpt lat="37.9813326" lon="13.3339294"><ele>643.0</ele><time>2026-04-26T15:18:46.065Z</time></trkpt><trkpt lat="37.981247" lon="13.3337384"><ele>641.0</ele><time>2026-04-26T15:18:47.065Z</time></trkpt><trkpt lat="37.9811637" lon="13.3335587"><ele>639.0</ele><time>2026-04-26T15:18:48.065Z</time></trkpt><trkpt lat="37.9810921" lon="13.333394"><ele>639.0</ele><time>2026-04-26T15:18:49.065Z</time></trkpt><trkpt lat="37.9810385" lon="13.3332347"><ele>639.0</ele><time>2026-04-26T15:18:50.065Z</time></trkpt><trkpt lat="37.9810166" lon="13.3330708"><ele>639.0</ele><time>2026-04-26T15:18:51.065Z</time></trkpt><trkpt lat="37.9810152" lon="13.3328806"><ele>639.0</ele><time>2026-04-26T15:18:52.065Z</time></trkpt><trkpt lat="37.9810402" lon="13.3326733"><ele>640.3333333333334</ele><time>2026-04-26T15:18:53.065Z</time></trkpt><trkpt lat="37.98107" lon="13.332461"><ele>641.6666666666667</ele><time>2026-04-26T15:18:54.065Z</time></trkpt><trkpt lat="37.9810934" lon="13.3322372"><ele>643.0</ele><time>2026-04-26T15:18:55.065Z</time></trkpt><trkpt lat="37.9811172" lon="13.3320054"><ele>645.0</ele><time>2026-04-26T15:18:56.065Z</time></trkpt><trkpt lat="37.981139" lon="13.3317839"><ele>647.0</ele><time>2026-04-26T15:18:57.065Z</time></trkpt><trkpt lat="37.9811596" lon="13.331584"><ele>649.0</ele><time>2026-04-26T15:18:58.065Z</time></trkpt><trkpt lat="37.9811938" lon="13.3314026"><ele>650.0</ele><time>2026-04-26T15:18:59.065Z</time></trkpt><trkpt lat="37.9812567" lon="13.3312135"><ele>651.0</ele><time>2026-04-26T15:19:00.066Z</time></trkpt><trkpt lat="37.9813485" lon="13.331017"><ele>652.0</ele><time>2026-04-26T15:19:01.065Z</time></trkpt><trkpt lat="37.9814611" lon="13.3308208"><ele>652.0</ele><time>2026-04-26T15:19:02.065Z</time></trkpt><trkpt lat="37.9815827" lon="13.3306178"><ele>652.0</ele><time>2026-04-26T15:19:03.066Z</time></trkpt><trkpt lat="37.9817058" lon="13.3304113"><ele>652.0</ele><time>2026-04-26T15:19:04.065Z</time></trkpt><trkpt lat="37.9818279" lon="13.3302022"><ele>655.3333333333334</ele><time>2026-04-26T15:19:05.065Z</time></trkpt><trkpt lat="37.9819468" lon="13.3299969"><ele>658.6666666666666</ele><time>2026-04-26T15:19:06.065Z</time></trkpt><trkpt lat="37.9820582" lon="13.3298024"><ele>662.0</ele><time>2026-04-26T15:19:07.065Z</time></trkpt><trkpt lat="37.982166" lon="13.3296186"><ele>662.0</ele><time>2026-04-26T15:19:08.065Z</time></trkpt><trkpt lat="37.9822623" lon="13.3294504"><ele>662.0</ele><time>2026-04-26T15:19:09.065Z</time></trkpt><trkpt lat="37.982362" lon="13.3292906"><ele>662.0</ele><time>2026-04-26T15:19:10.065Z</time></trkpt><trkpt lat="37.9824712" lon="13.3291406"><ele>664.0</ele><time>2026-04-26T15:19:11.065Z</time></trkpt><trkpt lat="37.9825887" lon="13.3290151"><ele>666.0</ele><time>2026-04-26T15:19:12.065Z</time></trkpt><trkpt lat="37.9827034" lon="13.3289016"><ele>668.0</ele><time>2026-04-26T15:19:13.065Z</time></trkpt><trkpt lat="37.9828091" lon="13.3288038"><ele>670.0</ele><time>2026-04-26T15:19:14.065Z</time></trkpt><trkpt lat="37.9828969" lon="13.3287161"><ele>670.0</ele><time>2026-04-26T15:19:15.066Z</time></trkpt><trkpt lat="37.9829633" lon="13.3286587"><ele>670.0</ele><time>2026-04-26T15:19:16.065Z</time></trkpt><trkpt lat="37.9830323" lon="13.3285889"><ele>670.0</ele><time>2026-04-26T15:19:18.065Z</time></trkpt><trkpt lat="37.9830691" lon="13.3285185"><ele>670.0</ele><time>2026-04-26T15:19:21.065Z</time></trkpt><trkpt lat="37.9830776" lon="13.3284201"><ele>670.0</ele><time>2026-04-26T15:19:23.065Z</time></trkpt><trkpt lat="37.9831131" lon="13.328318"><ele>670.0</ele><time>2026-04-26T15:19:25.066Z</time></trkpt><trkpt lat="37.9832135" lon="13.3282649"><ele>670.0</ele><time>2026-04-26T15:19:27.065Z</time></trkpt><trkpt lat="37.9832793" lon="13.3282465"><ele>670.0</ele><time>2026-04-26T15:19:28.064Z</time></trkpt><trkpt lat="37.9833493" lon="13.32822"><ele>670.0</ele><time>2026-04-26T15:19:29.066Z</time></trkpt><trkpt lat="37.9834234" lon="13.3281902"><ele>670.0</ele><time>2026-04-26T15:19:30.065Z</time></trkpt><trkpt lat="37.9835012" lon="13.3281619"><ele>670.0</ele><time>2026-04-26T15:19:31.065Z</time></trkpt><trkpt lat="37.9835775" lon="13.3281315"><ele>670.0</ele><time>2026-04-26T15:19:32.066Z</time></trkpt><trkpt lat="37.9836552" lon="13.3281039"><ele>669.5</ele><time>2026-04-26T15:19:33.065Z</time></trkpt><trkpt lat="37.9837347" lon="13.3280771"><ele>669.0</ele><time>2026-04-26T15:19:34.065Z</time></trkpt><trkpt lat="37.9838157" lon="13.3280472"><ele>668.5</ele><time>2026-04-26T15:19:35.065Z</time></trkpt><trkpt lat="37.9838981" lon="13.328018"><ele>668.0</ele><time>2026-04-26T15:19:36.065Z</time></trkpt><trkpt lat="37.9839839" lon="13.3279861"><ele>667.5</ele><time>2026-04-26T15:19:37.065Z</time></trkpt><trkpt lat="37.9840669" lon="13.3279561"><ele>667.0</ele><time>2026-04-26T15:19:38.065Z</time></trkpt><trkpt lat="37.9841478" lon="13.3279211"><ele>669.0</ele><time>2026-04-26T15:19:39.065Z</time></trkpt><trkpt lat="37.9842193" lon="13.3278803"><ele>671.0</ele><time>2026-04-26T15:19:40.066Z</time></trkpt><trkpt lat="37.9842767" lon="13.3278228"><ele>673.0</ele><time>2026-04-26T15:19:41.065Z</time></trkpt><trkpt lat="37.9843264" lon="13.3277487"><ele>675.0</ele><time>2026-04-26T15:19:42.066Z</time></trkpt><trkpt lat="37.9843797" lon="13.3276737"><ele>677.0</ele><time>2026-04-26T15:19:43.066Z</time></trkpt><trkpt lat="37.9844348" lon="13.3275971"><ele>679.0</ele><time>2026-04-26T15:19:44.065Z</time></trkpt><trkpt lat="37.9844834" lon="13.3275226"><ele>679.0</ele><time>2026-04-26T15:19:45.066Z</time></trkpt><trkpt lat="37.9845341" lon="13.3274553"><ele>679.0</ele><time>2026-04-26T15:19:46.065Z</time></trkpt><trkpt lat="37.9845845" lon="13.3273761"><ele>679.0</ele><time>2026-04-26T15:19:47.065Z</time></trkpt><trkpt lat="37.9846441" lon="13.327286"><ele>679.0</ele><time>2026-04-26T15:19:48.065Z</time></trkpt><trkpt lat="37.984705" lon="13.3272027"><ele>679.0</ele><time>2026-04-26T15:19:49.065Z</time></trkpt><trkpt lat="37.9847654" lon="13.3271146"><ele>679.0</ele><time>2026-04-26T15:19:50.065Z</time></trkpt><trkpt lat="37.9848238" lon="13.3270249"><ele>678.5</ele><time>2026-04-26T15:19:51.065Z</time></trkpt><trkpt lat="37.9848809" lon="13.3269381"><ele>678.0</ele><time>2026-04-26T15:19:52.066Z</time></trkpt><trkpt lat="37.9849418" lon="13.3268486"><ele>677.5</ele><time>2026-04-26T15:19:53.065Z</time></trkpt><trkpt lat="37.9849999" lon="13.3267662"><ele>677.0</ele><time>2026-04-26T15:19:54.065Z</time></trkpt><trkpt lat="37.9850528" lon="13.3266863"><ele>676.5</ele><time>2026-04-26T15:19:55.065Z</time></trkpt><trkpt lat="37.9851065" lon="13.3266168"><ele>676.0</ele><time>2026-04-26T15:19:56.066Z</time></trkpt><trkpt lat="37.9851588" lon="13.3265556"><ele>676.0</ele><time>2026-04-26T15:19:57.065Z</time></trkpt><trkpt lat="37.9852054" lon="13.326497"><ele>676.0</ele><time>2026-04-26T15:19:58.066Z</time></trkpt><trkpt lat="37.9852778" lon="13.3264279"><ele>676.0</ele><time>2026-04-26T15:20:00.065Z</time></trkpt><trkpt lat="37.9853556" lon="13.32643"><ele>676.0</ele><time>2026-04-26T15:20:04.065Z</time></trkpt><trkpt lat="37.9854098" lon="13.3264736"><ele>676.0</ele><time>2026-04-26T15:20:05.065Z</time></trkpt><trkpt lat="37.9854805" lon="13.3265456"><ele>676.0</ele><time>2026-04-26T15:20:06.065Z</time></trkpt><trkpt lat="37.9855452" lon="13.3266072"><ele>676.0</ele><time>2026-04-26T15:20:07.065Z</time></trkpt><trkpt lat="37.9856066" lon="13.32667"><ele>676.0</ele><time>2026-04-26T15:20:08.065Z</time></trkpt><trkpt lat="37.9856606" lon="13.3267373"><ele>676.0</ele><time>2026-04-26T15:20:09.066Z</time></trkpt><trkpt lat="37.9857189" lon="13.3267964"><ele>676.0</ele><time>2026-04-26T15:20:10.065Z</time></trkpt><trkpt lat="37.9857623" lon="13.3268677"><ele>676.0</ele><time>2026-04-26T15:20:11.065Z</time></trkpt><trkpt lat="37.9858047" lon="13.3269395"><ele>676.0</ele><time>2026-04-26T15:20:12.065Z</time></trkpt><trkpt lat="37.9858692" lon="13.3270304"><ele>674.5999999999999</ele><time>2026-04-26T15:20:14.066Z</time></trkpt><trkpt lat="37.9859601" lon="13.3270437"><ele>673.2</ele><time>2026-04-26T15:20:18.065Z</time></trkpt><trkpt lat="37.9860081" lon="13.3269846"><ele>671.8</ele><time>2026-04-26T15:20:19.065Z</time></trkpt><trkpt lat="37.9860425" lon="13.3268926"><ele>670.4000000000001</ele><time>2026-04-26T15:20:20.065Z</time></trkpt><trkpt lat="37.9860914" lon="13.3267701"><ele>669.0</ele><time>2026-04-26T15:20:21.065Z</time></trkpt><trkpt lat="37.9861463" lon="13.3265962"><ele>669.0</ele><time>2026-04-26T15:20:22.065Z</time></trkpt><trkpt lat="37.9862034" lon="13.326413"><ele>669.0</ele><time>2026-04-26T15:20:23.066Z</time></trkpt><trkpt lat="37.9862675" lon="13.3262055"><ele>669.0</ele><time>2026-04-26T15:20:24.065Z</time></trkpt><trkpt lat="37.9863425" lon="13.3259771"><ele>670.3333333333334</ele><time>2026-04-26T15:20:25.065Z</time></trkpt><trkpt lat="37.9864184" lon="13.3257325"><ele>671.6666666666667</ele><time>2026-04-26T15:20:26.065Z</time></trkpt><trkpt lat="37.9864944" lon="13.3254846"><ele>673.0</ele><time>2026-04-26T15:20:27.065Z</time></trkpt><trkpt lat="37.9865731" lon="13.3252446"><ele>673.3333333333334</ele><time>2026-04-26T15:20:28.065Z</time></trkpt><trkpt lat="37.9866449" lon="13.325031"><ele>673.6666666666666</ele><time>2026-04-26T15:20:29.065Z</time></trkpt><trkpt lat="37.9867164" lon="13.3248297"><ele>674.0</ele><time>2026-04-26T15:20:30.065Z</time></trkpt><trkpt lat="37.9867904" lon="13.3246292"><ele>674.6666666666666</ele><time>2026-04-26T15:20:31.065Z</time></trkpt><trkpt lat="37.9868621" lon="13.3244279"><ele>675.3333333333334</ele><time>2026-04-26T15:20:32.065Z</time></trkpt><trkpt lat="37.9869277" lon="13.3242355"><ele>676.0</ele><time>2026-04-26T15:20:33.065Z</time></trkpt><trkpt lat="37.9869865" lon="13.324049"><ele>676.0</ele><time>2026-04-26T15:20:34.065Z</time></trkpt><trkpt lat="37.9870413" lon="13.3238753"><ele>676.0</ele><time>2026-04-26T15:20:35.066Z</time></trkpt><trkpt lat="37.9870956" lon="13.3237168"><ele>676.0</ele><time>2026-04-26T15:20:36.065Z</time></trkpt><trkpt lat="37.9871475" lon="13.323564"><ele>676.0</ele><time>2026-04-26T15:20:37.065Z</time></trkpt><trkpt lat="37.9872038" lon="13.3234233"><ele>676.0</ele><time>2026-04-26T15:20:38.066Z</time></trkpt><trkpt lat="37.9872702" lon="13.3232889"><ele>676.0</ele><time>2026-04-26T15:20:39.066Z</time></trkpt><trkpt lat="37.9874784" lon="13.3230034"><ele>676.0</ele><time>2026-04-26T15:20:41.066Z</time></trkpt><trkpt lat="37.9875896" lon="13.3228566"><ele>676.5</ele><time>2026-04-26T15:20:42.065Z</time></trkpt><trkpt lat="37.9876946" lon="13.3227208"><ele>677.0</ele><time>2026-04-26T15:20:43.065Z</time></trkpt><trkpt lat="37.9877879" lon="13.3225948"><ele>677.5</ele><time>2026-04-26T15:20:44.065Z</time></trkpt><trkpt lat="37.9878754" lon="13.3224777"><ele>678.0</ele><time>2026-04-26T15:20:45.065Z</time></trkpt><trkpt lat="37.9879464" lon="13.3223655"><ele>678.0</ele><time>2026-04-26T15:20:46.065Z</time></trkpt><trkpt lat="37.98799" lon="13.3222411"><ele>678.0</ele><time>2026-04-26T15:20:47.065Z</time></trkpt><trkpt lat="37.9879876" lon="13.3220976"><ele>678.0</ele><time>2026-04-26T15:20:48.066Z</time></trkpt><trkpt lat="37.9879435" lon="13.3219355"><ele>678.0</ele><time>2026-04-26T15:20:49.066Z</time></trkpt><trkpt lat="37.9878602" lon="13.3217822"><ele>678.3333333333334</ele><time>2026-04-26T15:20:50.065Z</time></trkpt><trkpt lat="37.9877444" lon="13.321645"><ele>678.6666666666667</ele><time>2026-04-26T15:20:51.066Z</time></trkpt><trkpt lat="37.9876268" lon="13.3215155"><ele>679.0</ele><time>2026-04-26T15:20:52.065Z</time></trkpt><trkpt lat="37.9875042" lon="13.3213867"><ele>677.3333333333334</ele><time>2026-04-26T15:20:53.066Z</time></trkpt><trkpt lat="37.9873845" lon="13.321242"><ele>675.6666666666666</ele><time>2026-04-26T15:20:54.065Z</time></trkpt><trkpt lat="37.987276" lon="13.3210806"><ele>674.0</ele><time>2026-04-26T15:20:55.065Z</time></trkpt><trkpt lat="37.9871798" lon="13.3209052"><ele>674.0</ele><time>2026-04-26T15:20:56.065Z</time></trkpt><trkpt lat="37.987106" lon="13.320703"><ele>674.0</ele><time>2026-04-26T15:20:57.065Z</time></trkpt><trkpt lat="37.987032" lon="13.3204902"><ele>674.0</ele><time>2026-04-26T15:20:58.065Z</time></trkpt><trkpt lat="37.9869521" lon="13.3202693"><ele>676.0</ele><time>2026-04-26T15:20:59.066Z</time></trkpt><trkpt lat="37.9868754" lon="13.320052"><ele>678.0</ele><time>2026-04-26T15:21:00.065Z</time></trkpt><trkpt lat="37.9867996" lon="13.3198419"><ele>680.0</ele><time>2026-04-26T15:21:01.065Z</time></trkpt><trkpt lat="37.986712" lon="13.3196346"><ele>675.6666666666666</ele><time>2026-04-26T15:21:02.065Z</time></trkpt><trkpt lat="37.9866103" lon="13.3194281"><ele>671.3333333333334</ele><time>2026-04-26T15:21:03.065Z</time></trkpt><trkpt lat="37.9864836" lon="13.3192284"><ele>667.0</ele><time>2026-04-26T15:21:04.065Z</time></trkpt><trkpt lat="37.9863407" lon="13.3190365"><ele>668.6666666666667</ele><time>2026-04-26T15:21:05.065Z</time></trkpt><trkpt lat="37.9861851" lon="13.3188478"><ele>670.3333333333334</ele><time>2026-04-26T15:21:06.065Z</time></trkpt><trkpt lat="37.986037" lon="13.3186654"><ele>672.0</ele><time>2026-04-26T15:21:07.065Z</time></trkpt><trkpt lat="37.9858926" lon="13.3184908"><ele>672.0</ele><time>2026-04-26T15:21:08.065Z</time></trkpt><trkpt lat="37.9857557" lon="13.3183226"><ele>672.0</ele><time>2026-04-26T15:21:09.065Z</time></trkpt><trkpt lat="37.9856198" lon="13.3181707"><ele>672.0</ele><time>2026-04-26T15:21:10.065Z</time></trkpt><trkpt lat="37.9854747" lon="13.3180273"><ele>672.0</ele><time>2026-04-26T15:21:11.065Z</time></trkpt><trkpt lat="37.9853149" lon="13.3178908"><ele>672.0</ele><time>2026-04-26T15:21:12.065Z</time></trkpt><trkpt lat="37.9851346" lon="13.3177606"><ele>672.0</ele><time>2026-04-26T15:21:13.065Z</time></trkpt><trkpt lat="37.9849377" lon="13.3176252"><ele>668.3333333333334</ele><time>2026-04-26T15:21:14.065Z</time></trkpt><trkpt lat="37.9847384" lon="13.317491"><ele>664.6666666666667</ele><time>2026-04-26T15:21:15.065Z</time></trkpt><trkpt lat="37.9845415" lon="13.3173605"><ele>661.0</ele><time>2026-04-26T15:21:16.066Z</time></trkpt><trkpt lat="37.9843601" lon="13.3172299"><ele>661.0</ele><time>2026-04-26T15:21:17.065Z</time></trkpt><trkpt lat="37.9841836" lon="13.317115"><ele>661.0</ele><time>2026-04-26T15:21:18.065Z</time></trkpt><trkpt lat="37.98402" lon="13.3169976"><ele>661.0</ele><time>2026-04-26T15:21:19.066Z</time></trkpt><trkpt lat="37.983865" lon="13.3168871"><ele>658.0</ele><time>2026-04-26T15:21:20.066Z</time></trkpt><trkpt lat="37.9837182" lon="13.3167833"><ele>655.0</ele><time>2026-04-26T15:21:21.065Z</time></trkpt><trkpt lat="37.9835809" lon="13.316689"><ele>652.0</ele><time>2026-04-26T15:21:22.065Z</time></trkpt><trkpt lat="37.9834524" lon="13.3165959"><ele>650.5</ele><time>2026-04-26T15:21:23.065Z</time></trkpt><trkpt lat="37.9833296" lon="13.3164874"><ele>649.0</ele><time>2026-04-26T15:21:24.066Z</time></trkpt><trkpt lat="37.9832266" lon="13.3163524"><ele>647.5</ele><time>2026-04-26T15:21:25.065Z</time></trkpt><trkpt lat="37.9831489" lon="13.3162064"><ele>646.0</ele><time>2026-04-26T15:21:26.066Z</time></trkpt><trkpt lat="37.983088" lon="13.3160473"><ele>646.0</ele><time>2026-04-26T15:21:27.066Z</time></trkpt><trkpt lat="37.9830305" lon="13.3158986"><ele>646.0</ele><time>2026-04-26T15:21:28.065Z</time></trkpt><trkpt lat="37.9829856" lon="13.3157533"><ele>646.0</ele><time>2026-04-26T15:21:29.065Z</time></trkpt><trkpt lat="37.9829269" lon="13.3156043"><ele>646.0</ele><time>2026-04-26T15:21:30.065Z</time></trkpt><trkpt lat="37.9828686" lon="13.3154439"><ele>645.4</ele><time>2026-04-26T15:21:31.065Z</time></trkpt><trkpt lat="37.9828202" lon="13.3152926"><ele>644.8</ele><time>2026-04-26T15:21:32.066Z</time></trkpt><trkpt lat="37.9827886" lon="13.3151672"><ele>644.1999999999999</ele><time>2026-04-26T15:21:33.065Z</time></trkpt><trkpt lat="37.9827701" lon="13.3150676"><ele>643.5999999999999</ele><time>2026-04-26T15:21:34.065Z</time></trkpt><trkpt lat="37.9827627" lon="13.3149788"><ele>643.0</ele><time>2026-04-26T15:21:35.065Z</time></trkpt><trkpt lat="37.9827668" lon="13.314885"><ele>643.0</ele><time>2026-04-26T15:21:36.065Z</time></trkpt><trkpt lat="37.98278" lon="13.3147813"><ele>643.0</ele><time>2026-04-26T15:21:37.065Z</time></trkpt><trkpt lat="37.9827973" lon="13.3146742"><ele>643.0</ele><time>2026-04-26T15:21:38.065Z</time></trkpt><trkpt lat="37.9828163" lon="13.3145596"><ele>643.0</ele><time>2026-04-26T15:21:39.066Z</time></trkpt><trkpt lat="37.9828372" lon="13.3144281"><ele>643.0</ele><time>2026-04-26T15:21:40.065Z</time></trkpt><trkpt lat="37.9828626" lon="13.3142922"><ele>642.75</ele><time>2026-04-26T15:21:41.065Z</time></trkpt><trkpt lat="37.9828985" lon="13.3141528"><ele>642.5</ele><time>2026-04-26T15:21:42.065Z</time></trkpt><trkpt lat="37.9829371" lon="13.3140146"><ele>642.25</ele><time>2026-04-26T15:21:43.065Z</time></trkpt><trkpt lat="37.9829826" lon="13.3138642"><ele>642.0</ele><time>2026-04-26T15:21:44.065Z</time></trkpt><trkpt lat="37.9830276" lon="13.3137057"><ele>640.75</ele><time>2026-04-26T15:21:45.065Z</time></trkpt><trkpt lat="37.9830838" lon="13.3135499"><ele>639.5</ele><time>2026-04-26T15:21:46.065Z</time></trkpt><trkpt lat="37.9831488" lon="13.3133911"><ele>638.25</ele><time>2026-04-26T15:21:47.065Z</time></trkpt><trkpt lat="37.9832257" lon="13.3132258"><ele>637.0</ele><time>2026-04-26T15:21:48.065Z</time></trkpt><trkpt lat="37.9833131" lon="13.3130557"><ele>636.6666666666667</ele><time>2026-04-26T15:21:49.065Z</time></trkpt><trkpt lat="37.9834135" lon="13.3128878"><ele>636.3333333333334</ele><time>2026-04-26T15:21:50.065Z</time></trkpt><trkpt lat="37.9835289" lon="13.3127217"><ele>636.0</ele><time>2026-04-26T15:21:51.065Z</time></trkpt><trkpt lat="37.9836491" lon="13.3125519"><ele>636.0</ele><time>2026-04-26T15:21:52.065Z</time></trkpt><trkpt lat="37.983766" lon="13.3123855"><ele>636.0</ele><time>2026-04-26T15:21:53.065Z</time></trkpt><trkpt lat="37.983872" lon="13.3122291"><ele>636.0</ele><time>2026-04-26T15:21:54.065Z</time></trkpt><trkpt lat="37.9839792" lon="13.3120764"><ele>635.0</ele><time>2026-04-26T15:21:55.065Z</time></trkpt><trkpt lat="37.9840778" lon="13.3119232"><ele>634.0</ele><time>2026-04-26T15:21:56.066Z</time></trkpt><trkpt lat="37.984165" lon="13.3117343"><ele>633.0</ele><time>2026-04-26T15:21:57.065Z</time></trkpt><trkpt lat="37.9842426" lon="13.311527"><ele>636.6666666666666</ele><time>2026-04-26T15:21:58.065Z</time></trkpt><trkpt lat="37.984317" lon="13.3113046"><ele>640.3333333333333</ele><time>2026-04-26T15:21:59.065Z</time></trkpt><trkpt lat="37.984379" lon="13.3110626"><ele>644.0</ele><time>2026-04-26T15:22:00.065Z</time></trkpt><trkpt lat="37.9844329" lon="13.3108184"><ele>644.0</ele><time>2026-04-26T15:22:01.066Z</time></trkpt><trkpt lat="37.9844874" lon="13.3105798"><ele>644.0</ele><time>2026-04-26T15:22:02.065Z</time></trkpt><trkpt lat="37.9845407" lon="13.3103392"><ele>644.0</ele><time>2026-04-26T15:22:03.065Z</time></trkpt><trkpt lat="37.9845955" lon="13.310111"><ele>641.6666666666666</ele><time>2026-04-26T15:22:04.065Z</time></trkpt><trkpt lat="37.9846467" lon="13.3098894"><ele>639.3333333333334</ele><time>2026-04-26T15:22:05.066Z</time></trkpt><trkpt lat="37.9847009" lon="13.3096712"><ele>637.0</ele><time>2026-04-26T15:22:06.065Z</time></trkpt><trkpt lat="37.9847618" lon="13.3094566"><ele>635.3333333333334</ele><time>2026-04-26T15:22:07.065Z</time></trkpt><trkpt lat="37.9848394" lon="13.3092427"><ele>633.6666666666666</ele><time>2026-04-26T15:22:08.065Z</time></trkpt><trkpt lat="37.9849404" lon="13.3090408"><ele>632.0</ele><time>2026-04-26T15:22:09.065Z</time></trkpt><trkpt lat="37.9850518" lon="13.3088504"><ele>632.0</ele><time>2026-04-26T15:22:10.065Z</time></trkpt><trkpt lat="37.9851644" lon="13.3086626"><ele>632.0</ele><time>2026-04-26T15:22:11.065Z</time></trkpt><trkpt lat="37.9852637" lon="13.3084593"><ele>632.0</ele><time>2026-04-26T15:22:12.066Z</time></trkpt><trkpt lat="37.9853476" lon="13.3082408"><ele>632.0</ele><time>2026-04-26T15:22:13.065Z</time></trkpt><trkpt lat="37.9854357" lon="13.3080209"><ele>632.0</ele><time>2026-04-26T15:22:14.065Z</time></trkpt><trkpt lat="37.9855198" lon="13.307786"><ele>632.0</ele><time>2026-04-26T15:22:15.065Z</time></trkpt><trkpt lat="37.9856072" lon="13.3075477"><ele>632.0</ele><time>2026-04-26T15:22:16.065Z</time></trkpt><trkpt lat="37.9856995" lon="13.3073006"><ele>632.0</ele><time>2026-04-26T15:22:17.065Z</time></trkpt><trkpt lat="37.9857936" lon="13.3070495"><ele>632.0</ele><time>2026-04-26T15:22:18.065Z</time></trkpt><trkpt lat="37.9858866" lon="13.306789"><ele>632.0</ele><time>2026-04-26T15:22:19.065Z</time></trkpt><trkpt lat="37.9859808" lon="13.3065263"><ele>632.0</ele><time>2026-04-26T15:22:20.065Z</time></trkpt><trkpt lat="37.986073" lon="13.3062612"><ele>630.3333333333333</ele><time>2026-04-26T15:22:21.065Z</time></trkpt><trkpt lat="37.986166" lon="13.3060012"><ele>628.6666666666666</ele><time>2026-04-26T15:22:22.066Z</time></trkpt><trkpt lat="37.9862634" lon="13.305754"><ele>627.0</ele><time>2026-04-26T15:22:23.066Z</time></trkpt><trkpt lat="37.986369" lon="13.305502"><ele>624.5</ele><time>2026-04-26T15:22:24.065Z</time></trkpt><trkpt lat="37.9864849" lon="13.3052521"><ele>622.0</ele><time>2026-04-26T15:22:25.065Z</time></trkpt><trkpt lat="37.9866136" lon="13.305002"><ele>621.0</ele><time>2026-04-26T15:22:26.065Z</time></trkpt><trkpt lat="37.986753" lon="13.3047507"><ele>620.0</ele><time>2026-04-26T15:22:27.065Z</time></trkpt><trkpt lat="37.9868975" lon="13.3045022"><ele>620.0</ele><time>2026-04-26T15:22:28.065Z</time></trkpt><trkpt lat="37.9870377" lon="13.3042547"><ele>620.0</ele><time>2026-04-26T15:22:29.065Z</time></trkpt><trkpt lat="37.9871792" lon="13.3040104"><ele>618.5</ele><time>2026-04-26T15:22:30.065Z</time></trkpt><trkpt lat="37.9873115" lon="13.3037765"><ele>617.0</ele><time>2026-04-26T15:22:31.065Z</time></trkpt><trkpt lat="37.9874413" lon="13.303545"><ele>617.3333333333333</ele><time>2026-04-26T15:22:32.065Z</time></trkpt><trkpt lat="37.9875684" lon="13.303318"><ele>617.6666666666666</ele><time>2026-04-26T15:22:33.065Z</time></trkpt><trkpt lat="37.9876927" lon="13.3031033"><ele>618.0</ele><time>2026-04-26T15:22:34.065Z</time></trkpt><trkpt lat="37.9878211" lon="13.3028848"><ele>618.0</ele><time>2026-04-26T15:22:35.065Z</time></trkpt><trkpt lat="37.9879488" lon="13.3026617"><ele>618.0</ele><time>2026-04-26T15:22:36.065Z</time></trkpt><trkpt lat="37.9880731" lon="13.3024363"><ele>618.0</ele><time>2026-04-26T15:22:37.065Z</time></trkpt><trkpt lat="37.9881938" lon="13.3022142"><ele>617.0</ele><time>2026-04-26T15:22:38.065Z</time></trkpt><trkpt lat="37.9883025" lon="13.3019812"><ele>616.0</ele><time>2026-04-26T15:22:39.065Z</time></trkpt><trkpt lat="37.9883954" lon="13.3017301"><ele>615.0</ele><time>2026-04-26T15:22:40.065Z</time></trkpt><trkpt lat="37.9884775" lon="13.3014762"><ele>615.6666666666666</ele><time>2026-04-26T15:22:41.065Z</time></trkpt><trkpt lat="37.9885562" lon="13.3012369"><ele>616.3333333333333</ele><time>2026-04-26T15:22:42.065Z</time></trkpt><trkpt lat="37.988629" lon="13.3010195"><ele>617.0</ele><time>2026-04-26T15:22:43.065Z</time></trkpt><trkpt lat="37.9886891" lon="13.3008404"><ele>617.0</ele><time>2026-04-26T15:22:44.065Z</time></trkpt><trkpt lat="37.9887356" lon="13.3006904"><ele>617.0</ele><time>2026-04-26T15:22:45.065Z</time></trkpt><trkpt lat="37.9887685" lon="13.3005447"><ele>617.0</ele><time>2026-04-26T15:22:46.065Z</time></trkpt><trkpt lat="37.9887768" lon="13.3004085"><ele>617.0</ele><time>2026-04-26T15:22:47.066Z</time></trkpt><trkpt lat="37.9887522" lon="13.300297"><ele>617.0</ele><time>2026-04-26T15:22:48.065Z</time></trkpt><trkpt lat="37.9886836" lon="13.3002128"><ele>617.0</ele><time>2026-04-26T15:22:50.065Z</time></trkpt><trkpt lat="37.9886252" lon="13.3001622"><ele>617.0</ele><time>2026-04-26T15:22:51.065Z</time></trkpt><trkpt lat="37.9885569" lon="13.3000966"><ele>617.0</ele><time>2026-04-26T15:22:52.065Z</time></trkpt><trkpt lat="37.9884816" lon="13.3000238"><ele>617.0</ele><time>2026-04-26T15:22:53.066Z</time></trkpt><trkpt lat="37.9883982" lon="13.2999443"><ele>617.0</ele><time>2026-04-26T15:22:54.065Z</time></trkpt><trkpt lat="37.988315" lon="13.2998588"><ele>617.0</ele><time>2026-04-26T15:22:55.065Z</time></trkpt><trkpt lat="37.9882382" lon="13.2997673"><ele>617.0</ele><time>2026-04-26T15:22:56.065Z</time></trkpt><trkpt lat="37.9881676" lon="13.2996668"><ele>617.0</ele><time>2026-04-26T15:22:57.065Z</time></trkpt><trkpt lat="37.9881023" lon="13.2995643"><ele>617.0</ele><time>2026-04-26T15:22:58.065Z</time></trkpt><trkpt lat="37.9880494" lon="13.2994535"><ele>617.0</ele><time>2026-04-26T15:22:59.066Z</time></trkpt><trkpt lat="37.9880121" lon="13.2993317"><ele>617.4</ele><time>2026-04-26T15:23:00.065Z</time></trkpt><trkpt lat="37.9880048" lon="13.2992071"><ele>617.8000000000001</ele><time>2026-04-26T15:23:01.065Z</time></trkpt><trkpt lat="37.9880184" lon="13.2990755"><ele>618.2</ele><time>2026-04-26T15:23:02.066Z</time></trkpt><trkpt lat="37.9880525" lon="13.2989377"><ele>618.6</ele><time>2026-04-26T15:23:03.065Z</time></trkpt><trkpt lat="37.9880893" lon="13.2987874"><ele>619.0</ele><time>2026-04-26T15:23:04.065Z</time></trkpt><trkpt lat="37.9881274" lon="13.2986414"><ele>619.0</ele><time>2026-04-26T15:23:05.065Z</time></trkpt><trkpt lat="37.9881679" lon="13.2985044"><ele>619.0</ele><time>2026-04-26T15:23:06.065Z</time></trkpt><trkpt lat="37.9882034" lon="13.2983841"><ele>619.0</ele><time>2026-04-26T15:23:07.065Z</time></trkpt><trkpt lat="37.9882325" lon="13.2982803"><ele>619.0</ele><time>2026-04-26T15:23:08.065Z</time></trkpt><trkpt lat="37.9882606" lon="13.2981899"><ele>619.0</ele><time>2026-04-26T15:23:09.065Z</time></trkpt><trkpt lat="37.9882869" lon="13.2981104"><ele>619.0</ele><time>2026-04-26T15:23:10.065Z</time></trkpt><trkpt lat="37.9883372" lon="13.297967"><ele>619.6666666666667</ele><time>2026-04-26T15:23:12.065Z</time></trkpt><trkpt lat="37.9883915" lon="13.2978232"><ele>620.3333333333334</ele><time>2026-04-26T15:23:14.065Z</time></trkpt><trkpt lat="37.9884187" lon="13.2977414"><ele>621.0</ele><time>2026-04-26T15:23:15.065Z</time></trkpt><trkpt lat="37.988457" lon="13.2976556"><ele>621.6666666666666</ele><time>2026-04-26T15:23:16.066Z</time></trkpt><trkpt lat="37.9885032" lon="13.2975669"><ele>622.3333333333333</ele><time>2026-04-26T15:23:17.065Z</time></trkpt><trkpt lat="37.9885491" lon="13.297478"><ele>623.0</ele><time>2026-04-26T15:23:18.065Z</time></trkpt><trkpt lat="37.9885988" lon="13.2973881"><ele>623.0</ele><time>2026-04-26T15:23:19.065Z</time></trkpt><trkpt lat="37.9886433" lon="13.2973096"><ele>623.0</ele><time>2026-04-26T15:23:20.066Z</time></trkpt><trkpt lat="37.9887047" lon="13.2971866"><ele>623.0</ele><time>2026-04-26T15:23:22.065Z</time></trkpt><trkpt lat="37.9887524" lon="13.2970906"><ele>623.0</ele><time>2026-04-26T15:23:24.065Z</time></trkpt><trkpt lat="37.9887951" lon="13.29702"><ele>623.0</ele><time>2026-04-26T15:23:26.065Z</time></trkpt><trkpt lat="37.988843" lon="13.2969363"><ele>623.0</ele><time>2026-04-26T15:23:28.065Z</time></trkpt><trkpt lat="37.9888909" lon="13.2968486"><ele>623.4</ele><time>2026-04-26T15:23:31.065Z</time></trkpt><trkpt lat="37.9889491" lon="13.2967507"><ele>623.8</ele><time>2026-04-26T15:23:34.065Z</time></trkpt><trkpt lat="37.9889903" lon="13.2966514"><ele>624.2</ele><time>2026-04-26T15:23:36.065Z</time></trkpt><trkpt lat="37.9890554" lon="13.2965336"><ele>624.6</ele><time>2026-04-26T15:23:38.065Z</time></trkpt><trkpt lat="37.9891012" lon="13.2964592"><ele>625.0</ele><time>2026-04-26T15:23:39.065Z</time></trkpt><trkpt lat="37.9891566" lon="13.2963741"><ele>625.2</ele><time>2026-04-26T15:23:40.065Z</time></trkpt><trkpt lat="37.9892221" lon="13.2962642"><ele>625.4</ele><time>2026-04-26T15:23:41.066Z</time></trkpt><trkpt lat="37.9892823" lon="13.2961437"><ele>625.6</ele><time>2026-04-26T15:23:42.065Z</time></trkpt><trkpt lat="37.9893464" lon="13.2960258"><ele>625.8</ele><time>2026-04-26T15:23:43.066Z</time></trkpt><trkpt lat="37.9894121" lon="13.2959082"><ele>626.0</ele><time>2026-04-26T15:23:44.065Z</time></trkpt><trkpt lat="37.9894749" lon="13.2957842"><ele>626.0</ele><time>2026-04-26T15:23:45.065Z</time></trkpt><trkpt lat="37.9895383" lon="13.2956702"><ele>626.0</ele><time>2026-04-26T15:23:46.065Z</time></trkpt><trkpt lat="37.9895955" lon="13.2955682"><ele>626.0</ele><time>2026-04-26T15:23:47.066Z</time></trkpt><trkpt lat="37.9896473" lon="13.2954662"><ele>626.0</ele><time>2026-04-26T15:23:48.065Z</time></trkpt><trkpt lat="37.9896954" lon="13.2953643"><ele>626.0</ele><time>2026-04-26T15:23:49.065Z</time></trkpt><trkpt lat="37.9897494" lon="13.2952707"><ele>627.0</ele><time>2026-04-26T15:23:50.065Z</time></trkpt><trkpt lat="37.9898039" lon="13.2951732"><ele>628.0</ele><time>2026-04-26T15:23:51.065Z</time></trkpt><trkpt lat="37.9898609" lon="13.2950726"><ele>629.0</ele><time>2026-04-26T15:23:52.065Z</time></trkpt><trkpt lat="37.9899196" lon="13.2949729"><ele>630.0</ele><time>2026-04-26T15:23:53.065Z</time></trkpt><trkpt lat="37.9899763" lon="13.294874"><ele>631.0</ele><time>2026-04-26T15:23:54.066Z</time></trkpt><trkpt lat="37.9900318" lon="13.2947678"><ele>631.0</ele><time>2026-04-26T15:23:55.065Z</time></trkpt><trkpt lat="37.9900864" lon="13.2946585"><ele>631.0</ele><time>2026-04-26T15:23:56.065Z</time></trkpt><trkpt lat="37.9901431" lon="13.2945486"><ele>631.0</ele><time>2026-04-26T15:23:57.065Z</time></trkpt><trkpt lat="37.9902045" lon="13.2944364"><ele>631.0</ele><time>2026-04-26T15:23:58.066Z</time></trkpt><trkpt lat="37.99027" lon="13.294322"><ele>631.0</ele><time>2026-04-26T15:23:59.065Z</time></trkpt><trkpt lat="37.9903349" lon="13.2942017"><ele>631.0</ele><time>2026-04-26T15:24:00.065Z</time></trkpt><trkpt lat="37.9904071" lon="13.2940722"><ele>631.0</ele><time>2026-04-26T15:24:01.065Z</time></trkpt><trkpt lat="37.9904774" lon="13.2939343"><ele>631.0</ele><time>2026-04-26T15:24:02.066Z</time></trkpt><trkpt lat="37.9905543" lon="13.2937971"><ele>631.0</ele><time>2026-04-26T15:24:03.065Z</time></trkpt><trkpt lat="37.9906339" lon="13.2936605"><ele>631.5</ele><time>2026-04-26T15:24:04.066Z</time></trkpt><trkpt lat="37.9907105" lon="13.2935264"><ele>632.0</ele><time>2026-04-26T15:24:05.065Z</time></trkpt><trkpt lat="37.9907784" lon="13.2933984"><ele>632.5</ele><time>2026-04-26T15:24:06.065Z</time></trkpt><trkpt lat="37.9908476" lon="13.2932791"><ele>633.0</ele><time>2026-04-26T15:24:07.065Z</time></trkpt><trkpt lat="37.990914" lon="13.2931558"><ele>633.8</ele><time>2026-04-26T15:24:08.065Z</time></trkpt><trkpt lat="37.9909799" lon="13.2930412"><ele>634.5999999999999</ele><time>2026-04-26T15:24:09.065Z</time></trkpt><trkpt lat="37.9910431" lon="13.2929209"><ele>635.4000000000001</ele><time>2026-04-26T15:24:10.065Z</time></trkpt><trkpt lat="37.9911057" lon="13.2928029"><ele>636.2</ele><time>2026-04-26T15:24:11.065Z</time></trkpt><trkpt lat="37.9911647" lon="13.292689"><ele>637.0</ele><time>2026-04-26T15:24:12.065Z</time></trkpt><trkpt lat="37.9912197" lon="13.292592"><ele>637.0</ele><time>2026-04-26T15:24:13.065Z</time></trkpt><trkpt lat="37.9912607" lon="13.2925252"><ele>637.0</ele><time>2026-04-26T15:24:14.065Z</time></trkpt><trkpt lat="37.9912906" lon="13.2924491"><ele>637.0</ele><time>2026-04-26T15:24:16.065Z</time></trkpt><trkpt lat="37.9912459" lon="13.2923727"><ele>637.0</ele><time>2026-04-26T15:24:22.065Z</time></trkpt><trkpt lat="37.9911501" lon="13.2924251"><ele>637.0</ele><time>2026-04-26T15:24:24.065Z</time></trkpt><trkpt lat="37.9910355" lon="13.2924963"><ele>637.0</ele><time>2026-04-26T15:24:26.065Z</time></trkpt><trkpt lat="37.9909483" lon="13.292523"><ele>637.0</ele><time>2026-04-26T15:24:27.065Z</time></trkpt><trkpt lat="37.9908446" lon="13.292546"><ele>637.0</ele><time>2026-04-26T15:24:28.066Z</time></trkpt><trkpt lat="37.9907329" lon="13.2925624"><ele>637.0</ele><time>2026-04-26T15:24:29.065Z</time></trkpt><trkpt lat="37.9906147" lon="13.2925643"><ele>637.0</ele><time>2026-04-26T15:24:30.065Z</time></trkpt><trkpt lat="37.9904992" lon="13.2925621"><ele>636.5</ele><time>2026-04-26T15:24:31.066Z</time></trkpt><trkpt lat="37.9903782" lon="13.2925467"><ele>636.0</ele><time>2026-04-26T15:24:32.065Z</time></trkpt><trkpt lat="37.9902514" lon="13.2925109"><ele>635.5</ele><time>2026-04-26T15:24:33.065Z</time></trkpt><trkpt lat="37.9901219" lon="13.292444"><ele>635.0</ele><time>2026-04-26T15:24:34.065Z</time></trkpt><trkpt lat="37.9899943" lon="13.2923556"><ele>631.6666666666666</ele><time>2026-04-26T15:24:35.065Z</time></trkpt><trkpt lat="37.9898465" lon="13.292254"><ele>628.3333333333334</ele><time>2026-04-26T15:24:36.065Z</time></trkpt><trkpt lat="37.9896849" lon="13.2921433"><ele>625.0</ele><time>2026-04-26T15:24:37.065Z</time></trkpt><trkpt lat="37.9895081" lon="13.2920301"><ele>625.0</ele><time>2026-04-26T15:24:38.066Z</time></trkpt><trkpt lat="37.9893246" lon="13.2919011"><ele>625.0</ele><time>2026-04-26T15:24:39.065Z</time></trkpt><trkpt lat="37.989137" lon="13.2917742"><ele>625.0</ele><time>2026-04-26T15:24:40.065Z</time></trkpt><trkpt lat="37.9889481" lon="13.291647"><ele>622.5</ele><time>2026-04-26T15:24:41.065Z</time></trkpt><trkpt lat="37.988749" lon="13.2915078"><ele>620.0</ele><time>2026-04-26T15:24:42.065Z</time></trkpt><trkpt lat="37.9885458" lon="13.2913621"><ele>622.0</ele><time>2026-04-26T15:24:43.065Z</time></trkpt><trkpt lat="37.9883392" lon="13.2912114"><ele>624.0</ele><time>2026-04-26T15:24:44.065Z</time></trkpt><trkpt lat="37.9881332" lon="13.2910646"><ele>624.0</ele><time>2026-04-26T15:24:45.065Z</time></trkpt><trkpt lat="37.9879414" lon="13.2909302"><ele>624.0</ele><time>2026-04-26T15:24:46.065Z</time></trkpt><trkpt lat="37.9877637" lon="13.2908094"><ele>624.0</ele><time>2026-04-26T15:24:47.066Z</time></trkpt><trkpt lat="37.9875978" lon="13.2906908"><ele>625.6666666666666</ele><time>2026-04-26T15:24:48.065Z</time></trkpt><trkpt lat="37.9874401" lon="13.290579"><ele>627.3333333333333</ele><time>2026-04-26T15:24:49.066Z</time></trkpt><trkpt lat="37.9872919" lon="13.2904758"><ele>629.0</ele><time>2026-04-26T15:24:50.065Z</time></trkpt><trkpt lat="37.987159" lon="13.2903815"><ele>629.0</ele><time>2026-04-26T15:24:51.065Z</time></trkpt><trkpt lat="37.9870391" lon="13.2902959"><ele>629.0</ele><time>2026-04-26T15:24:52.066Z</time></trkpt><trkpt lat="37.9869469" lon="13.2902252"><ele>629.0</ele><time>2026-04-26T15:24:53.065Z</time></trkpt><trkpt lat="37.9868785" lon="13.290173"><ele>629.0</ele><time>2026-04-26T15:24:54.065Z</time></trkpt><trkpt lat="37.9868176" lon="13.2901276"><ele>629.0</ele><time>2026-04-26T15:24:56.065Z</time></trkpt><trkpt lat="37.9867255" lon="13.2901499"><ele>629.2</ele><time>2026-04-26T15:25:00.066Z</time></trkpt><trkpt lat="37.9866484" lon="13.2902888"><ele>629.4</ele><time>2026-04-26T15:25:02.065Z</time></trkpt><trkpt lat="37.9866025" lon="13.2903706"><ele>629.6</ele><time>2026-04-26T15:25:03.065Z</time></trkpt><trkpt lat="37.9865587" lon="13.2904566"><ele>629.8</ele><time>2026-04-26T15:25:04.065Z</time></trkpt><trkpt lat="37.9865048" lon="13.2905548"><ele>630.0</ele><time>2026-04-26T15:25:05.065Z</time></trkpt><trkpt lat="37.9864462" lon="13.2906585"><ele>630.0</ele><time>2026-04-26T15:25:06.065Z</time></trkpt><trkpt lat="37.9863854" lon="13.2907693"><ele>630.0</ele><time>2026-04-26T15:25:07.065Z</time></trkpt><trkpt lat="37.9863186" lon="13.2908866"><ele>630.0</ele><time>2026-04-26T15:25:08.065Z</time></trkpt><trkpt lat="37.9862539" lon="13.2910089"><ele>630.0</ele><time>2026-04-26T15:25:09.065Z</time></trkpt><trkpt lat="37.9861831" lon="13.2911383"><ele>630.0</ele><time>2026-04-26T15:25:10.065Z</time></trkpt><trkpt lat="37.9861149" lon="13.2912748"><ele>630.0</ele><time>2026-04-26T15:25:11.065Z</time></trkpt><trkpt lat="37.9860401" lon="13.2914182"><ele>630.0</ele><time>2026-04-26T15:25:12.065Z</time></trkpt><trkpt lat="37.9859626" lon="13.2915712"><ele>630.0</ele><time>2026-04-26T15:25:13.065Z</time></trkpt><trkpt lat="37.9858833" lon="13.291721"><ele>630.3333333333334</ele><time>2026-04-26T15:25:14.065Z</time></trkpt><trkpt lat="37.9857998" lon="13.2918785"><ele>630.6666666666667</ele><time>2026-04-26T15:25:15.065Z</time></trkpt><trkpt lat="37.9857157" lon="13.2920401"><ele>631.0</ele><time>2026-04-26T15:25:16.065Z</time></trkpt><trkpt lat="37.9856299" lon="13.2921989"><ele>630.3333333333334</ele><time>2026-04-26T15:25:17.065Z</time></trkpt><trkpt lat="37.9855436" lon="13.2923674"><ele>629.6666666666666</ele><time>2026-04-26T15:25:18.065Z</time></trkpt><trkpt lat="37.9854525" lon="13.2925355"><ele>629.0</ele><time>2026-04-26T15:25:19.065Z</time></trkpt><trkpt lat="37.9853561" lon="13.292711"><ele>629.0</ele><time>2026-04-26T15:25:20.065Z</time></trkpt><trkpt lat="37.9852585" lon="13.2928845"><ele>629.0</ele><time>2026-04-26T15:25:21.065Z</time></trkpt><trkpt lat="37.9851688" lon="13.2930492"><ele>629.0</ele><time>2026-04-26T15:25:22.065Z</time></trkpt><trkpt lat="37.9850854" lon="13.2932056"><ele>628.5</ele><time>2026-04-26T15:25:23.065Z</time></trkpt><trkpt lat="37.9850027" lon="13.2933524"><ele>628.0</ele><time>2026-04-26T15:25:24.065Z</time></trkpt><trkpt lat="37.9849262" lon="13.2934897"><ele>627.5</ele><time>2026-04-26T15:25:25.065Z</time></trkpt><trkpt lat="37.9848522" lon="13.2936197"><ele>627.0</ele><time>2026-04-26T15:25:26.065Z</time></trkpt><trkpt lat="37.984777" lon="13.2937556"><ele>627.0</ele><time>2026-04-26T15:25:27.065Z</time></trkpt><trkpt lat="37.984705" lon="13.2939029"><ele>627.0</ele><time>2026-04-26T15:25:28.065Z</time></trkpt><trkpt lat="37.9846291" lon="13.2940566"><ele>627.0</ele><time>2026-04-26T15:25:29.065Z</time></trkpt><trkpt lat="37.9845493" lon="13.2942083"><ele>627.0</ele><time>2026-04-26T15:25:30.065Z</time></trkpt><trkpt lat="37.9844726" lon="13.2943479"><ele>626.5</ele><time>2026-04-26T15:25:31.066Z</time></trkpt><trkpt lat="37.9844025" lon="13.2944843"><ele>626.0</ele><time>2026-04-26T15:25:32.065Z</time></trkpt><trkpt lat="37.9843359" lon="13.2946142"><ele>625.5</ele><time>2026-04-26T15:25:33.065Z</time></trkpt><trkpt lat="37.9842758" lon="13.2947316"><ele>625.0</ele><time>2026-04-26T15:25:34.066Z</time></trkpt><trkpt lat="37.9842176" lon="13.2948414"><ele>624.8333333333334</ele><time>2026-04-26T15:25:35.065Z</time></trkpt><trkpt lat="37.9841646" lon="13.2949339"><ele>624.6666666666667</ele><time>2026-04-26T15:25:36.065Z</time></trkpt><trkpt lat="37.9841083" lon="13.2949974"><ele>624.5</ele><time>2026-04-26T15:25:37.065Z</time></trkpt><trkpt lat="37.9840394" lon="13.2950467"><ele>624.3333333333334</ele><time>2026-04-26T15:25:38.066Z</time></trkpt><trkpt lat="37.9839583" lon="13.295089"><ele>624.1666666666666</ele><time>2026-04-26T15:25:39.065Z</time></trkpt><trkpt lat="37.9838619" lon="13.2951409"><ele>624.0</ele><time>2026-04-26T15:25:40.065Z</time></trkpt><trkpt lat="37.9837565" lon="13.2951997"><ele>624.0</ele><time>2026-04-26T15:25:41.065Z</time></trkpt><trkpt lat="37.9836402" lon="13.2952567"><ele>624.0</ele><time>2026-04-26T15:25:42.065Z</time></trkpt><trkpt lat="37.9835112" lon="13.2953211"><ele>624.0</ele><time>2026-04-26T15:25:43.066Z</time></trkpt><trkpt lat="37.98338" lon="13.2953892"><ele>624.0</ele><time>2026-04-26T15:25:44.065Z</time></trkpt><trkpt lat="37.9832548" lon="13.2954531"><ele>624.0</ele><time>2026-04-26T15:25:45.065Z</time></trkpt><trkpt lat="37.9831335" lon="13.2955149"><ele>624.0</ele><time>2026-04-26T15:25:46.065Z</time></trkpt><trkpt lat="37.9830176" lon="13.2955668"><ele>624.0</ele><time>2026-04-26T15:25:47.065Z</time></trkpt><trkpt lat="37.982899" lon="13.2956192"><ele>624.0</ele><time>2026-04-26T15:25:48.065Z</time></trkpt><trkpt lat="37.9827803" lon="13.2956675"><ele>623.8</ele><time>2026-04-26T15:25:49.065Z</time></trkpt><trkpt lat="37.9826643" lon="13.2957017"><ele>623.5999999999999</ele><time>2026-04-26T15:25:50.066Z</time></trkpt><trkpt lat="37.9825473" lon="13.2957254"><ele>623.4</ele><time>2026-04-26T15:25:51.065Z</time></trkpt><trkpt lat="37.9824378" lon="13.2957557"><ele>623.1999999999999</ele><time>2026-04-26T15:25:52.066Z</time></trkpt><trkpt lat="37.9823392" lon="13.2957743"><ele>623.0</ele><time>2026-04-26T15:25:53.065Z</time></trkpt><trkpt lat="37.9822625" lon="13.2957904"><ele>622.6666666666666</ele><time>2026-04-26T15:25:54.065Z</time></trkpt><trkpt lat="37.9821641" lon="13.2958061"><ele>622.3333333333333</ele><time>2026-04-26T15:25:56.065Z</time></trkpt><trkpt lat="37.9821016" lon="13.2958268"><ele>622.0</ele><time>2026-04-26T15:25:59.065Z</time></trkpt><trkpt lat="37.9820236" lon="13.2958651"><ele>621.6666666666666</ele><time>2026-04-26T15:26:02.065Z</time></trkpt><trkpt lat="37.9819622" lon="13.2958833"><ele>621.3333333333334</ele><time>2026-04-26T15:26:03.065Z</time></trkpt><trkpt lat="37.9818904" lon="13.2959011"><ele>621.0</ele><time>2026-04-26T15:26:04.065Z</time></trkpt><trkpt lat="37.9818077" lon="13.2959162"><ele>621.0</ele><time>2026-04-26T15:26:05.065Z</time></trkpt><trkpt lat="37.9817277" lon="13.2959375"><ele>621.0</ele><time>2026-04-26T15:26:06.066Z</time></trkpt><trkpt lat="37.981654" lon="13.2959546"><ele>621.0</ele><time>2026-04-26T15:26:07.066Z</time></trkpt><trkpt lat="37.9815904" lon="13.2959711"><ele>621.0</ele><time>2026-04-26T15:26:09.065Z</time></trkpt><trkpt lat="37.9815283" lon="13.295991"><ele>621.0</ele><time>2026-04-26T15:26:52.066Z</time></trkpt><trkpt lat="37.9814612" lon="13.2960243"><ele>621.0</ele><time>2026-04-26T15:26:55.065Z</time></trkpt><trkpt lat="37.9813449" lon="13.2960705"><ele>620.8571428571428</ele><time>2026-04-26T15:26:57.065Z</time></trkpt><trkpt lat="37.981278" lon="13.2960974"><ele>620.7142857142857</ele><time>2026-04-26T15:26:58.065Z</time></trkpt><trkpt lat="37.9812061" lon="13.2961233"><ele>620.5714285714286</ele><time>2026-04-26T15:26:59.065Z</time></trkpt><trkpt lat="37.9811415" lon="13.2961561"><ele>620.4285714285713</ele><time>2026-04-26T15:27:00.065Z</time></trkpt><trkpt lat="37.9810798" lon="13.2961939"><ele>620.2857142857142</ele><time>2026-04-26T15:27:01.065Z</time></trkpt><trkpt lat="37.9810167" lon="13.2962358"><ele>620.1428571428571</ele><time>2026-04-26T15:27:02.065Z</time></trkpt><trkpt lat="37.9809485" lon="13.2962728"><ele>620.0</ele><time>2026-04-26T15:27:03.065Z</time></trkpt><trkpt lat="37.980885" lon="13.296304"><ele>619.8333333333333</ele><time>2026-04-26T15:27:04.065Z</time></trkpt><trkpt lat="37.9808227" lon="13.2963322"><ele>619.6666666666666</ele><time>2026-04-26T15:27:05.065Z</time></trkpt><trkpt lat="37.9807125" lon="13.2963808"><ele>619.5</ele><time>2026-04-26T15:27:07.065Z</time></trkpt><trkpt lat="37.9806026" lon="13.2964411"><ele>619.3333333333334</ele><time>2026-04-26T15:27:09.065Z</time></trkpt><trkpt lat="37.9805454" lon="13.2964833"><ele>619.1666666666667</ele><time>2026-04-26T15:27:10.065Z</time></trkpt><trkpt lat="37.9804868" lon="13.296528"><ele>619.0</ele><time>2026-04-26T15:27:11.066Z</time></trkpt><trkpt lat="37.9804231" lon="13.296578"><ele>619.0</ele><time>2026-04-26T15:27:12.065Z</time></trkpt><trkpt lat="37.9803627" lon="13.2966324"><ele>619.0</ele><time>2026-04-26T15:27:13.065Z</time></trkpt><trkpt lat="37.9802996" lon="13.2966859"><ele>619.0</ele><time>2026-04-26T15:27:14.065Z</time></trkpt><trkpt lat="37.9802431" lon="13.2967329"><ele>619.0</ele><time>2026-04-26T15:27:15.065Z</time></trkpt><trkpt lat="37.9801585" lon="13.2967981"><ele>619.0</ele><time>2026-04-26T15:27:17.065Z</time></trkpt><trkpt lat="37.9801593" lon="13.2968913"><ele>619.0</ele><time>2026-04-26T15:27:21.066Z</time></trkpt><trkpt lat="37.9801951" lon="13.2969961"><ele>619.0</ele><time>2026-04-26T15:27:24.065Z</time></trkpt><trkpt lat="37.9801641" lon="13.2970733"><ele>619.0</ele><time>2026-04-26T15:27:26.066Z</time></trkpt><trkpt lat="37.9801128" lon="13.2971551"><ele>619.0</ele><time>2026-04-26T15:27:29.065Z</time></trkpt><trkpt lat="37.9800617" lon="13.2972414"><ele>619.0</ele><time>2026-04-26T15:27:32.065Z</time></trkpt><trkpt lat="37.9800076" lon="13.2973348"><ele>619.0</ele><time>2026-04-26T15:27:35.065Z</time></trkpt><trkpt lat="37.9799799" lon="13.2974125"><ele>619.0</ele><time>2026-04-26T15:27:37.066Z</time></trkpt><trkpt lat="37.9799319" lon="13.297501"><ele>618.6666666666667</ele><time>2026-04-26T15:27:39.065Z</time></trkpt><trkpt lat="37.9798706" lon="13.2975808"><ele>618.3333333333334</ele><time>2026-04-26T15:27:41.065Z</time></trkpt><trkpt lat="37.9798284" lon="13.297672"><ele>618.0</ele><time>2026-04-26T15:27:43.065Z</time></trkpt><trkpt lat="37.9797808" lon="13.297763"><ele>617.6666666666666</ele><time>2026-04-26T15:27:45.065Z</time></trkpt><trkpt lat="37.9797402" lon="13.2978412"><ele>617.3333333333333</ele><time>2026-04-26T15:27:47.065Z</time></trkpt><trkpt lat="37.979696" lon="13.2979179"><ele>617.0</ele><time>2026-04-26T15:27:49.065Z</time></trkpt><trkpt lat="37.9796566" lon="13.2979882"><ele>617.0</ele><time>2026-04-26T15:27:51.065Z</time></trkpt><trkpt lat="37.9796195" lon="13.2980619"><ele>617.0</ele><time>2026-04-26T15:27:54.065Z</time></trkpt><trkpt lat="37.9795821" lon="13.298127"><ele>617.0</ele><time>2026-04-26T15:27:56.065Z</time></trkpt><trkpt lat="37.9795352" lon="13.2982053"><ele>617.0</ele><time>2026-04-26T15:27:58.065Z</time></trkpt><trkpt lat="37.9795765" lon="13.2981389"><ele>617.0</ele><time>2026-04-26T15:28:27.066Z</time></trkpt><trkpt lat="37.9796294" lon="13.2980615"><ele>617.0</ele><time>2026-04-26T15:28:30.066Z</time></trkpt><trkpt lat="37.9796902" lon="13.2979824"><ele>617.0</ele><time>2026-04-26T15:28:33.066Z</time></trkpt><trkpt lat="37.979728" lon="13.2979101"><ele>617.0</ele><time>2026-04-26T15:28:35.066Z</time></trkpt><trkpt lat="37.9797686" lon="13.2978424"><ele>617.0</ele><time>2026-04-26T15:28:37.065Z</time></trkpt><trkpt lat="37.9798087" lon="13.2977565"><ele>617.0</ele><time>2026-04-26T15:28:39.065Z</time></trkpt><trkpt lat="37.9798514" lon="13.2976673"><ele>617.0</ele><time>2026-04-26T15:28:41.066Z</time></trkpt><trkpt lat="37.9798874" lon="13.2975827"><ele>617.0</ele><time>2026-04-26T15:28:43.065Z</time></trkpt><trkpt lat="37.9799234" lon="13.2975089"><ele>617.0</ele><time>2026-04-26T15:28:45.066Z</time></trkpt><trkpt lat="37.9799789" lon="13.2974113"><ele>617.4</ele><time>2026-04-26T15:28:47.065Z</time></trkpt><trkpt lat="37.9800378" lon="13.2973047"><ele>617.8000000000001</ele><time>2026-04-26T15:28:49.066Z</time></trkpt><trkpt lat="37.9800945" lon="13.2971949"><ele>618.2</ele><time>2026-04-26T15:28:51.065Z</time></trkpt><trkpt lat="37.9801468" lon="13.2971099"><ele>618.6</ele><time>2026-04-26T15:28:53.065Z</time></trkpt><trkpt lat="37.9801905" lon="13.2970077"><ele>619.0</ele><time>2026-04-26T15:28:55.065Z</time></trkpt><trkpt lat="37.9801841" lon="13.2969099"><ele>619.0</ele><time>2026-04-26T15:28:57.066Z</time></trkpt><trkpt lat="37.9800761" lon="13.2968709"><ele>619.0</ele><time>2026-04-26T15:29:03.066Z</time></trkpt><trkpt lat="37.9800192" lon="13.296918"><ele>619.0</ele><time>2026-04-26T15:29:04.065Z</time></trkpt><trkpt lat="37.9799564" lon="13.2969618"><ele>619.0</ele><time>2026-04-26T15:29:05.065Z</time></trkpt><trkpt lat="37.9798733" lon="13.2970036"><ele>619.0</ele><time>2026-04-26T15:29:06.065Z</time></trkpt><trkpt lat="37.9797877" lon="13.2970337"><ele>619.0</ele><time>2026-04-26T15:29:07.065Z</time></trkpt><trkpt lat="37.979711" lon="13.297057"><ele>618.2</ele><time>2026-04-26T15:29:08.066Z</time></trkpt><trkpt lat="37.9796434" lon="13.2970707"><ele>617.4</ele><time>2026-04-26T15:29:09.065Z</time></trkpt><trkpt lat="37.97953" lon="13.2970888"><ele>616.6</ele><time>2026-04-26T15:29:11.065Z</time></trkpt><trkpt lat="37.9794532" lon="13.2971094"><ele>615.8</ele><time>2026-04-26T15:29:13.066Z</time></trkpt><trkpt lat="37.9793666" lon="13.2971451"><ele>615.0</ele><time>2026-04-26T15:29:16.066Z</time></trkpt><trkpt lat="37.9792716" lon="13.2971939"><ele>615.2</ele><time>2026-04-26T15:29:18.065Z</time></trkpt><trkpt lat="37.9791573" lon="13.2972557"><ele>615.4</ele><time>2026-04-26T15:29:20.065Z</time></trkpt><trkpt lat="37.979096" lon="13.2972975"><ele>615.6</ele><time>2026-04-26T15:29:21.065Z</time></trkpt><trkpt lat="37.9790406" lon="13.2973363"><ele>615.8</ele><time>2026-04-26T15:29:22.065Z</time></trkpt><trkpt lat="37.978946" lon="13.2974006"><ele>616.0</ele><time>2026-04-26T15:29:24.065Z</time></trkpt><trkpt lat="37.9788506" lon="13.2974779"><ele>616.0</ele><time>2026-04-26T15:29:26.065Z</time></trkpt><trkpt lat="37.9787942" lon="13.2975221"><ele>616.0</ele><time>2026-04-26T15:29:27.065Z</time></trkpt><trkpt lat="37.978725" lon="13.2975709"><ele>616.0</ele><time>2026-04-26T15:29:28.066Z</time></trkpt><trkpt lat="37.978655" lon="13.2976145"><ele>616.0</ele><time>2026-04-26T15:29:29.065Z</time></trkpt><trkpt lat="37.9785894" lon="13.2976653"><ele>616.0</ele><time>2026-04-26T15:29:30.065Z</time></trkpt><trkpt lat="37.9785302" lon="13.2977033"><ele>616.0</ele><time>2026-04-26T15:29:31.065Z</time></trkpt><trkpt lat="37.9784742" lon="13.2977467"><ele>616.0</ele><time>2026-04-26T15:29:32.065Z</time></trkpt><trkpt lat="37.9784163" lon="13.2977912"><ele>616.0</ele><time>2026-04-26T15:29:33.065Z</time></trkpt><trkpt lat="37.9783659" lon="13.297843"><ele>616.0</ele><time>2026-04-26T15:29:34.065Z</time></trkpt><trkpt lat="37.9782723" lon="13.2979335"><ele>616.0</ele><time>2026-04-26T15:29:36.065Z</time></trkpt><trkpt lat="37.9782161" lon="13.2979791"><ele>616.0</ele><time>2026-04-26T15:29:37.066Z</time></trkpt><trkpt lat="37.9781575" lon="13.2980299"><ele>616.0</ele><time>2026-04-26T15:29:38.065Z</time></trkpt><trkpt lat="37.9780978" lon="13.2980864"><ele>616.0</ele><time>2026-04-26T15:29:39.065Z</time></trkpt><trkpt lat="37.9780401" lon="13.2981372"><ele>616.1666666666667</ele><time>2026-04-26T15:29:40.065Z</time></trkpt><trkpt lat="37.9779852" lon="13.2981821"><ele>616.3333333333334</ele><time>2026-04-26T15:29:41.065Z</time></trkpt><trkpt lat="37.9778967" lon="13.2982496"><ele>616.5</ele><time>2026-04-26T15:29:43.065Z</time></trkpt><trkpt lat="37.9778175" lon="13.298293"><ele>616.6666666666666</ele><time>2026-04-26T15:29:45.066Z</time></trkpt><trkpt lat="37.9777313" lon="13.2983267"><ele>616.8333333333333</ele><time>2026-04-26T15:29:47.065Z</time></trkpt><trkpt lat="37.9776527" lon="13.298362"><ele>617.0</ele><time>2026-04-26T15:29:49.065Z</time></trkpt><trkpt lat="37.9775841" lon="13.2984098"><ele>617.0</ele><time>2026-04-26T15:29:51.065Z</time></trkpt><trkpt lat="37.9775195" lon="13.2984796"><ele>617.0</ele><time>2026-04-26T15:29:54.065Z</time></trkpt><trkpt lat="37.9774547" lon="13.2985612"><ele>614.0</ele><time>2026-04-26T15:29:57.065Z</time></trkpt><trkpt lat="37.9773873" lon="13.2985924"><ele>614.0</ele><time>2026-04-26T15:30:00.066Z</time></trkpt></trkseg></trk></gpx>